<?xml version="1.0" encoding="UTF-8" standalone="no" ?>
<gpx xmlns="http://www.topografix.com/GPX/1/1" xmlns:xsi="http://www.w3.org/2001/XMLSchema-instance" xsi:schemaLocation="http://www.topografix.com/GPX/1/1 http://www.topografix.com/GPX/1/1/gpx.xsd" version="1.1" creator="VisuGPX - https://www.visugpx.com">
  <metadata>
    <name>Testtest</name>
    <desc><![CDATA[test test test test]]></desc>
  </metadata>
  <trk>
    <name><![CDATA[Testtest_1]]></name>
    <trkseg>
      <trkpt lat="45.67063" lon="6.90677">
        <ele>2803.9</ele>
        <time>2012-03-28T10:39:22.69</time>
      </trkpt>
      <trkpt lat="45.67063" lon="6.90677">
        <ele>2803.9</ele>
        <time>2012-03-28T10:39:22.93</time>
      </trkpt>
      <trkpt lat="45.67063" lon="6.90677">
        <ele>2810.4</ele>
        <time>2012-03-28T10:39:24.40</time>
      </trkpt>
      <trkpt lat="45.67063" lon="6.90677">
        <ele>2813.4</ele>
        <time>2012-03-28T10:39:25.44</time>
      </trkpt>
      <trkpt lat="45.67063" lon="6.90677">
        <ele>2816.4</ele>
        <time>2012-03-28T10:39:26.44</time>
      </trkpt>
      <trkpt lat="45.67064" lon="6.90678">
        <ele>2817.7</ele>
        <time>2012-03-28T10:39:27.38</time>
      </trkpt>
      <trkpt lat="45.67064" lon="6.90677">
        <ele>2816.2</ele>
        <time>2012-03-28T10:39:28.44</time>
      </trkpt>
      <trkpt lat="45.67064" lon="6.90677">
        <ele>2814.7</ele>
        <time>2012-03-28T10:39:29.44</time>
      </trkpt>
      <trkpt lat="45.67064" lon="6.90677">
        <ele>2814.2</ele>
        <time>2012-03-28T10:39:30.45</time>
      </trkpt>
      <trkpt lat="45.67065" lon="6.90676">
        <ele>2813.1</ele>
        <time>2012-03-28T10:39:31.43</time>
      </trkpt>
      <trkpt lat="45.67065" lon="6.90676">
        <ele>2813.2</ele>
        <time>2012-03-28T10:39:32.44</time>
      </trkpt>
      <trkpt lat="45.67065" lon="6.90676">
        <ele>2814.4</ele>
        <time>2012-03-28T10:39:33.45</time>
      </trkpt>
      <trkpt lat="45.67065" lon="6.90676">
        <ele>2814.2</ele>
        <time>2012-03-28T10:39:34.45</time>
      </trkpt>
      <trkpt lat="45.67065" lon="6.90676">
        <ele>2813.4</ele>
        <time>2012-03-28T10:39:35.43</time>
      </trkpt>
      <trkpt lat="45.67064" lon="6.90675">
        <ele>2814.7</ele>
        <time>2012-03-28T10:39:36.46</time>
      </trkpt>
      <trkpt lat="45.67064" lon="6.90675">
        <ele>2814.1</ele>
        <time>2012-03-28T10:39:37.46</time>
      </trkpt>
      <trkpt lat="45.67064" lon="6.90675">
        <ele>2813.7</ele>
        <time>2012-03-28T10:39:38.44</time>
      </trkpt>
      <trkpt lat="45.67064" lon="6.90675">
        <ele>2814.9</ele>
        <time>2012-03-28T10:39:39.44</time>
      </trkpt>
      <trkpt lat="45.67064" lon="6.90675">
        <ele>2813.2</ele>
        <time>2012-03-28T10:39:40.45</time>
      </trkpt>
      <trkpt lat="45.67064" lon="6.90675">
        <ele>2811.6</ele>
        <time>2012-03-28T10:39:41.45</time>
      </trkpt>
      <trkpt lat="45.67064" lon="6.90675">
        <ele>2812</ele>
        <time>2012-03-28T10:39:42.45</time>
      </trkpt>
      <trkpt lat="45.67064" lon="6.90675">
        <ele>2812.2</ele>
        <time>2012-03-28T10:39:43.46</time>
      </trkpt>
      <trkpt lat="45.67064" lon="6.90675">
        <ele>2813.5</ele>
        <time>2012-03-28T10:39:44.44</time>
      </trkpt>
      <trkpt lat="45.67064" lon="6.90675">
        <ele>2816.1</ele>
        <time>2012-03-28T10:39:45.44</time>
      </trkpt>
      <trkpt lat="45.67064" lon="6.90675">
        <ele>2816.1</ele>
        <time>2012-03-28T10:39:46.46</time>
      </trkpt>
      <trkpt lat="45.67064" lon="6.90674">
        <ele>2815.8</ele>
        <time>2012-03-28T10:39:47.44</time>
      </trkpt>
      <trkpt lat="45.67064" lon="6.90674">
        <ele>2815.2</ele>
        <time>2012-03-28T10:39:48.44</time>
      </trkpt>
      <trkpt lat="45.67064" lon="6.90674">
        <ele>2816</ele>
        <time>2012-03-28T10:39:49.45</time>
      </trkpt>
      <trkpt lat="45.67064" lon="6.90675">
        <ele>2816.9</ele>
        <time>2012-03-28T10:39:50.45</time>
      </trkpt>
      <trkpt lat="45.67064" lon="6.90675">
        <ele>2819.9</ele>
        <time>2012-03-28T10:39:51.45</time>
      </trkpt>
      <trkpt lat="45.67064" lon="6.90675">
        <ele>2819.9</ele>
        <time>2012-03-28T10:39:52.45</time>
      </trkpt>
      <trkpt lat="45.67064" lon="6.90675">
        <ele>2819.9</ele>
        <time>2012-03-28T10:39:53.46</time>
      </trkpt>
      <trkpt lat="45.67064" lon="6.90675">
        <ele>2819.2</ele>
        <time>2012-03-28T10:39:54.46</time>
      </trkpt>
      <trkpt lat="45.67064" lon="6.90675">
        <ele>2817.3</ele>
        <time>2012-03-28T10:39:55.45</time>
      </trkpt>
      <trkpt lat="45.67064" lon="6.90675">
        <ele>2819</ele>
        <time>2012-03-28T10:39:56.46</time>
      </trkpt>
      <trkpt lat="45.67064" lon="6.90675">
        <ele>2816.5</ele>
        <time>2012-03-28T10:39:57.45</time>
      </trkpt>
      <trkpt lat="45.67064" lon="6.90675">
        <ele>2817.9</ele>
        <time>2012-03-28T10:39:58.45</time>
      </trkpt>
      <trkpt lat="45.67064" lon="6.90675">
        <ele>2816.4</ele>
        <time>2012-03-28T10:39:59.46</time>
      </trkpt>
      <trkpt lat="45.67063" lon="6.90674">
        <ele>2814.1</ele>
        <time>2012-03-28T10:40:00.44</time>
      </trkpt>
      <trkpt lat="45.67063" lon="6.90674">
        <ele>2811.7</ele>
        <time>2012-03-28T10:40:01.45</time>
      </trkpt>
      <trkpt lat="45.67063" lon="6.90673">
        <ele>2811.4</ele>
        <time>2012-03-28T10:40:02.44</time>
      </trkpt>
      <trkpt lat="45.67064" lon="6.90672">
        <ele>2810.9</ele>
        <time>2012-03-28T10:40:03.46</time>
      </trkpt>
      <trkpt lat="45.67064" lon="6.90672">
        <ele>2810.8</ele>
        <time>2012-03-28T10:40:04.44</time>
      </trkpt>
      <trkpt lat="45.67064" lon="6.90672">
        <ele>2813.2</ele>
        <time>2012-03-28T10:40:05.45</time>
      </trkpt>
      <trkpt lat="45.67064" lon="6.90672">
        <ele>2813.7</ele>
        <time>2012-03-28T10:40:06.44</time>
      </trkpt>
      <trkpt lat="45.67063" lon="6.90672">
        <ele>2815.5</ele>
        <time>2012-03-28T10:40:07.46</time>
      </trkpt>
      <trkpt lat="45.67063" lon="6.90671">
        <ele>2816.1</ele>
        <time>2012-03-28T10:40:08.44</time>
      </trkpt>
      <trkpt lat="45.67063" lon="6.90671">
        <ele>2818.5</ele>
        <time>2012-03-28T10:40:09.45</time>
      </trkpt>
      <trkpt lat="45.67063" lon="6.9067">
        <ele>2818.6</ele>
        <time>2012-03-28T10:40:10.44</time>
      </trkpt>
      <trkpt lat="45.67063" lon="6.90669">
        <ele>2819.3</ele>
        <time>2012-03-28T10:40:11.45</time>
      </trkpt>
      <trkpt lat="45.67063" lon="6.9067">
        <ele>2816.5</ele>
        <time>2012-03-28T10:40:12.45</time>
      </trkpt>
      <trkpt lat="45.67063" lon="6.9067">
        <ele>2817.5</ele>
        <time>2012-03-28T10:40:13.44</time>
      </trkpt>
      <trkpt lat="45.67062" lon="6.9067">
        <ele>2820.1</ele>
        <time>2012-03-28T10:40:14.44</time>
      </trkpt>
      <trkpt lat="45.67062" lon="6.90671">
        <ele>2822.1</ele>
        <time>2012-03-28T10:40:15.44</time>
      </trkpt>
      <trkpt lat="45.67062" lon="6.90671">
        <ele>2823</ele>
        <time>2012-03-28T10:40:16.44</time>
      </trkpt>
      <trkpt lat="45.67062" lon="6.90671">
        <ele>2820.6</ele>
        <time>2012-03-28T10:40:17.44</time>
      </trkpt>
      <trkpt lat="45.67062" lon="6.90671">
        <ele>2819.2</ele>
        <time>2012-03-28T10:40:18.46</time>
      </trkpt>
      <trkpt lat="45.67062" lon="6.90671">
        <ele>2820</ele>
        <time>2012-03-28T10:40:19.46</time>
      </trkpt>
      <trkpt lat="45.67062" lon="6.90671">
        <ele>2820.3</ele>
        <time>2012-03-28T10:40:20.46</time>
      </trkpt>
      <trkpt lat="45.67062" lon="6.90671">
        <ele>2820.2</ele>
        <time>2012-03-28T10:40:21.46</time>
      </trkpt>
      <trkpt lat="45.67062" lon="6.90671">
        <ele>2817.5</ele>
        <time>2012-03-28T10:40:22.46</time>
      </trkpt>
      <trkpt lat="45.67061" lon="6.90668">
        <ele>2815.2</ele>
        <time>2012-03-28T10:40:23.45</time>
      </trkpt>
      <trkpt lat="45.67059" lon="6.90666">
        <ele>2814.4</ele>
        <time>2012-03-28T10:40:24.44</time>
      </trkpt>
      <trkpt lat="45.67056" lon="6.90665">
        <ele>2818.1</ele>
        <time>2012-03-28T10:40:25.44</time>
      </trkpt>
      <trkpt lat="45.67054" lon="6.90665">
        <ele>2817.8</ele>
        <time>2012-03-28T10:40:26.44</time>
      </trkpt>
      <trkpt lat="45.67054" lon="6.90665">
        <ele>2817.1</ele>
        <time>2012-03-28T10:40:27.44</time>
      </trkpt>
      <trkpt lat="45.67054" lon="6.90665">
        <ele>2816.8</ele>
        <time>2012-03-28T10:40:28.44</time>
      </trkpt>
      <trkpt lat="45.67054" lon="6.90665">
        <ele>2813.2</ele>
        <time>2012-03-28T10:40:29.44</time>
      </trkpt>
      <trkpt lat="45.67054" lon="6.90665">
        <ele>2813.5</ele>
        <time>2012-03-28T10:40:30.44</time>
      </trkpt>
      <trkpt lat="45.67054" lon="6.90665">
        <ele>2813.7</ele>
        <time>2012-03-28T10:40:31.45</time>
      </trkpt>
      <trkpt lat="45.67054" lon="6.90665">
        <ele>2814.6</ele>
        <time>2012-03-28T10:40:32.46</time>
      </trkpt>
      <trkpt lat="45.67054" lon="6.90665">
        <ele>2815.9</ele>
        <time>2012-03-28T10:40:33.46</time>
      </trkpt>
      <trkpt lat="45.67054" lon="6.90665">
        <ele>2819.3</ele>
        <time>2012-03-28T10:40:34.46</time>
      </trkpt>
      <trkpt lat="45.67054" lon="6.90665">
        <ele>2821.1</ele>
        <time>2012-03-28T10:40:35.46</time>
      </trkpt>
      <trkpt lat="45.67059" lon="6.90671">
        <ele>2819.9</ele>
        <time>2012-03-28T10:40:36.46</time>
      </trkpt>
      <trkpt lat="45.67059" lon="6.90671">
        <ele>2818</ele>
        <time>2012-03-28T10:40:37.46</time>
      </trkpt>
      <trkpt lat="45.67059" lon="6.90671">
        <ele>2816.2</ele>
        <time>2012-03-28T10:40:38.45</time>
      </trkpt>
      <trkpt lat="45.67059" lon="6.90671">
        <ele>2813.8</ele>
        <time>2012-03-28T10:40:39.45</time>
      </trkpt>
      <trkpt lat="45.67059" lon="6.90671">
        <ele>2813.8</ele>
        <time>2012-03-28T10:40:40.44</time>
      </trkpt>
      <trkpt lat="45.67063" lon="6.90674">
        <ele>2814.9</ele>
        <time>2012-03-28T10:40:41.45</time>
      </trkpt>
      <trkpt lat="45.67064" lon="6.90675">
        <ele>2812.3</ele>
        <time>2012-03-28T10:40:42.45</time>
      </trkpt>
      <trkpt lat="45.67066" lon="6.90675">
        <ele>2813.2</ele>
        <time>2012-03-28T10:40:43.46</time>
      </trkpt>
      <trkpt lat="45.67066" lon="6.90675">
        <ele>2812.9</ele>
        <time>2012-03-28T10:40:44.46</time>
      </trkpt>
      <trkpt lat="45.67066" lon="6.90675">
        <ele>2810.7</ele>
        <time>2012-03-28T10:40:45.46</time>
      </trkpt>
      <trkpt lat="45.67066" lon="6.90675">
        <ele>2807.5</ele>
        <time>2012-03-28T10:40:46.44</time>
      </trkpt>
      <trkpt lat="45.67066" lon="6.90675">
        <ele>2810.4</ele>
        <time>2012-03-28T10:40:47.43</time>
      </trkpt>
      <trkpt lat="45.67066" lon="6.90675">
        <ele>2810.4</ele>
        <time>2012-03-28T10:40:48.45</time>
      </trkpt>
      <trkpt lat="45.67066" lon="6.90675">
        <ele>2792.1</ele>
        <time>2012-03-28T10:40:49.45</time>
      </trkpt>
      <trkpt lat="45.67066" lon="6.90675">
        <ele>2792.1</ele>
        <time>2012-03-28T10:40:50.43</time>
      </trkpt>
      <trkpt lat="45.67066" lon="6.90675">
        <ele>2806.4</ele>
        <time>2012-03-28T10:40:51.44</time>
      </trkpt>
      <trkpt lat="45.67066" lon="6.90675">
        <ele>2809.9</ele>
        <time>2012-03-28T10:40:52.44</time>
      </trkpt>
      <trkpt lat="45.67066" lon="6.90675">
        <ele>2810.8</ele>
        <time>2012-03-28T10:40:53.44</time>
      </trkpt>
      <trkpt lat="45.67066" lon="6.90675">
        <ele>2812.2</ele>
        <time>2012-03-28T10:40:54.43</time>
      </trkpt>
      <trkpt lat="45.67066" lon="6.90675">
        <ele>2813.7</ele>
        <time>2012-03-28T10:40:55.43</time>
      </trkpt>
      <trkpt lat="45.67066" lon="6.90675">
        <ele>2814.7</ele>
        <time>2012-03-28T10:40:56.43</time>
      </trkpt>
      <trkpt lat="45.67067" lon="6.90676">
        <ele>2811.2</ele>
        <time>2012-03-28T10:40:57.43</time>
      </trkpt>
      <trkpt lat="45.67068" lon="6.90674">
        <ele>2806.3</ele>
        <time>2012-03-28T10:40:58.44</time>
      </trkpt>
      <trkpt lat="45.67068" lon="6.90674">
        <ele>2806.7</ele>
        <time>2012-03-28T10:40:59.45</time>
      </trkpt>
      <trkpt lat="45.67068" lon="6.90674">
        <ele>2807.9</ele>
        <time>2012-03-28T10:41:00.45</time>
      </trkpt>
      <trkpt lat="45.67068" lon="6.90674">
        <ele>2807.2</ele>
        <time>2012-03-28T10:41:01.45</time>
      </trkpt>
      <trkpt lat="45.67068" lon="6.90674">
        <ele>2809</ele>
        <time>2012-03-28T10:41:02.46</time>
      </trkpt>
      <trkpt lat="45.67068" lon="6.90674">
        <ele>2811.1</ele>
        <time>2012-03-28T10:41:03.45</time>
      </trkpt>
      <trkpt lat="45.67068" lon="6.90674">
        <ele>2811.5</ele>
        <time>2012-03-28T10:41:04.45</time>
      </trkpt>
      <trkpt lat="45.67068" lon="6.90675">
        <ele>2811.9</ele>
        <time>2012-03-28T10:41:05.45</time>
      </trkpt>
      <trkpt lat="45.67068" lon="6.90675">
        <ele>2810.9</ele>
        <time>2012-03-28T10:41:06.45</time>
      </trkpt>
      <trkpt lat="45.67068" lon="6.90677">
        <ele>2811</ele>
        <time>2012-03-28T10:41:07.45</time>
      </trkpt>
      <trkpt lat="45.67068" lon="6.90677">
        <ele>2811.6</ele>
        <time>2012-03-28T10:41:08.46</time>
      </trkpt>
      <trkpt lat="45.67068" lon="6.90677">
        <ele>2811.5</ele>
        <time>2012-03-28T10:41:09.46</time>
      </trkpt>
      <trkpt lat="45.67068" lon="6.90677">
        <ele>2810.7</ele>
        <time>2012-03-28T10:41:10.46</time>
      </trkpt>
      <trkpt lat="45.6707" lon="6.90679">
        <ele>2811.2</ele>
        <time>2012-03-28T10:41:11.45</time>
      </trkpt>
      <trkpt lat="45.6707" lon="6.90679">
        <ele>2811.9</ele>
        <time>2012-03-28T10:41:12.46</time>
      </trkpt>
      <trkpt lat="45.6707" lon="6.90679">
        <ele>2812.5</ele>
        <time>2012-03-28T10:41:13.46</time>
      </trkpt>
      <trkpt lat="45.67071" lon="6.90679">
        <ele>2815.9</ele>
        <time>2012-03-28T10:41:14.44</time>
      </trkpt>
      <trkpt lat="45.67071" lon="6.90679">
        <ele>2813.5</ele>
        <time>2012-03-28T10:41:15.45</time>
      </trkpt>
      <trkpt lat="45.67072" lon="6.90679">
        <ele>2811.5</ele>
        <time>2012-03-28T10:41:16.45</time>
      </trkpt>
      <trkpt lat="45.67072" lon="6.90679">
        <ele>2807.4</ele>
        <time>2012-03-28T10:41:17.44</time>
      </trkpt>
      <trkpt lat="45.67071" lon="6.90683">
        <ele>2805.1</ele>
        <time>2012-03-28T10:41:18.46</time>
      </trkpt>
      <trkpt lat="45.67073" lon="6.90686">
        <ele>2803.4</ele>
        <time>2012-03-28T10:41:19.46</time>
      </trkpt>
      <trkpt lat="45.67076" lon="6.90691">
        <ele>2800.8</ele>
        <time>2012-03-28T10:41:20.46</time>
      </trkpt>
      <trkpt lat="45.67079" lon="6.90694">
        <ele>2801.4</ele>
        <time>2012-03-28T10:41:21.44</time>
      </trkpt>
      <trkpt lat="45.67083" lon="6.90697">
        <ele>2797.7</ele>
        <time>2012-03-28T10:41:22.45</time>
      </trkpt>
      <trkpt lat="45.67085" lon="6.907">
        <ele>2796.5</ele>
        <time>2012-03-28T10:41:23.44</time>
      </trkpt>
      <trkpt lat="45.67087" lon="6.90707">
        <ele>2794.8</ele>
        <time>2012-03-28T10:41:24.46</time>
      </trkpt>
      <trkpt lat="45.67089" lon="6.90711">
        <ele>2797.6</ele>
        <time>2012-03-28T10:41:25.45</time>
      </trkpt>
      <trkpt lat="45.67087" lon="6.90718">
        <ele>2799.4</ele>
        <time>2012-03-28T10:41:26.43</time>
      </trkpt>
      <trkpt lat="45.67084" lon="6.90723">
        <ele>2800.5</ele>
        <time>2012-03-28T10:41:27.44</time>
      </trkpt>
      <trkpt lat="45.67083" lon="6.90729">
        <ele>2794.7</ele>
        <time>2012-03-28T10:41:28.43</time>
      </trkpt>
      <trkpt lat="45.67082" lon="6.90734">
        <ele>2791.4</ele>
        <time>2012-03-28T10:41:29.44</time>
      </trkpt>
      <trkpt lat="45.67086" lon="6.90742">
        <ele>2791</ele>
        <time>2012-03-28T10:41:30.45</time>
      </trkpt>
      <trkpt lat="45.67088" lon="6.90753">
        <ele>2786.5</ele>
        <time>2012-03-28T10:41:31.45</time>
      </trkpt>
      <trkpt lat="45.67089" lon="6.90763">
        <ele>2786.8</ele>
        <time>2012-03-28T10:41:32.45</time>
      </trkpt>
      <trkpt lat="45.6709" lon="6.90773">
        <ele>2786.3</ele>
        <time>2012-03-28T10:41:33.45</time>
      </trkpt>
      <trkpt lat="45.67091" lon="6.90782">
        <ele>2786.3</ele>
        <time>2012-03-28T10:41:34.45</time>
      </trkpt>
      <trkpt lat="45.67091" lon="6.90789">
        <ele>2784.7</ele>
        <time>2012-03-28T10:41:35.45</time>
      </trkpt>
      <trkpt lat="45.67088" lon="6.90794">
        <ele>2782.4</ele>
        <time>2012-03-28T10:41:36.45</time>
      </trkpt>
      <trkpt lat="45.67087" lon="6.90797">
        <ele>2781.6</ele>
        <time>2012-03-28T10:41:37.45</time>
      </trkpt>
      <trkpt lat="45.67084" lon="6.908">
        <ele>2782.4</ele>
        <time>2012-03-28T10:41:38.45</time>
      </trkpt>
      <trkpt lat="45.67081" lon="6.90803">
        <ele>2783.5</ele>
        <time>2012-03-28T10:41:39.45</time>
      </trkpt>
      <trkpt lat="45.67077" lon="6.90809">
        <ele>2782.7</ele>
        <time>2012-03-28T10:41:40.44</time>
      </trkpt>
      <trkpt lat="45.67076" lon="6.90815">
        <ele>2782.2</ele>
        <time>2012-03-28T10:41:41.43</time>
      </trkpt>
      <trkpt lat="45.67076" lon="6.90822">
        <ele>2781.5</ele>
        <time>2012-03-28T10:41:42.46</time>
      </trkpt>
      <trkpt lat="45.67077" lon="6.90828">
        <ele>2782.3</ele>
        <time>2012-03-28T10:41:43.46</time>
      </trkpt>
      <trkpt lat="45.67078" lon="6.90828">
        <ele>2781.8</ele>
        <time>2012-03-28T10:41:44.46</time>
      </trkpt>
      <trkpt lat="45.67078" lon="6.9083">
        <ele>2779.3</ele>
        <time>2012-03-28T10:41:45.44</time>
      </trkpt>
      <trkpt lat="45.67078" lon="6.90832">
        <ele>2778.2</ele>
        <time>2012-03-28T10:41:46.45</time>
      </trkpt>
      <trkpt lat="45.67079" lon="6.90835">
        <ele>2774.9</ele>
        <time>2012-03-28T10:41:47.45</time>
      </trkpt>
      <trkpt lat="45.67079" lon="6.90841">
        <ele>2773.9</ele>
        <time>2012-03-28T10:41:48.45</time>
      </trkpt>
      <trkpt lat="45.67079" lon="6.90846">
        <ele>2773.7</ele>
        <time>2012-03-28T10:41:49.45</time>
      </trkpt>
      <trkpt lat="45.67077" lon="6.90852">
        <ele>2774.5</ele>
        <time>2012-03-28T10:41:50.44</time>
      </trkpt>
      <trkpt lat="45.67071" lon="6.90859">
        <ele>2771.6</ele>
        <time>2012-03-28T10:41:51.43</time>
      </trkpt>
      <trkpt lat="45.67068" lon="6.90865">
        <ele>2767.8</ele>
        <time>2012-03-28T10:41:52.43</time>
      </trkpt>
      <trkpt lat="45.67066" lon="6.90869">
        <ele>2764.3</ele>
        <time>2012-03-28T10:41:53.45</time>
      </trkpt>
      <trkpt lat="45.67066" lon="6.90872">
        <ele>2762.7</ele>
        <time>2012-03-28T10:41:54.45</time>
      </trkpt>
      <trkpt lat="45.67065" lon="6.90874">
        <ele>2761.6</ele>
        <time>2012-03-28T10:41:55.45</time>
      </trkpt>
      <trkpt lat="45.67063" lon="6.90876">
        <ele>2760.7</ele>
        <time>2012-03-28T10:41:56.45</time>
      </trkpt>
      <trkpt lat="45.6706" lon="6.9088">
        <ele>2760</ele>
        <time>2012-03-28T10:41:57.45</time>
      </trkpt>
      <trkpt lat="45.67058" lon="6.90886">
        <ele>2757.8</ele>
        <time>2012-03-28T10:41:58.46</time>
      </trkpt>
      <trkpt lat="45.67059" lon="6.90891">
        <ele>2755.3</ele>
        <time>2012-03-28T10:41:59.46</time>
      </trkpt>
      <trkpt lat="45.67059" lon="6.90896">
        <ele>2753.3</ele>
        <time>2012-03-28T10:42:00.46</time>
      </trkpt>
      <trkpt lat="45.6706" lon="6.90898">
        <ele>2751.8</ele>
        <time>2012-03-28T10:42:01.46</time>
      </trkpt>
      <trkpt lat="45.67062" lon="6.90899">
        <ele>2752.3</ele>
        <time>2012-03-28T10:42:02.46</time>
      </trkpt>
      <trkpt lat="45.67064" lon="6.90901">
        <ele>2753.4</ele>
        <time>2012-03-28T10:42:03.46</time>
      </trkpt>
      <trkpt lat="45.67067" lon="6.90903">
        <ele>2755.1</ele>
        <time>2012-03-28T10:42:04.45</time>
      </trkpt>
      <trkpt lat="45.67071" lon="6.90905">
        <ele>2753.7</ele>
        <time>2012-03-28T10:42:05.46</time>
      </trkpt>
      <trkpt lat="45.67075" lon="6.90904">
        <ele>2754</ele>
        <time>2012-03-28T10:42:06.46</time>
      </trkpt>
      <trkpt lat="45.67078" lon="6.90904">
        <ele>2754.5</ele>
        <time>2012-03-28T10:42:07.44</time>
      </trkpt>
      <trkpt lat="45.67082" lon="6.90904">
        <ele>2755.2</ele>
        <time>2012-03-28T10:42:08.46</time>
      </trkpt>
      <trkpt lat="45.67086" lon="6.90906">
        <ele>2753.1</ele>
        <time>2012-03-28T10:42:09.48</time>
      </trkpt>
      <trkpt lat="45.67087" lon="6.90909">
        <ele>2752.1</ele>
        <time>2012-03-28T10:42:10.46</time>
      </trkpt>
      <trkpt lat="45.67089" lon="6.90911">
        <ele>2752</ele>
        <time>2012-03-28T10:42:11.45</time>
      </trkpt>
      <trkpt lat="45.67089" lon="6.90915">
        <ele>2747.7</ele>
        <time>2012-03-28T10:42:12.45</time>
      </trkpt>
      <trkpt lat="45.6709" lon="6.90921">
        <ele>2747.9</ele>
        <time>2012-03-28T10:42:13.45</time>
      </trkpt>
      <trkpt lat="45.67091" lon="6.90926">
        <ele>2748.2</ele>
        <time>2012-03-28T10:42:14.45</time>
      </trkpt>
      <trkpt lat="45.67094" lon="6.9093">
        <ele>2745.4</ele>
        <time>2012-03-28T10:42:15.45</time>
      </trkpt>
      <trkpt lat="45.67095" lon="6.90935">
        <ele>2740.7</ele>
        <time>2012-03-28T10:42:16.45</time>
      </trkpt>
      <trkpt lat="45.67094" lon="6.9094">
        <ele>2739.5</ele>
        <time>2012-03-28T10:42:17.45</time>
      </trkpt>
      <trkpt lat="45.67094" lon="6.90944">
        <ele>2736.5</ele>
        <time>2012-03-28T10:42:18.45</time>
      </trkpt>
      <trkpt lat="45.67094" lon="6.9095">
        <ele>2733.1</ele>
        <time>2012-03-28T10:42:19.45</time>
      </trkpt>
      <trkpt lat="45.67098" lon="6.90954">
        <ele>2729.1</ele>
        <time>2012-03-28T10:42:20.45</time>
      </trkpt>
      <trkpt lat="45.67101" lon="6.90959">
        <ele>2727.9</ele>
        <time>2012-03-28T10:42:21.46</time>
      </trkpt>
      <trkpt lat="45.67103" lon="6.90964">
        <ele>2722.2</ele>
        <time>2012-03-28T10:42:22.46</time>
      </trkpt>
      <trkpt lat="45.67103" lon="6.90968">
        <ele>2719.8</ele>
        <time>2012-03-28T10:42:23.45</time>
      </trkpt>
      <trkpt lat="45.67104" lon="6.90972">
        <ele>2720.9</ele>
        <time>2012-03-28T10:42:24.46</time>
      </trkpt>
      <trkpt lat="45.67103" lon="6.90979">
        <ele>2718.9</ele>
        <time>2012-03-28T10:42:25.46</time>
      </trkpt>
      <trkpt lat="45.67105" lon="6.90988">
        <ele>2716.1</ele>
        <time>2012-03-28T10:42:26.44</time>
      </trkpt>
      <trkpt lat="45.67109" lon="6.90995">
        <ele>2715.2</ele>
        <time>2012-03-28T10:42:27.44</time>
      </trkpt>
      <trkpt lat="45.67113" lon="6.91001">
        <ele>2711.2</ele>
        <time>2012-03-28T10:42:28.46</time>
      </trkpt>
      <trkpt lat="45.6712" lon="6.91004">
        <ele>2704.6</ele>
        <time>2012-03-28T10:42:29.45</time>
      </trkpt>
      <trkpt lat="45.67128" lon="6.91003">
        <ele>2700</ele>
        <time>2012-03-28T10:42:30.46</time>
      </trkpt>
      <trkpt lat="45.67132" lon="6.91002">
        <ele>2694.4</ele>
        <time>2012-03-28T10:42:31.46</time>
      </trkpt>
      <trkpt lat="45.67135" lon="6.91004">
        <ele>2691.1</ele>
        <time>2012-03-28T10:42:32.45</time>
      </trkpt>
      <trkpt lat="45.67137" lon="6.91011">
        <ele>2687.1</ele>
        <time>2012-03-28T10:42:33.46</time>
      </trkpt>
      <trkpt lat="45.67139" lon="6.91017">
        <ele>2682.3</ele>
        <time>2012-03-28T10:42:34.46</time>
      </trkpt>
      <trkpt lat="45.67142" lon="6.91023">
        <ele>2680</ele>
        <time>2012-03-28T10:42:35.45</time>
      </trkpt>
      <trkpt lat="45.67142" lon="6.91031">
        <ele>2679.6</ele>
        <time>2012-03-28T10:42:36.44</time>
      </trkpt>
      <trkpt lat="45.67142" lon="6.91046">
        <ele>2668.8</ele>
        <time>2012-03-28T10:42:37.46</time>
      </trkpt>
      <trkpt lat="45.67144" lon="6.91061">
        <ele>2666.1</ele>
        <time>2012-03-28T10:42:38.46</time>
      </trkpt>
      <trkpt lat="45.67145" lon="6.91074">
        <ele>2665.6</ele>
        <time>2012-03-28T10:42:39.46</time>
      </trkpt>
      <trkpt lat="45.67147" lon="6.91089">
        <ele>2656.9</ele>
        <time>2012-03-28T10:42:40.46</time>
      </trkpt>
      <trkpt lat="45.67154" lon="6.91102">
        <ele>2650.5</ele>
        <time>2012-03-28T10:42:41.46</time>
      </trkpt>
      <trkpt lat="45.67166" lon="6.9111">
        <ele>2648.1</ele>
        <time>2012-03-28T10:42:42.46</time>
      </trkpt>
      <trkpt lat="45.67176" lon="6.9112">
        <ele>2651.8</ele>
        <time>2012-03-28T10:42:43.46</time>
      </trkpt>
      <trkpt lat="45.67178" lon="6.91133">
        <ele>2642.6</ele>
        <time>2012-03-28T10:42:44.46</time>
      </trkpt>
      <trkpt lat="45.67176" lon="6.91149">
        <ele>2634.3</ele>
        <time>2012-03-28T10:42:45.46</time>
      </trkpt>
      <trkpt lat="45.67176" lon="6.91161">
        <ele>2620.4</ele>
        <time>2012-03-28T10:42:46.46</time>
      </trkpt>
      <trkpt lat="45.67187" lon="6.91171">
        <ele>2619.6</ele>
        <time>2012-03-28T10:42:47.46</time>
      </trkpt>
      <trkpt lat="45.67194" lon="6.91181">
        <ele>2617</ele>
        <time>2012-03-28T10:42:48.46</time>
      </trkpt>
      <trkpt lat="45.67201" lon="6.91192">
        <ele>2610.7</ele>
        <time>2012-03-28T10:42:49.43</time>
      </trkpt>
      <trkpt lat="45.67205" lon="6.91203">
        <ele>2602.8</ele>
        <time>2012-03-28T10:42:50.44</time>
      </trkpt>
      <trkpt lat="45.67215" lon="6.91216">
        <ele>2597.4</ele>
        <time>2012-03-28T10:42:51.44</time>
      </trkpt>
      <trkpt lat="45.67224" lon="6.91229">
        <ele>2596.2</ele>
        <time>2012-03-28T10:42:52.44</time>
      </trkpt>
      <trkpt lat="45.67232" lon="6.91244">
        <ele>2588.3</ele>
        <time>2012-03-28T10:42:53.44</time>
      </trkpt>
      <trkpt lat="45.67233" lon="6.91262">
        <ele>2583.9</ele>
        <time>2012-03-28T10:42:54.43</time>
      </trkpt>
      <trkpt lat="45.67232" lon="6.91283">
        <ele>2581.8</ele>
        <time>2012-03-28T10:42:55.43</time>
      </trkpt>
      <trkpt lat="45.67219" lon="6.91299">
        <ele>2564.1</ele>
        <time>2012-03-28T10:42:56.43</time>
      </trkpt>
      <trkpt lat="45.6721" lon="6.91313">
        <ele>2561.4</ele>
        <time>2012-03-28T10:42:57.45</time>
      </trkpt>
      <trkpt lat="45.672" lon="6.91325">
        <ele>2554.1</ele>
        <time>2012-03-28T10:42:58.43</time>
      </trkpt>
      <trkpt lat="45.67198" lon="6.91337">
        <ele>2541.2</ele>
        <time>2012-03-28T10:42:59.43</time>
      </trkpt>
      <trkpt lat="45.67201" lon="6.91353">
        <ele>2540.7</ele>
        <time>2012-03-28T10:43:00.43</time>
      </trkpt>
      <trkpt lat="45.67202" lon="6.91367">
        <ele>2536.8</ele>
        <time>2012-03-28T10:43:01.44</time>
      </trkpt>
      <trkpt lat="45.672" lon="6.9138">
        <ele>2529.9</ele>
        <time>2012-03-28T10:43:02.44</time>
      </trkpt>
      <trkpt lat="45.67197" lon="6.91395">
        <ele>2520.9</ele>
        <time>2012-03-28T10:43:03.44</time>
      </trkpt>
      <trkpt lat="45.67198" lon="6.91407">
        <ele>2514.5</ele>
        <time>2012-03-28T10:43:04.46</time>
      </trkpt>
      <trkpt lat="45.67198" lon="6.91418">
        <ele>2509.9</ele>
        <time>2012-03-28T10:43:05.44</time>
      </trkpt>
      <trkpt lat="45.67194" lon="6.91437">
        <ele>2503.3</ele>
        <time>2012-03-28T10:43:06.42</time>
      </trkpt>
      <trkpt lat="45.67188" lon="6.91454">
        <ele>2493.7</ele>
        <time>2012-03-28T10:43:07.42</time>
      </trkpt>
      <trkpt lat="45.67181" lon="6.91469">
        <ele>2486.2</ele>
        <time>2012-03-28T10:43:08.44</time>
      </trkpt>
      <trkpt lat="45.67173" lon="6.91481">
        <ele>2486.8</ele>
        <time>2012-03-28T10:43:09.41</time>
      </trkpt>
      <trkpt lat="45.67167" lon="6.91489">
        <ele>2485.6</ele>
        <time>2012-03-28T10:43:10.42</time>
      </trkpt>
      <trkpt lat="45.67163" lon="6.91495">
        <ele>2484.4</ele>
        <time>2012-03-28T10:43:11.42</time>
      </trkpt>
      <trkpt lat="45.67158" lon="6.91501">
        <ele>2483.3</ele>
        <time>2012-03-28T10:43:12.44</time>
      </trkpt>
      <trkpt lat="45.67153" lon="6.91507">
        <ele>2479.7</ele>
        <time>2012-03-28T10:43:13.45</time>
      </trkpt>
      <trkpt lat="45.67148" lon="6.91512">
        <ele>2476.7</ele>
        <time>2012-03-28T10:43:14.44</time>
      </trkpt>
      <trkpt lat="45.67143" lon="6.91518">
        <ele>2471.9</ele>
        <time>2012-03-28T10:43:15.44</time>
      </trkpt>
      <trkpt lat="45.6714" lon="6.91523">
        <ele>2470.3</ele>
        <time>2012-03-28T10:43:16.44</time>
      </trkpt>
      <trkpt lat="45.67137" lon="6.91528">
        <ele>2468.3</ele>
        <time>2012-03-28T10:43:17.45</time>
      </trkpt>
      <trkpt lat="45.67136" lon="6.91537">
        <ele>2466.8</ele>
        <time>2012-03-28T10:43:18.45</time>
      </trkpt>
      <trkpt lat="45.67135" lon="6.91546">
        <ele>2460</ele>
        <time>2012-03-28T10:43:19.44</time>
      </trkpt>
      <trkpt lat="45.67132" lon="6.91551">
        <ele>2458.6</ele>
        <time>2012-03-28T10:43:20.44</time>
      </trkpt>
      <trkpt lat="45.67131" lon="6.91558">
        <ele>2461.6</ele>
        <time>2012-03-28T10:43:21.44</time>
      </trkpt>
      <trkpt lat="45.67131" lon="6.91558">
        <ele>2461.6</ele>
        <time>2012-03-28T10:43:22.39</time>
      </trkpt>
      <trkpt lat="45.6713" lon="6.91567">
        <ele>2454.6</ele>
        <time>2012-03-28T10:43:23.39</time>
      </trkpt>
      <trkpt lat="45.6713" lon="6.91577">
        <ele>2466.2</ele>
        <time>2012-03-28T10:43:24.38</time>
      </trkpt>
      <trkpt lat="45.67128" lon="6.91591">
        <ele>2474.7</ele>
        <time>2012-03-28T10:43:25.39</time>
      </trkpt>
      <trkpt lat="45.67122" lon="6.91608">
        <ele>2468.2</ele>
        <time>2012-03-28T10:43:26.38</time>
      </trkpt>
      <trkpt lat="45.67117" lon="6.91623">
        <ele>2461.7</ele>
        <time>2012-03-28T10:43:27.38</time>
      </trkpt>
      <trkpt lat="45.67112" lon="6.91639">
        <ele>2456.2</ele>
        <time>2012-03-28T10:43:28.39</time>
      </trkpt>
      <trkpt lat="45.67108" lon="6.91656">
        <ele>2448.3</ele>
        <time>2012-03-28T10:43:29.38</time>
      </trkpt>
      <trkpt lat="45.67103" lon="6.91672">
        <ele>2444.4</ele>
        <time>2012-03-28T10:43:30.38</time>
      </trkpt>
      <trkpt lat="45.67102" lon="6.91685">
        <ele>2443.2</ele>
        <time>2012-03-28T10:43:31.39</time>
      </trkpt>
      <trkpt lat="45.67102" lon="6.91698">
        <ele>2442.2</ele>
        <time>2012-03-28T10:43:32.38</time>
      </trkpt>
      <trkpt lat="45.67102" lon="6.9171">
        <ele>2438.3</ele>
        <time>2012-03-28T10:43:33.39</time>
      </trkpt>
      <trkpt lat="45.67102" lon="6.91722">
        <ele>2436.2</ele>
        <time>2012-03-28T10:43:34.39</time>
      </trkpt>
      <trkpt lat="45.67102" lon="6.91733">
        <ele>2434.3</ele>
        <time>2012-03-28T10:43:35.40</time>
      </trkpt>
      <trkpt lat="45.67102" lon="6.91742">
        <ele>2432.2</ele>
        <time>2012-03-28T10:43:36.39</time>
      </trkpt>
      <trkpt lat="45.67102" lon="6.91753">
        <ele>2429.6</ele>
        <time>2012-03-28T10:43:37.40</time>
      </trkpt>
      <trkpt lat="45.67105" lon="6.91765">
        <ele>2427.5</ele>
        <time>2012-03-28T10:43:38.39</time>
      </trkpt>
      <trkpt lat="45.67108" lon="6.91778">
        <ele>2424</ele>
        <time>2012-03-28T10:43:39.39</time>
      </trkpt>
      <trkpt lat="45.67111" lon="6.91791">
        <ele>2426</ele>
        <time>2012-03-28T10:43:40.39</time>
      </trkpt>
      <trkpt lat="45.67113" lon="6.91803">
        <ele>2423.1</ele>
        <time>2012-03-28T10:43:41.39</time>
      </trkpt>
      <trkpt lat="45.67115" lon="6.91818">
        <ele>2420.9</ele>
        <time>2012-03-28T10:43:42.38</time>
      </trkpt>
      <trkpt lat="45.67118" lon="6.91832">
        <ele>2418.5</ele>
        <time>2012-03-28T10:43:43.38</time>
      </trkpt>
      <trkpt lat="45.67116" lon="6.91846">
        <ele>2414.2</ele>
        <time>2012-03-28T10:43:44.39</time>
      </trkpt>
      <trkpt lat="45.67117" lon="6.91858">
        <ele>2413.8</ele>
        <time>2012-03-28T10:43:45.39</time>
      </trkpt>
      <trkpt lat="45.67117" lon="6.9187">
        <ele>2410.6</ele>
        <time>2012-03-28T10:43:46.38</time>
      </trkpt>
      <trkpt lat="45.67117" lon="6.91882">
        <ele>2410</ele>
        <time>2012-03-28T10:43:47.38</time>
      </trkpt>
      <trkpt lat="45.67122" lon="6.91892">
        <ele>2405.8</ele>
        <time>2012-03-28T10:43:48.39</time>
      </trkpt>
      <trkpt lat="45.67129" lon="6.91901">
        <ele>2405.3</ele>
        <time>2012-03-28T10:43:49.44</time>
      </trkpt>
      <trkpt lat="45.6714" lon="6.91906">
        <ele>2403.9</ele>
        <time>2012-03-28T10:43:50.45</time>
      </trkpt>
      <trkpt lat="45.67151" lon="6.91912">
        <ele>2403.1</ele>
        <time>2012-03-28T10:43:51.45</time>
      </trkpt>
      <trkpt lat="45.67166" lon="6.91918">
        <ele>2399.2</ele>
        <time>2012-03-28T10:43:52.44</time>
      </trkpt>
      <trkpt lat="45.67173" lon="6.91935">
        <ele>2381.6</ele>
        <time>2012-03-28T10:43:53.44</time>
      </trkpt>
      <trkpt lat="45.67177" lon="6.91952">
        <ele>2374.2</ele>
        <time>2012-03-28T10:43:54.44</time>
      </trkpt>
      <trkpt lat="45.67184" lon="6.91964">
        <ele>2370.3</ele>
        <time>2012-03-28T10:43:55.44</time>
      </trkpt>
      <trkpt lat="45.67189" lon="6.91978">
        <ele>2366.4</ele>
        <time>2012-03-28T10:43:56.44</time>
      </trkpt>
      <trkpt lat="45.6719" lon="6.91993">
        <ele>2363.7</ele>
        <time>2012-03-28T10:43:57.44</time>
      </trkpt>
      <trkpt lat="45.6718" lon="6.92008">
        <ele>2350.6</ele>
        <time>2012-03-28T10:43:58.43</time>
      </trkpt>
      <trkpt lat="45.67174" lon="6.9202">
        <ele>2348.3</ele>
        <time>2012-03-28T10:43:59.43</time>
      </trkpt>
      <trkpt lat="45.6717" lon="6.92032">
        <ele>2347</ele>
        <time>2012-03-28T10:44:00.43</time>
      </trkpt>
      <trkpt lat="45.67168" lon="6.92041">
        <ele>2343.1</ele>
        <time>2012-03-28T10:44:01.44</time>
      </trkpt>
      <trkpt lat="45.67167" lon="6.92051">
        <ele>2340.7</ele>
        <time>2012-03-28T10:44:02.46</time>
      </trkpt>
      <trkpt lat="45.67165" lon="6.92061">
        <ele>2344.6</ele>
        <time>2012-03-28T10:44:03.46</time>
      </trkpt>
      <trkpt lat="45.67164" lon="6.92072">
        <ele>2346.5</ele>
        <time>2012-03-28T10:44:04.46</time>
      </trkpt>
      <trkpt lat="45.67164" lon="6.92082">
        <ele>2346.3</ele>
        <time>2012-03-28T10:44:05.44</time>
      </trkpt>
      <trkpt lat="45.67164" lon="6.92091">
        <ele>2344.1</ele>
        <time>2012-03-28T10:44:06.46</time>
      </trkpt>
      <trkpt lat="45.67164" lon="6.921">
        <ele>2345.4</ele>
        <time>2012-03-28T10:44:07.46</time>
      </trkpt>
      <trkpt lat="45.67165" lon="6.9211">
        <ele>2343.2</ele>
        <time>2012-03-28T10:44:08.43</time>
      </trkpt>
      <trkpt lat="45.67166" lon="6.92118">
        <ele>2342.6</ele>
        <time>2012-03-28T10:44:09.45</time>
      </trkpt>
      <trkpt lat="45.67167" lon="6.92127">
        <ele>2342.5</ele>
        <time>2012-03-28T10:44:10.45</time>
      </trkpt>
      <trkpt lat="45.67167" lon="6.92136">
        <ele>2339.9</ele>
        <time>2012-03-28T10:44:11.44</time>
      </trkpt>
      <trkpt lat="45.67168" lon="6.92145">
        <ele>2336.7</ele>
        <time>2012-03-28T10:44:12.44</time>
      </trkpt>
      <trkpt lat="45.67168" lon="6.92154">
        <ele>2334.7</ele>
        <time>2012-03-28T10:44:13.45</time>
      </trkpt>
      <trkpt lat="45.67168" lon="6.92163">
        <ele>2335.3</ele>
        <time>2012-03-28T10:44:14.44</time>
      </trkpt>
      <trkpt lat="45.67168" lon="6.92171">
        <ele>2333.3</ele>
        <time>2012-03-28T10:44:15.43</time>
      </trkpt>
      <trkpt lat="45.6717" lon="6.92178">
        <ele>2332.1</ele>
        <time>2012-03-28T10:44:16.43</time>
      </trkpt>
      <trkpt lat="45.67172" lon="6.92185">
        <ele>2330.7</ele>
        <time>2012-03-28T10:44:17.44</time>
      </trkpt>
      <trkpt lat="45.67174" lon="6.92194">
        <ele>2333.7</ele>
        <time>2012-03-28T10:44:18.41</time>
      </trkpt>
      <trkpt lat="45.67176" lon="6.92204">
        <ele>2331.8</ele>
        <time>2012-03-28T10:44:19.45</time>
      </trkpt>
      <trkpt lat="45.67178" lon="6.92215">
        <ele>2330.5</ele>
        <time>2012-03-28T10:44:20.42</time>
      </trkpt>
      <trkpt lat="45.6718" lon="6.92226">
        <ele>2328.7</ele>
        <time>2012-03-28T10:44:21.45</time>
      </trkpt>
      <trkpt lat="45.67181" lon="6.92237">
        <ele>2326.4</ele>
        <time>2012-03-28T10:44:22.44</time>
      </trkpt>
      <trkpt lat="45.67182" lon="6.92248">
        <ele>2325.3</ele>
        <time>2012-03-28T10:44:23.42</time>
      </trkpt>
      <trkpt lat="45.67184" lon="6.92259">
        <ele>2323.8</ele>
        <time>2012-03-28T10:44:24.43</time>
      </trkpt>
      <trkpt lat="45.67187" lon="6.92269">
        <ele>2321</ele>
        <time>2012-03-28T10:44:25.45</time>
      </trkpt>
      <trkpt lat="45.6719" lon="6.9228">
        <ele>2318.1</ele>
        <time>2012-03-28T10:44:26.44</time>
      </trkpt>
      <trkpt lat="45.67191" lon="6.92289">
        <ele>2316.6</ele>
        <time>2012-03-28T10:44:27.45</time>
      </trkpt>
      <trkpt lat="45.67193" lon="6.92299">
        <ele>2315.3</ele>
        <time>2012-03-28T10:44:28.43</time>
      </trkpt>
      <trkpt lat="45.67193" lon="6.92309">
        <ele>2312.5</ele>
        <time>2012-03-28T10:44:29.43</time>
      </trkpt>
      <trkpt lat="45.67196" lon="6.92318">
        <ele>2312.3</ele>
        <time>2012-03-28T10:44:30.43</time>
      </trkpt>
      <trkpt lat="45.67198" lon="6.92328">
        <ele>2311</ele>
        <time>2012-03-28T10:44:31.44</time>
      </trkpt>
      <trkpt lat="45.67201" lon="6.92339">
        <ele>2311.3</ele>
        <time>2012-03-28T10:44:32.45</time>
      </trkpt>
      <trkpt lat="45.67204" lon="6.92349">
        <ele>2309.2</ele>
        <time>2012-03-28T10:44:33.46</time>
      </trkpt>
      <trkpt lat="45.67206" lon="6.92358">
        <ele>2307.3</ele>
        <time>2012-03-28T10:44:34.45</time>
      </trkpt>
      <trkpt lat="45.67208" lon="6.92367">
        <ele>2306.2</ele>
        <time>2012-03-28T10:44:35.45</time>
      </trkpt>
      <trkpt lat="45.67211" lon="6.92374">
        <ele>2305.2</ele>
        <time>2012-03-28T10:44:36.45</time>
      </trkpt>
      <trkpt lat="45.67213" lon="6.92382">
        <ele>2304.4</ele>
        <time>2012-03-28T10:44:37.44</time>
      </trkpt>
      <trkpt lat="45.67216" lon="6.92388">
        <ele>2307.3</ele>
        <time>2012-03-28T10:44:38.45</time>
      </trkpt>
      <trkpt lat="45.67218" lon="6.92395">
        <ele>2307</ele>
        <time>2012-03-28T10:44:39.42</time>
      </trkpt>
      <trkpt lat="45.67219" lon="6.92401">
        <ele>2305.3</ele>
        <time>2012-03-28T10:44:40.45</time>
      </trkpt>
      <trkpt lat="45.67222" lon="6.92406">
        <ele>2303.6</ele>
        <time>2012-03-28T10:44:41.43</time>
      </trkpt>
      <trkpt lat="45.67223" lon="6.92412">
        <ele>2302.1</ele>
        <time>2012-03-28T10:44:42.43</time>
      </trkpt>
      <trkpt lat="45.67225" lon="6.92417">
        <ele>2302.4</ele>
        <time>2012-03-28T10:44:43.43</time>
      </trkpt>
      <trkpt lat="45.67226" lon="6.92421">
        <ele>2303.5</ele>
        <time>2012-03-28T10:44:44.44</time>
      </trkpt>
      <trkpt lat="45.67228" lon="6.92426">
        <ele>2305.1</ele>
        <time>2012-03-28T10:44:45.45</time>
      </trkpt>
      <trkpt lat="45.6723" lon="6.9243">
        <ele>2304.3</ele>
        <time>2012-03-28T10:44:46.43</time>
      </trkpt>
      <trkpt lat="45.67234" lon="6.92435">
        <ele>2301.7</ele>
        <time>2012-03-28T10:44:47.45</time>
      </trkpt>
      <trkpt lat="45.67236" lon="6.92441">
        <ele>2298.8</ele>
        <time>2012-03-28T10:44:48.45</time>
      </trkpt>
      <trkpt lat="45.67238" lon="6.92447">
        <ele>2299.5</ele>
        <time>2012-03-28T10:44:49.44</time>
      </trkpt>
      <trkpt lat="45.67239" lon="6.92453">
        <ele>2301.5</ele>
        <time>2012-03-28T10:44:50.44</time>
      </trkpt>
      <trkpt lat="45.67241" lon="6.92458">
        <ele>2299.1</ele>
        <time>2012-03-28T10:44:51.44</time>
      </trkpt>
      <trkpt lat="45.67243" lon="6.92463">
        <ele>2297.9</ele>
        <time>2012-03-28T10:44:52.44</time>
      </trkpt>
      <trkpt lat="45.67245" lon="6.92469">
        <ele>2295.7</ele>
        <time>2012-03-28T10:44:53.44</time>
      </trkpt>
      <trkpt lat="45.67246" lon="6.92475">
        <ele>2295.3</ele>
        <time>2012-03-28T10:44:54.44</time>
      </trkpt>
      <trkpt lat="45.67247" lon="6.9248">
        <ele>2294.4</ele>
        <time>2012-03-28T10:44:55.44</time>
      </trkpt>
      <trkpt lat="45.67248" lon="6.92485">
        <ele>2293.8</ele>
        <time>2012-03-28T10:44:56.44</time>
      </trkpt>
      <trkpt lat="45.67249" lon="6.9249">
        <ele>2293.3</ele>
        <time>2012-03-28T10:44:57.46</time>
      </trkpt>
      <trkpt lat="45.6725" lon="6.92494">
        <ele>2293.1</ele>
        <time>2012-03-28T10:44:58.46</time>
      </trkpt>
      <trkpt lat="45.67251" lon="6.92498">
        <ele>2293.1</ele>
        <time>2012-03-28T10:44:59.46</time>
      </trkpt>
      <trkpt lat="45.67252" lon="6.92501">
        <ele>2292.8</ele>
        <time>2012-03-28T10:45:00.46</time>
      </trkpt>
      <trkpt lat="45.67252" lon="6.92506">
        <ele>2292.5</ele>
        <time>2012-03-28T10:45:01.44</time>
      </trkpt>
      <trkpt lat="45.67253" lon="6.9251">
        <ele>2291.3</ele>
        <time>2012-03-28T10:45:02.46</time>
      </trkpt>
      <trkpt lat="45.67254" lon="6.92513">
        <ele>2291.5</ele>
        <time>2012-03-28T10:45:03.44</time>
      </trkpt>
      <trkpt lat="45.67254" lon="6.92517">
        <ele>2289.4</ele>
        <time>2012-03-28T10:45:04.45</time>
      </trkpt>
      <trkpt lat="45.67254" lon="6.92522">
        <ele>2286.9</ele>
        <time>2012-03-28T10:45:05.45</time>
      </trkpt>
      <trkpt lat="45.67254" lon="6.92528">
        <ele>2285.6</ele>
        <time>2012-03-28T10:45:06.44</time>
      </trkpt>
      <trkpt lat="45.67254" lon="6.92534">
        <ele>2285</ele>
        <time>2012-03-28T10:45:07.45</time>
      </trkpt>
      <trkpt lat="45.67254" lon="6.9254">
        <ele>2284.6</ele>
        <time>2012-03-28T10:45:08.45</time>
      </trkpt>
      <trkpt lat="45.67253" lon="6.92546">
        <ele>2283</ele>
        <time>2012-03-28T10:45:09.44</time>
      </trkpt>
      <trkpt lat="45.67253" lon="6.92553">
        <ele>2282</ele>
        <time>2012-03-28T10:45:10.44</time>
      </trkpt>
      <trkpt lat="45.67252" lon="6.9256">
        <ele>2283.2</ele>
        <time>2012-03-28T10:45:11.45</time>
      </trkpt>
      <trkpt lat="45.67251" lon="6.92568">
        <ele>2283.3</ele>
        <time>2012-03-28T10:45:12.43</time>
      </trkpt>
      <trkpt lat="45.67251" lon="6.92574">
        <ele>2283.7</ele>
        <time>2012-03-28T10:45:13.43</time>
      </trkpt>
      <trkpt lat="45.67251" lon="6.9258">
        <ele>2280.7</ele>
        <time>2012-03-28T10:45:14.44</time>
      </trkpt>
      <trkpt lat="45.6725" lon="6.92586">
        <ele>2283.5</ele>
        <time>2012-03-28T10:45:15.44</time>
      </trkpt>
      <trkpt lat="45.67249" lon="6.92592">
        <ele>2284.1</ele>
        <time>2012-03-28T10:45:16.45</time>
      </trkpt>
      <trkpt lat="45.67249" lon="6.92599">
        <ele>2285.7</ele>
        <time>2012-03-28T10:45:17.43</time>
      </trkpt>
      <trkpt lat="45.67248" lon="6.92606">
        <ele>2285.3</ele>
        <time>2012-03-28T10:45:18.43</time>
      </trkpt>
      <trkpt lat="45.67248" lon="6.92616">
        <ele>2282.9</ele>
        <time>2012-03-28T10:45:19.44</time>
      </trkpt>
      <trkpt lat="45.67247" lon="6.92627">
        <ele>2279.8</ele>
        <time>2012-03-28T10:45:20.44</time>
      </trkpt>
      <trkpt lat="45.67247" lon="6.92638">
        <ele>2279.7</ele>
        <time>2012-03-28T10:45:21.45</time>
      </trkpt>
      <trkpt lat="45.67246" lon="6.92649">
        <ele>2279.5</ele>
        <time>2012-03-28T10:45:22.43</time>
      </trkpt>
      <trkpt lat="45.67245" lon="6.92658">
        <ele>2279.3</ele>
        <time>2012-03-28T10:45:23.42</time>
      </trkpt>
      <trkpt lat="45.67245" lon="6.92667">
        <ele>2281.4</ele>
        <time>2012-03-28T10:45:24.43</time>
      </trkpt>
      <trkpt lat="45.67244" lon="6.92677">
        <ele>2280.9</ele>
        <time>2012-03-28T10:45:25.43</time>
      </trkpt>
      <trkpt lat="45.67244" lon="6.92687">
        <ele>2276.2</ele>
        <time>2012-03-28T10:45:26.43</time>
      </trkpt>
      <trkpt lat="45.67245" lon="6.92697">
        <ele>2274.3</ele>
        <time>2012-03-28T10:45:27.43</time>
      </trkpt>
      <trkpt lat="45.67245" lon="6.92706">
        <ele>2275.2</ele>
        <time>2012-03-28T10:45:28.45</time>
      </trkpt>
      <trkpt lat="45.67244" lon="6.92714">
        <ele>2274.1</ele>
        <time>2012-03-28T10:45:29.41</time>
      </trkpt>
      <trkpt lat="45.67244" lon="6.92721">
        <ele>2270.2</ele>
        <time>2012-03-28T10:45:30.43</time>
      </trkpt>
      <trkpt lat="45.67244" lon="6.92728">
        <ele>2269.3</ele>
        <time>2012-03-28T10:45:31.43</time>
      </trkpt>
      <trkpt lat="45.67245" lon="6.92735">
        <ele>2271.1</ele>
        <time>2012-03-28T10:45:32.43</time>
      </trkpt>
      <trkpt lat="45.67245" lon="6.92743">
        <ele>2265.4</ele>
        <time>2012-03-28T10:45:33.43</time>
      </trkpt>
      <trkpt lat="45.67245" lon="6.92749">
        <ele>2265.8</ele>
        <time>2012-03-28T10:45:34.43</time>
      </trkpt>
      <trkpt lat="45.67245" lon="6.92756">
        <ele>2264.2</ele>
        <time>2012-03-28T10:45:35.43</time>
      </trkpt>
      <trkpt lat="45.67244" lon="6.92763">
        <ele>2260.1</ele>
        <time>2012-03-28T10:45:36.43</time>
      </trkpt>
      <trkpt lat="45.67244" lon="6.9277">
        <ele>2263.8</ele>
        <time>2012-03-28T10:45:37.44</time>
      </trkpt>
      <trkpt lat="45.67244" lon="6.92776">
        <ele>2262</ele>
        <time>2012-03-28T10:45:38.40</time>
      </trkpt>
      <trkpt lat="45.67245" lon="6.92782">
        <ele>2259.5</ele>
        <time>2012-03-28T10:45:39.43</time>
      </trkpt>
      <trkpt lat="45.67245" lon="6.92786">
        <ele>2264.6</ele>
        <time>2012-03-28T10:45:40.43</time>
      </trkpt>
      <trkpt lat="45.6725" lon="6.92792">
        <ele>2267</ele>
        <time>2012-03-28T10:45:41.44</time>
      </trkpt>
      <trkpt lat="45.67255" lon="6.92799">
        <ele>2260.5</ele>
        <time>2012-03-28T10:45:42.41</time>
      </trkpt>
      <trkpt lat="45.67259" lon="6.92808">
        <ele>2258.9</ele>
        <time>2012-03-28T10:45:43.44</time>
      </trkpt>
      <trkpt lat="45.67261" lon="6.92815">
        <ele>2258.4</ele>
        <time>2012-03-28T10:45:44.43</time>
      </trkpt>
      <trkpt lat="45.67261" lon="6.92822">
        <ele>2255.9</ele>
        <time>2012-03-28T10:45:45.43</time>
      </trkpt>
      <trkpt lat="45.6726" lon="6.92827">
        <ele>2257.3</ele>
        <time>2012-03-28T10:45:46.43</time>
      </trkpt>
      <trkpt lat="45.67266" lon="6.92834">
        <ele>2254.1</ele>
        <time>2012-03-28T10:45:47.43</time>
      </trkpt>
      <trkpt lat="45.6727" lon="6.92832">
        <ele>2248.2</ele>
        <time>2012-03-28T10:45:48.43</time>
      </trkpt>
      <trkpt lat="45.67271" lon="6.92834">
        <ele>2244.9</ele>
        <time>2012-03-28T10:45:49.42</time>
      </trkpt>
      <trkpt lat="45.67271" lon="6.92834">
        <ele>2244.9</ele>
        <time>2012-03-28T10:45:50.43</time>
      </trkpt>
      <trkpt lat="45.67272" lon="6.92834">
        <ele>2245.4</ele>
        <time>2012-03-28T10:45:51.43</time>
      </trkpt>
      <trkpt lat="45.67272" lon="6.92834">
        <ele>2247.2</ele>
        <time>2012-03-28T10:45:52.45</time>
      </trkpt>
      <trkpt lat="45.67272" lon="6.92835">
        <ele>2248.6</ele>
        <time>2012-03-28T10:45:53.45</time>
      </trkpt>
      <trkpt lat="45.67274" lon="6.92837">
        <ele>2248.1</ele>
        <time>2012-03-28T10:45:54.39</time>
      </trkpt>
      <trkpt lat="45.67274" lon="6.92837">
        <ele>2248.1</ele>
        <time>2012-03-28T10:45:55.45</time>
      </trkpt>
      <trkpt lat="45.67276" lon="6.92845">
        <ele>2241.1</ele>
        <time>2012-03-28T10:45:56.41</time>
      </trkpt>
      <trkpt lat="45.67276" lon="6.92852">
        <ele>2237.7</ele>
        <time>2012-03-28T10:45:57.45</time>
      </trkpt>
      <trkpt lat="45.67279" lon="6.92857">
        <ele>2234.5</ele>
        <time>2012-03-28T10:45:58.43</time>
      </trkpt>
      <trkpt lat="45.67282" lon="6.92865">
        <ele>2229.4</ele>
        <time>2012-03-28T10:45:59.45</time>
      </trkpt>
      <trkpt lat="45.67285" lon="6.92871">
        <ele>2225.7</ele>
        <time>2012-03-28T10:46:00.43</time>
      </trkpt>
      <trkpt lat="45.67288" lon="6.92876">
        <ele>2225.7</ele>
        <time>2012-03-28T10:46:01.43</time>
      </trkpt>
      <trkpt lat="45.67292" lon="6.92881">
        <ele>2224.8</ele>
        <time>2012-03-28T10:46:02.44</time>
      </trkpt>
      <trkpt lat="45.67299" lon="6.92885">
        <ele>2222</ele>
        <time>2012-03-28T10:46:03.43</time>
      </trkpt>
      <trkpt lat="45.67306" lon="6.92888">
        <ele>2222</ele>
        <time>2012-03-28T10:46:04.43</time>
      </trkpt>
      <trkpt lat="45.67311" lon="6.92893">
        <ele>2221.4</ele>
        <time>2012-03-28T10:46:05.43</time>
      </trkpt>
      <trkpt lat="45.67315" lon="6.92896">
        <ele>2219.7</ele>
        <time>2012-03-28T10:46:06.43</time>
      </trkpt>
      <trkpt lat="45.67315" lon="6.92896">
        <ele>2219.7</ele>
        <time>2012-03-28T10:46:07.42</time>
      </trkpt>
      <trkpt lat="45.67319" lon="6.92901">
        <ele>2215.4</ele>
        <time>2012-03-28T10:46:08.43</time>
      </trkpt>
      <trkpt lat="45.67323" lon="6.92907">
        <ele>2215.6</ele>
        <time>2012-03-28T10:46:09.43</time>
      </trkpt>
      <trkpt lat="45.67328" lon="6.92911">
        <ele>2211.5</ele>
        <time>2012-03-28T10:46:10.42</time>
      </trkpt>
      <trkpt lat="45.67331" lon="6.92915">
        <ele>2209.9</ele>
        <time>2012-03-28T10:46:11.42</time>
      </trkpt>
      <trkpt lat="45.67333" lon="6.92919">
        <ele>2209.9</ele>
        <time>2012-03-28T10:46:12.42</time>
      </trkpt>
      <trkpt lat="45.67332" lon="6.92927">
        <ele>2209.4</ele>
        <time>2012-03-28T10:46:13.42</time>
      </trkpt>
      <trkpt lat="45.67331" lon="6.92938">
        <ele>2208.2</ele>
        <time>2012-03-28T10:46:14.42</time>
      </trkpt>
      <trkpt lat="45.67335" lon="6.92948">
        <ele>2206.1</ele>
        <time>2012-03-28T10:46:15.45</time>
      </trkpt>
      <trkpt lat="45.67338" lon="6.92958">
        <ele>2204.1</ele>
        <time>2012-03-28T10:46:16.43</time>
      </trkpt>
      <trkpt lat="45.67343" lon="6.92964">
        <ele>2203</ele>
        <time>2012-03-28T10:46:17.41</time>
      </trkpt>
      <trkpt lat="45.67349" lon="6.9297">
        <ele>2200.7</ele>
        <time>2012-03-28T10:46:18.43</time>
      </trkpt>
      <trkpt lat="45.67355" lon="6.92979">
        <ele>2200.3</ele>
        <time>2012-03-28T10:46:19.43</time>
      </trkpt>
      <trkpt lat="45.67362" lon="6.9299">
        <ele>2202.2</ele>
        <time>2012-03-28T10:46:20.44</time>
      </trkpt>
      <trkpt lat="45.67367" lon="6.93002">
        <ele>2199.3</ele>
        <time>2012-03-28T10:46:21.43</time>
      </trkpt>
      <trkpt lat="45.67372" lon="6.93014">
        <ele>2199.9</ele>
        <time>2012-03-28T10:46:22.45</time>
      </trkpt>
      <trkpt lat="45.67376" lon="6.93026">
        <ele>2199.1</ele>
        <time>2012-03-28T10:46:23.42</time>
      </trkpt>
      <trkpt lat="45.67379" lon="6.93038">
        <ele>2197.4</ele>
        <time>2012-03-28T10:46:24.43</time>
      </trkpt>
      <trkpt lat="45.67383" lon="6.9305">
        <ele>2196.4</ele>
        <time>2012-03-28T10:46:25.43</time>
      </trkpt>
      <trkpt lat="45.67386" lon="6.93062">
        <ele>2193.4</ele>
        <time>2012-03-28T10:46:26.43</time>
      </trkpt>
      <trkpt lat="45.67389" lon="6.93075">
        <ele>2191.6</ele>
        <time>2012-03-28T10:46:27.43</time>
      </trkpt>
      <trkpt lat="45.67392" lon="6.93088">
        <ele>2189.8</ele>
        <time>2012-03-28T10:46:28.43</time>
      </trkpt>
      <trkpt lat="45.67395" lon="6.93101">
        <ele>2188.7</ele>
        <time>2012-03-28T10:46:29.43</time>
      </trkpt>
      <trkpt lat="45.67398" lon="6.93112">
        <ele>2188.7</ele>
        <time>2012-03-28T10:46:30.43</time>
      </trkpt>
      <trkpt lat="45.67401" lon="6.93122">
        <ele>2188.7</ele>
        <time>2012-03-28T10:46:31.43</time>
      </trkpt>
      <trkpt lat="45.67404" lon="6.93133">
        <ele>2186.2</ele>
        <time>2012-03-28T10:46:32.43</time>
      </trkpt>
      <trkpt lat="45.67406" lon="6.93142">
        <ele>2186.6</ele>
        <time>2012-03-28T10:46:33.43</time>
      </trkpt>
      <trkpt lat="45.67408" lon="6.93149">
        <ele>2186.2</ele>
        <time>2012-03-28T10:46:34.43</time>
      </trkpt>
      <trkpt lat="45.67411" lon="6.93156">
        <ele>2186.3</ele>
        <time>2012-03-28T10:46:35.43</time>
      </trkpt>
      <trkpt lat="45.67413" lon="6.93165">
        <ele>2187.1</ele>
        <time>2012-03-28T10:46:36.44</time>
      </trkpt>
      <trkpt lat="45.67415" lon="6.93174">
        <ele>2187.3</ele>
        <time>2012-03-28T10:46:37.43</time>
      </trkpt>
      <trkpt lat="45.67417" lon="6.93184">
        <ele>2186.4</ele>
        <time>2012-03-28T10:46:38.43</time>
      </trkpt>
      <trkpt lat="45.67419" lon="6.93193">
        <ele>2184.5</ele>
        <time>2012-03-28T10:46:39.42</time>
      </trkpt>
      <trkpt lat="45.67421" lon="6.93202">
        <ele>2184.2</ele>
        <time>2012-03-28T10:46:40.43</time>
      </trkpt>
      <trkpt lat="45.67424" lon="6.93213">
        <ele>2182.2</ele>
        <time>2012-03-28T10:46:41.43</time>
      </trkpt>
      <trkpt lat="45.67427" lon="6.93223">
        <ele>2182.1</ele>
        <time>2012-03-28T10:46:42.43</time>
      </trkpt>
      <trkpt lat="45.6743" lon="6.93234">
        <ele>2180.6</ele>
        <time>2012-03-28T10:46:43.43</time>
      </trkpt>
      <trkpt lat="45.67433" lon="6.93245">
        <ele>2179.9</ele>
        <time>2012-03-28T10:46:44.43</time>
      </trkpt>
      <trkpt lat="45.67435" lon="6.93255">
        <ele>2179.2</ele>
        <time>2012-03-28T10:46:45.43</time>
      </trkpt>
      <trkpt lat="45.67437" lon="6.93265">
        <ele>2178.2</ele>
        <time>2012-03-28T10:46:46.43</time>
      </trkpt>
      <trkpt lat="45.67439" lon="6.93275">
        <ele>2177.5</ele>
        <time>2012-03-28T10:46:47.43</time>
      </trkpt>
      <trkpt lat="45.67441" lon="6.93285">
        <ele>2176.2</ele>
        <time>2012-03-28T10:46:48.45</time>
      </trkpt>
      <trkpt lat="45.67443" lon="6.93295">
        <ele>2175</ele>
        <time>2012-03-28T10:46:49.45</time>
      </trkpt>
      <trkpt lat="45.67446" lon="6.93306">
        <ele>2173</ele>
        <time>2012-03-28T10:46:50.44</time>
      </trkpt>
      <trkpt lat="45.67448" lon="6.93315">
        <ele>2171.9</ele>
        <time>2012-03-28T10:46:51.44</time>
      </trkpt>
      <trkpt lat="45.6745" lon="6.93322">
        <ele>2173</ele>
        <time>2012-03-28T10:46:52.43</time>
      </trkpt>
      <trkpt lat="45.67452" lon="6.93328">
        <ele>2173.3</ele>
        <time>2012-03-28T10:46:53.43</time>
      </trkpt>
      <trkpt lat="45.67454" lon="6.93334">
        <ele>2173</ele>
        <time>2012-03-28T10:46:54.42</time>
      </trkpt>
      <trkpt lat="45.67457" lon="6.9334">
        <ele>2172.3</ele>
        <time>2012-03-28T10:46:55.42</time>
      </trkpt>
      <trkpt lat="45.6746" lon="6.93346">
        <ele>2171.7</ele>
        <time>2012-03-28T10:46:56.42</time>
      </trkpt>
      <trkpt lat="45.67464" lon="6.9335">
        <ele>2170.6</ele>
        <time>2012-03-28T10:46:57.42</time>
      </trkpt>
      <trkpt lat="45.67467" lon="6.93354">
        <ele>2169</ele>
        <time>2012-03-28T10:46:58.42</time>
      </trkpt>
      <trkpt lat="45.6747" lon="6.9336">
        <ele>2166.6</ele>
        <time>2012-03-28T10:46:59.42</time>
      </trkpt>
      <trkpt lat="45.67474" lon="6.93365">
        <ele>2164.5</ele>
        <time>2012-03-28T10:47:00.42</time>
      </trkpt>
      <trkpt lat="45.67478" lon="6.93373">
        <ele>2163.6</ele>
        <time>2012-03-28T10:47:01.42</time>
      </trkpt>
      <trkpt lat="45.67481" lon="6.93379">
        <ele>2161.2</ele>
        <time>2012-03-28T10:47:02.42</time>
      </trkpt>
      <trkpt lat="45.67484" lon="6.93388">
        <ele>2160.1</ele>
        <time>2012-03-28T10:47:03.43</time>
      </trkpt>
      <trkpt lat="45.67487" lon="6.93397">
        <ele>2160.1</ele>
        <time>2012-03-28T10:47:04.40</time>
      </trkpt>
      <trkpt lat="45.67489" lon="6.93406">
        <ele>2159.5</ele>
        <time>2012-03-28T10:47:05.42</time>
      </trkpt>
      <trkpt lat="45.67492" lon="6.93415">
        <ele>2158.5</ele>
        <time>2012-03-28T10:47:06.42</time>
      </trkpt>
      <trkpt lat="45.67494" lon="6.93424">
        <ele>2158.8</ele>
        <time>2012-03-28T10:47:07.42</time>
      </trkpt>
      <trkpt lat="45.67497" lon="6.93433">
        <ele>2158.1</ele>
        <time>2012-03-28T10:47:08.42</time>
      </trkpt>
      <trkpt lat="45.675" lon="6.93441">
        <ele>2157.9</ele>
        <time>2012-03-28T10:47:09.42</time>
      </trkpt>
      <trkpt lat="45.67503" lon="6.9345">
        <ele>2158.4</ele>
        <time>2012-03-28T10:47:10.39</time>
      </trkpt>
      <trkpt lat="45.67506" lon="6.93457">
        <ele>2158.1</ele>
        <time>2012-03-28T10:47:11.42</time>
      </trkpt>
      <trkpt lat="45.6751" lon="6.93463">
        <ele>2157.5</ele>
        <time>2012-03-28T10:47:12.42</time>
      </trkpt>
      <trkpt lat="45.67514" lon="6.93469">
        <ele>2157</ele>
        <time>2012-03-28T10:47:13.42</time>
      </trkpt>
      <trkpt lat="45.67518" lon="6.93475">
        <ele>2156.4</ele>
        <time>2012-03-28T10:47:14.42</time>
      </trkpt>
      <trkpt lat="45.67521" lon="6.93481">
        <ele>2155.5</ele>
        <time>2012-03-28T10:47:15.42</time>
      </trkpt>
      <trkpt lat="45.67525" lon="6.93489">
        <ele>2155.7</ele>
        <time>2012-03-28T10:47:16.42</time>
      </trkpt>
      <trkpt lat="45.67529" lon="6.93497">
        <ele>2156</ele>
        <time>2012-03-28T10:47:17.42</time>
      </trkpt>
      <trkpt lat="45.67532" lon="6.93504">
        <ele>2154.7</ele>
        <time>2012-03-28T10:47:18.42</time>
      </trkpt>
      <trkpt lat="45.67535" lon="6.9351">
        <ele>2153.3</ele>
        <time>2012-03-28T10:47:19.44</time>
      </trkpt>
      <trkpt lat="45.67538" lon="6.93518">
        <ele>2152.8</ele>
        <time>2012-03-28T10:47:20.44</time>
      </trkpt>
      <trkpt lat="45.67541" lon="6.93525">
        <ele>2152</ele>
        <time>2012-03-28T10:47:21.44</time>
      </trkpt>
      <trkpt lat="45.67545" lon="6.93532">
        <ele>2151.7</ele>
        <time>2012-03-28T10:47:22.44</time>
      </trkpt>
      <trkpt lat="45.67548" lon="6.9354">
        <ele>2152.2</ele>
        <time>2012-03-28T10:47:23.43</time>
      </trkpt>
      <trkpt lat="45.67551" lon="6.93547">
        <ele>2152.8</ele>
        <time>2012-03-28T10:47:24.42</time>
      </trkpt>
      <trkpt lat="45.67554" lon="6.93553">
        <ele>2152.3</ele>
        <time>2012-03-28T10:47:25.42</time>
      </trkpt>
      <trkpt lat="45.67556" lon="6.93559">
        <ele>2151.9</ele>
        <time>2012-03-28T10:47:26.42</time>
      </trkpt>
      <trkpt lat="45.67558" lon="6.93565">
        <ele>2153.4</ele>
        <time>2012-03-28T10:47:27.42</time>
      </trkpt>
      <trkpt lat="45.6756" lon="6.93571">
        <ele>2154.2</ele>
        <time>2012-03-28T10:47:28.42</time>
      </trkpt>
      <trkpt lat="45.67562" lon="6.93576">
        <ele>2154</ele>
        <time>2012-03-28T10:47:29.42</time>
      </trkpt>
      <trkpt lat="45.67564" lon="6.93581">
        <ele>2153.7</ele>
        <time>2012-03-28T10:47:30.43</time>
      </trkpt>
      <trkpt lat="45.67566" lon="6.93585">
        <ele>2153.8</ele>
        <time>2012-03-28T10:47:31.42</time>
      </trkpt>
      <trkpt lat="45.67567" lon="6.93589">
        <ele>2153.9</ele>
        <time>2012-03-28T10:47:32.42</time>
      </trkpt>
      <trkpt lat="45.6757" lon="6.93594">
        <ele>2155.2</ele>
        <time>2012-03-28T10:47:33.42</time>
      </trkpt>
      <trkpt lat="45.67572" lon="6.93596">
        <ele>2155.4</ele>
        <time>2012-03-28T10:47:34.42</time>
      </trkpt>
      <trkpt lat="45.67572" lon="6.93596">
        <ele>2155.4</ele>
        <time>2012-03-28T10:47:35.44</time>
      </trkpt>
      <trkpt lat="45.67572" lon="6.93596">
        <ele>2155.4</ele>
        <time>2012-03-28T10:47:36.42</time>
      </trkpt>
      <trkpt lat="45.67572" lon="6.93596">
        <ele>2155.4</ele>
        <time>2012-03-28T10:47:37.42</time>
      </trkpt>
      <trkpt lat="45.67577" lon="6.936">
        <ele>2147.3</ele>
        <time>2012-03-28T10:47:38.42</time>
      </trkpt>
      <trkpt lat="45.67577" lon="6.936">
        <ele>2147.3</ele>
        <time>2012-03-28T10:47:39.43</time>
      </trkpt>
      <trkpt lat="45.67577" lon="6.936">
        <ele>2147.3</ele>
        <time>2012-03-28T10:47:40.45</time>
      </trkpt>
      <trkpt lat="45.67577" lon="6.936">
        <ele>2147.3</ele>
        <time>2012-03-28T10:47:41.44</time>
      </trkpt>
      <trkpt lat="45.67579" lon="6.93609">
        <ele>2146.1</ele>
        <time>2012-03-28T10:47:42.47</time>
      </trkpt>
      <trkpt lat="45.67579" lon="6.93611">
        <ele>2145.2</ele>
        <time>2012-03-28T10:47:43.44</time>
      </trkpt>
      <trkpt lat="45.67579" lon="6.93611">
        <ele>2145.2</ele>
        <time>2012-03-28T10:47:44.45</time>
      </trkpt>
      <trkpt lat="45.6758" lon="6.93617">
        <ele>2144.5</ele>
        <time>2012-03-28T10:47:45.44</time>
      </trkpt>
      <trkpt lat="45.6758" lon="6.93617">
        <ele>2144.5</ele>
        <time>2012-03-28T10:47:46.46</time>
      </trkpt>
      <trkpt lat="45.6758" lon="6.93617">
        <ele>2144.5</ele>
        <time>2012-03-28T10:47:47.46</time>
      </trkpt>
      <trkpt lat="45.67581" lon="6.93623">
        <ele>2145.9</ele>
        <time>2012-03-28T10:47:48.44</time>
      </trkpt>
      <trkpt lat="45.67581" lon="6.93623">
        <ele>2145.9</ele>
        <time>2012-03-28T10:47:49.43</time>
      </trkpt>
      <trkpt lat="45.67583" lon="6.93628">
        <ele>2142.9</ele>
        <time>2012-03-28T10:47:50.44</time>
      </trkpt>
      <trkpt lat="45.67584" lon="6.93631">
        <ele>2141.9</ele>
        <time>2012-03-28T10:47:51.44</time>
      </trkpt>
      <trkpt lat="45.67584" lon="6.93634">
        <ele>2142.2</ele>
        <time>2012-03-28T10:47:52.43</time>
      </trkpt>
      <trkpt lat="45.67586" lon="6.93636">
        <ele>2141.6</ele>
        <time>2012-03-28T10:47:53.44</time>
      </trkpt>
      <trkpt lat="45.67588" lon="6.93638">
        <ele>2143.3</ele>
        <time>2012-03-28T10:47:54.45</time>
      </trkpt>
      <trkpt lat="45.67589" lon="6.93639">
        <ele>2143.8</ele>
        <time>2012-03-28T10:47:55.43</time>
      </trkpt>
      <trkpt lat="45.6759" lon="6.9364">
        <ele>2144.2</ele>
        <time>2012-03-28T10:47:56.44</time>
      </trkpt>
      <trkpt lat="45.67591" lon="6.93642">
        <ele>2144.6</ele>
        <time>2012-03-28T10:47:57.43</time>
      </trkpt>
      <trkpt lat="45.67591" lon="6.93642">
        <ele>2144.6</ele>
        <time>2012-03-28T10:47:58.45</time>
      </trkpt>
      <trkpt lat="45.67594" lon="6.93643">
        <ele>2146</ele>
        <time>2012-03-28T10:47:59.44</time>
      </trkpt>
      <trkpt lat="45.67594" lon="6.93643">
        <ele>2146</ele>
        <time>2012-03-28T10:48:00.43</time>
      </trkpt>
      <trkpt lat="45.67594" lon="6.93643">
        <ele>2146</ele>
        <time>2012-03-28T10:48:01.46</time>
      </trkpt>
      <trkpt lat="45.67599" lon="6.93647">
        <ele>2148</ele>
        <time>2012-03-28T10:48:02.45</time>
      </trkpt>
      <trkpt lat="45.67599" lon="6.93647">
        <ele>2148</ele>
        <time>2012-03-28T10:48:03.45</time>
      </trkpt>
      <trkpt lat="45.67599" lon="6.93647">
        <ele>2148</ele>
        <time>2012-03-28T10:48:04.44</time>
      </trkpt>
      <trkpt lat="45.67604" lon="6.93653">
        <ele>2148.1</ele>
        <time>2012-03-28T10:48:05.45</time>
      </trkpt>
      <trkpt lat="45.67605" lon="6.93655">
        <ele>2146.6</ele>
        <time>2012-03-28T10:48:06.44</time>
      </trkpt>
      <trkpt lat="45.67606" lon="6.93659">
        <ele>2145.2</ele>
        <time>2012-03-28T10:48:07.43</time>
      </trkpt>
      <trkpt lat="45.67607" lon="6.93662">
        <ele>2143.7</ele>
        <time>2012-03-28T10:48:08.45</time>
      </trkpt>
      <trkpt lat="45.67608" lon="6.93665">
        <ele>2142.4</ele>
        <time>2012-03-28T10:48:09.45</time>
      </trkpt>
      <trkpt lat="45.67608" lon="6.93667">
        <ele>2141.5</ele>
        <time>2012-03-28T10:48:10.44</time>
      </trkpt>
      <trkpt lat="45.67608" lon="6.93667">
        <ele>2141.5</ele>
        <time>2012-03-28T10:48:11.45</time>
      </trkpt>
      <trkpt lat="45.67608" lon="6.93667">
        <ele>2141.5</ele>
        <time>2012-03-28T10:48:12.43</time>
      </trkpt>
      <trkpt lat="45.67608" lon="6.93667">
        <ele>2141.5</ele>
        <time>2012-03-28T10:48:13.42</time>
      </trkpt>
      <trkpt lat="45.67606" lon="6.93679">
        <ele>2136.3</ele>
        <time>2012-03-28T10:48:14.44</time>
      </trkpt>
      <trkpt lat="45.67606" lon="6.93679">
        <ele>2136.3</ele>
        <time>2012-03-28T10:48:15.43</time>
      </trkpt>
      <trkpt lat="45.67606" lon="6.93679">
        <ele>2136.3</ele>
        <time>2012-03-28T10:48:16.42</time>
      </trkpt>
      <trkpt lat="45.67602" lon="6.93694">
        <ele>2141.5</ele>
        <time>2012-03-28T10:48:17.43</time>
      </trkpt>
      <trkpt lat="45.67602" lon="6.93694">
        <ele>2141.5</ele>
        <time>2012-03-28T10:48:18.44</time>
      </trkpt>
      <trkpt lat="45.67597" lon="6.93698">
        <ele>2147</ele>
        <time>2012-03-28T10:48:19.43</time>
      </trkpt>
      <trkpt lat="45.67595" lon="6.937">
        <ele>2146.4</ele>
        <time>2012-03-28T10:48:20.43</time>
      </trkpt>
      <trkpt lat="45.67593" lon="6.93701">
        <ele>2145.2</ele>
        <time>2012-03-28T10:48:21.43</time>
      </trkpt>
      <trkpt lat="45.67593" lon="6.93701">
        <ele>2145.2</ele>
        <time>2012-03-28T10:48:22.44</time>
      </trkpt>
      <trkpt lat="45.67593" lon="6.93701">
        <ele>2145.2</ele>
        <time>2012-03-28T10:48:23.43</time>
      </trkpt>
      <trkpt lat="45.67593" lon="6.93701">
        <ele>2145.2</ele>
        <time>2012-03-28T10:48:24.44</time>
      </trkpt>
      <trkpt lat="45.67593" lon="6.93701">
        <ele>2145.2</ele>
        <time>2012-03-28T10:48:25.46</time>
      </trkpt>
      <trkpt lat="45.67593" lon="6.93701">
        <ele>2145.2</ele>
        <time>2012-03-28T10:48:26.43</time>
      </trkpt>
      <trkpt lat="45.67593" lon="6.93701">
        <ele>2145.2</ele>
        <time>2012-03-28T10:48:27.45</time>
      </trkpt>
      <trkpt lat="45.67593" lon="6.93701">
        <ele>2145.2</ele>
        <time>2012-03-28T10:48:28.46</time>
      </trkpt>
      <trkpt lat="45.67593" lon="6.93701">
        <ele>2145.2</ele>
        <time>2012-03-28T10:48:29.45</time>
      </trkpt>
      <trkpt lat="45.67593" lon="6.93701">
        <ele>2145.2</ele>
        <time>2012-03-28T10:48:30.46</time>
      </trkpt>
      <trkpt lat="45.67593" lon="6.93701">
        <ele>2145.2</ele>
        <time>2012-03-28T10:48:31.43</time>
      </trkpt>
      <trkpt lat="45.67593" lon="6.93701">
        <ele>2145.2</ele>
        <time>2012-03-28T10:48:32.44</time>
      </trkpt>
      <trkpt lat="45.67593" lon="6.93701">
        <ele>2145.2</ele>
        <time>2012-03-28T10:48:33.44</time>
      </trkpt>
      <trkpt lat="45.67593" lon="6.93701">
        <ele>2145.2</ele>
        <time>2012-03-28T10:48:34.44</time>
      </trkpt>
      <trkpt lat="45.67593" lon="6.93701">
        <ele>2145.2</ele>
        <time>2012-03-28T10:48:35.43</time>
      </trkpt>
      <trkpt lat="45.67593" lon="6.93701">
        <ele>2145.2</ele>
        <time>2012-03-28T10:48:36.42</time>
      </trkpt>
      <trkpt lat="45.67593" lon="6.93701">
        <ele>2145.2</ele>
        <time>2012-03-28T10:48:37.42</time>
      </trkpt>
      <trkpt lat="45.67593" lon="6.93701">
        <ele>2145.2</ele>
        <time>2012-03-28T10:48:38.43</time>
      </trkpt>
      <trkpt lat="45.67593" lon="6.93701">
        <ele>2145.2</ele>
        <time>2012-03-28T10:48:39.42</time>
      </trkpt>
      <trkpt lat="45.67593" lon="6.93701">
        <ele>2145.2</ele>
        <time>2012-03-28T10:48:40.43</time>
      </trkpt>
      <trkpt lat="45.67593" lon="6.93701">
        <ele>2145.2</ele>
        <time>2012-03-28T10:48:41.44</time>
      </trkpt>
      <trkpt lat="45.67593" lon="6.93701">
        <ele>2145.2</ele>
        <time>2012-03-28T10:48:42.42</time>
      </trkpt>
      <trkpt lat="45.67593" lon="6.93701">
        <ele>2145.2</ele>
        <time>2012-03-28T10:48:43.42</time>
      </trkpt>
      <trkpt lat="45.67593" lon="6.93701">
        <ele>2145.2</ele>
        <time>2012-03-28T10:48:44.44</time>
      </trkpt>
      <trkpt lat="45.67593" lon="6.93701">
        <ele>2145.2</ele>
        <time>2012-03-28T10:48:45.44</time>
      </trkpt>
      <trkpt lat="45.67593" lon="6.93701">
        <ele>2145.2</ele>
        <time>2012-03-28T10:48:46.43</time>
      </trkpt>
      <trkpt lat="45.67593" lon="6.93701">
        <ele>2145.2</ele>
        <time>2012-03-28T10:48:47.42</time>
      </trkpt>
      <trkpt lat="45.67593" lon="6.93701">
        <ele>2145.2</ele>
        <time>2012-03-28T10:48:48.44</time>
      </trkpt>
      <trkpt lat="45.67593" lon="6.93701">
        <ele>2145.2</ele>
        <time>2012-03-28T10:48:49.39</time>
      </trkpt>
      <trkpt lat="45.67593" lon="6.93701">
        <ele>2145.2</ele>
        <time>2012-03-28T10:48:50.42</time>
      </trkpt>
      <trkpt lat="45.67593" lon="6.93701">
        <ele>2145.2</ele>
        <time>2012-03-28T10:48:51.42</time>
      </trkpt>
      <trkpt lat="45.67593" lon="6.93701">
        <ele>2145.2</ele>
        <time>2012-03-28T10:48:52.42</time>
      </trkpt>
      <trkpt lat="45.67593" lon="6.93701">
        <ele>2145.2</ele>
        <time>2012-03-28T10:48:53.42</time>
      </trkpt>
      <trkpt lat="45.67593" lon="6.93701">
        <ele>2145.2</ele>
        <time>2012-03-28T10:48:54.42</time>
      </trkpt>
      <trkpt lat="45.67593" lon="6.93701">
        <ele>2145.2</ele>
        <time>2012-03-28T10:48:55.43</time>
      </trkpt>
      <trkpt lat="45.67593" lon="6.93701">
        <ele>2145.2</ele>
        <time>2012-03-28T10:48:56.45</time>
      </trkpt>
      <trkpt lat="45.67593" lon="6.93701">
        <ele>2145.2</ele>
        <time>2012-03-28T10:48:57.43</time>
      </trkpt>
      <trkpt lat="45.67593" lon="6.93701">
        <ele>2145.2</ele>
        <time>2012-03-28T10:48:58.43</time>
      </trkpt>
      <trkpt lat="45.67593" lon="6.93701">
        <ele>2145.2</ele>
        <time>2012-03-28T10:48:59.43</time>
      </trkpt>
      <trkpt lat="45.67593" lon="6.93701">
        <ele>2145.2</ele>
        <time>2012-03-28T10:49:00.43</time>
      </trkpt>
      <trkpt lat="45.67593" lon="6.93701">
        <ele>2145.2</ele>
        <time>2012-03-28T10:49:01.43</time>
      </trkpt>
      <trkpt lat="45.67593" lon="6.93701">
        <ele>2145.2</ele>
        <time>2012-03-28T10:49:02.43</time>
      </trkpt>
      <trkpt lat="45.67593" lon="6.93701">
        <ele>2145.2</ele>
        <time>2012-03-28T10:49:03.43</time>
      </trkpt>
      <trkpt lat="45.67593" lon="6.93701">
        <ele>2145.2</ele>
        <time>2012-03-28T10:49:04.43</time>
      </trkpt>
      <trkpt lat="45.67593" lon="6.93701">
        <ele>2145.2</ele>
        <time>2012-03-28T10:49:05.42</time>
      </trkpt>
      <trkpt lat="45.67593" lon="6.93701">
        <ele>2145.2</ele>
        <time>2012-03-28T10:49:06.44</time>
      </trkpt>
      <trkpt lat="45.67593" lon="6.93701">
        <ele>2145.2</ele>
        <time>2012-03-28T10:49:07.41</time>
      </trkpt>
      <trkpt lat="45.67593" lon="6.93701">
        <ele>2145.2</ele>
        <time>2012-03-28T10:49:08.44</time>
      </trkpt>
      <trkpt lat="45.67593" lon="6.93701">
        <ele>2145.2</ele>
        <time>2012-03-28T10:49:09.43</time>
      </trkpt>
      <trkpt lat="45.67593" lon="6.93701">
        <ele>2145.2</ele>
        <time>2012-03-28T10:49:10.43</time>
      </trkpt>
      <trkpt lat="45.67593" lon="6.93701">
        <ele>2145.2</ele>
        <time>2012-03-28T10:49:11.42</time>
      </trkpt>
      <trkpt lat="45.67593" lon="6.93701">
        <ele>2145.2</ele>
        <time>2012-03-28T10:49:12.42</time>
      </trkpt>
      <trkpt lat="45.67593" lon="6.93701">
        <ele>2145.2</ele>
        <time>2012-03-28T10:49:13.43</time>
      </trkpt>
      <trkpt lat="45.67593" lon="6.93701">
        <ele>2145.2</ele>
        <time>2012-03-28T10:49:14.42</time>
      </trkpt>
      <trkpt lat="45.67593" lon="6.93701">
        <ele>2145.2</ele>
        <time>2012-03-28T10:49:15.42</time>
      </trkpt>
      <trkpt lat="45.67593" lon="6.93701">
        <ele>2145.2</ele>
        <time>2012-03-28T10:49:16.43</time>
      </trkpt>
      <trkpt lat="45.67593" lon="6.93701">
        <ele>2145.2</ele>
        <time>2012-03-28T10:49:17.43</time>
      </trkpt>
      <trkpt lat="45.67593" lon="6.93701">
        <ele>2145.2</ele>
        <time>2012-03-28T10:49:18.42</time>
      </trkpt>
      <trkpt lat="45.67593" lon="6.93701">
        <ele>2145.2</ele>
        <time>2012-03-28T10:49:19.42</time>
      </trkpt>
      <trkpt lat="45.67593" lon="6.93701">
        <ele>2145.2</ele>
        <time>2012-03-28T10:49:20.44</time>
      </trkpt>
      <trkpt lat="45.67593" lon="6.93701">
        <ele>2145.2</ele>
        <time>2012-03-28T10:49:21.44</time>
      </trkpt>
      <trkpt lat="45.67593" lon="6.93701">
        <ele>2145.2</ele>
        <time>2012-03-28T10:49:22.44</time>
      </trkpt>
      <trkpt lat="45.67593" lon="6.93701">
        <ele>2145.2</ele>
        <time>2012-03-28T10:49:23.44</time>
      </trkpt>
      <trkpt lat="45.67593" lon="6.93701">
        <ele>2145.2</ele>
        <time>2012-03-28T10:49:24.44</time>
      </trkpt>
      <trkpt lat="45.67593" lon="6.93701">
        <ele>2145.2</ele>
        <time>2012-03-28T10:49:25.44</time>
      </trkpt>
      <trkpt lat="45.67593" lon="6.93701">
        <ele>2145.2</ele>
        <time>2012-03-28T10:49:26.43</time>
      </trkpt>
      <trkpt lat="45.67593" lon="6.93701">
        <ele>2145.2</ele>
        <time>2012-03-28T10:49:27.42</time>
      </trkpt>
      <trkpt lat="45.67599" lon="6.93694">
        <ele>2148.9</ele>
        <time>2012-03-28T10:49:28.42</time>
      </trkpt>
      <trkpt lat="45.67599" lon="6.93694">
        <ele>2148.9</ele>
        <time>2012-03-28T10:49:29.43</time>
      </trkpt>
      <trkpt lat="45.67599" lon="6.93694">
        <ele>2148.9</ele>
        <time>2012-03-28T10:49:30.42</time>
      </trkpt>
      <trkpt lat="45.67599" lon="6.93694">
        <ele>2148.9</ele>
        <time>2012-03-28T10:49:31.42</time>
      </trkpt>
      <trkpt lat="45.67599" lon="6.93694">
        <ele>2148.9</ele>
        <time>2012-03-28T10:49:32.43</time>
      </trkpt>
      <trkpt lat="45.67599" lon="6.93694">
        <ele>2148.9</ele>
        <time>2012-03-28T10:49:33.43</time>
      </trkpt>
      <trkpt lat="45.67599" lon="6.93694">
        <ele>2148.9</ele>
        <time>2012-03-28T10:49:34.43</time>
      </trkpt>
      <trkpt lat="45.67599" lon="6.93694">
        <ele>2148.9</ele>
        <time>2012-03-28T10:49:35.43</time>
      </trkpt>
      <trkpt lat="45.67599" lon="6.93694">
        <ele>2148.9</ele>
        <time>2012-03-28T10:49:36.43</time>
      </trkpt>
      <trkpt lat="45.67599" lon="6.93694">
        <ele>2148.9</ele>
        <time>2012-03-28T10:49:37.42</time>
      </trkpt>
      <trkpt lat="45.67599" lon="6.93694">
        <ele>2148.9</ele>
        <time>2012-03-28T10:49:38.43</time>
      </trkpt>
      <trkpt lat="45.67599" lon="6.93694">
        <ele>2148.9</ele>
        <time>2012-03-28T10:49:39.42</time>
      </trkpt>
      <trkpt lat="45.67599" lon="6.93694">
        <ele>2148.9</ele>
        <time>2012-03-28T10:49:40.43</time>
      </trkpt>
      <trkpt lat="45.67599" lon="6.93694">
        <ele>2148.9</ele>
        <time>2012-03-28T10:49:41.42</time>
      </trkpt>
      <trkpt lat="45.67599" lon="6.93694">
        <ele>2148.9</ele>
        <time>2012-03-28T10:49:42.42</time>
      </trkpt>
      <trkpt lat="45.67599" lon="6.93694">
        <ele>2148.9</ele>
        <time>2012-03-28T10:49:43.42</time>
      </trkpt>
      <trkpt lat="45.67599" lon="6.93694">
        <ele>2148.9</ele>
        <time>2012-03-28T10:49:44.42</time>
      </trkpt>
      <trkpt lat="45.67599" lon="6.93694">
        <ele>2148.9</ele>
        <time>2012-03-28T10:49:45.42</time>
      </trkpt>
      <trkpt lat="45.67594" lon="6.93693">
        <ele>2136.2</ele>
        <time>2012-03-28T10:49:46.43</time>
      </trkpt>
      <trkpt lat="45.67594" lon="6.93693">
        <ele>2136.2</ele>
        <time>2012-03-28T10:49:47.42</time>
      </trkpt>
      <trkpt lat="45.67594" lon="6.93693">
        <ele>2136.2</ele>
        <time>2012-03-28T10:49:48.44</time>
      </trkpt>
      <trkpt lat="45.67594" lon="6.93693">
        <ele>2136.2</ele>
        <time>2012-03-28T10:49:49.42</time>
      </trkpt>
      <trkpt lat="45.67594" lon="6.93693">
        <ele>2136.2</ele>
        <time>2012-03-28T10:49:50.44</time>
      </trkpt>
      <trkpt lat="45.67594" lon="6.93693">
        <ele>2136.2</ele>
        <time>2012-03-28T10:49:51.45</time>
      </trkpt>
      <trkpt lat="45.67594" lon="6.93693">
        <ele>2136.2</ele>
        <time>2012-03-28T10:49:52.42</time>
      </trkpt>
      <trkpt lat="45.67594" lon="6.93693">
        <ele>2136.2</ele>
        <time>2012-03-28T10:49:53.42</time>
      </trkpt>
      <trkpt lat="45.67594" lon="6.93693">
        <ele>2136.2</ele>
        <time>2012-03-28T10:49:54.42</time>
      </trkpt>
      <trkpt lat="45.67594" lon="6.93693">
        <ele>2136.2</ele>
        <time>2012-03-28T10:49:55.42</time>
      </trkpt>
      <trkpt lat="45.67593" lon="6.9369">
        <ele>2130.8</ele>
        <time>2012-03-28T10:49:56.42</time>
      </trkpt>
      <trkpt lat="45.67593" lon="6.9369">
        <ele>2130.8</ele>
        <time>2012-03-28T10:49:57.42</time>
      </trkpt>
      <trkpt lat="45.67593" lon="6.9369">
        <ele>2130.8</ele>
        <time>2012-03-28T10:49:58.44</time>
      </trkpt>
      <trkpt lat="45.67593" lon="6.9369">
        <ele>2130.8</ele>
        <time>2012-03-28T10:49:59.42</time>
      </trkpt>
      <trkpt lat="45.67593" lon="6.9369">
        <ele>2130.8</ele>
        <time>2012-03-28T10:50:00.42</time>
      </trkpt>
      <trkpt lat="45.67593" lon="6.9369">
        <ele>2130.8</ele>
        <time>2012-03-28T10:50:01.42</time>
      </trkpt>
      <trkpt lat="45.67593" lon="6.9369">
        <ele>2130.8</ele>
        <time>2012-03-28T10:50:02.42</time>
      </trkpt>
      <trkpt lat="45.67593" lon="6.9369">
        <ele>2130.8</ele>
        <time>2012-03-28T10:50:03.43</time>
      </trkpt>
      <trkpt lat="45.67593" lon="6.9369">
        <ele>2130.8</ele>
        <time>2012-03-28T10:50:04.43</time>
      </trkpt>
      <trkpt lat="45.67593" lon="6.9369">
        <ele>2130.8</ele>
        <time>2012-03-28T10:50:05.42</time>
      </trkpt>
      <trkpt lat="45.67593" lon="6.9369">
        <ele>2130.8</ele>
        <time>2012-03-28T10:50:06.40</time>
      </trkpt>
      <trkpt lat="45.67593" lon="6.9369">
        <ele>2130.8</ele>
        <time>2012-03-28T10:50:07.42</time>
      </trkpt>
      <trkpt lat="45.67593" lon="6.9369">
        <ele>2130.8</ele>
        <time>2012-03-28T10:50:08.42</time>
      </trkpt>
      <trkpt lat="45.67593" lon="6.9369">
        <ele>2130.8</ele>
        <time>2012-03-28T10:50:09.43</time>
      </trkpt>
      <trkpt lat="45.67593" lon="6.9369">
        <ele>2130.8</ele>
        <time>2012-03-28T10:50:10.43</time>
      </trkpt>
      <trkpt lat="45.67593" lon="6.9369">
        <ele>2130.8</ele>
        <time>2012-03-28T10:50:11.43</time>
      </trkpt>
      <trkpt lat="45.67593" lon="6.9369">
        <ele>2130.8</ele>
        <time>2012-03-28T10:50:12.43</time>
      </trkpt>
      <trkpt lat="45.67593" lon="6.9369">
        <ele>2130.8</ele>
        <time>2012-03-28T10:50:13.44</time>
      </trkpt>
      <trkpt lat="45.67593" lon="6.9369">
        <ele>2130.8</ele>
        <time>2012-03-28T10:50:14.42</time>
      </trkpt>
      <trkpt lat="45.67593" lon="6.9369">
        <ele>2130.8</ele>
        <time>2012-03-28T10:50:15.45</time>
      </trkpt>
      <trkpt lat="45.67593" lon="6.9369">
        <ele>2130.8</ele>
        <time>2012-03-28T10:50:16.44</time>
      </trkpt>
      <trkpt lat="45.67593" lon="6.9369">
        <ele>2130.8</ele>
        <time>2012-03-28T10:50:17.44</time>
      </trkpt>
      <trkpt lat="45.67593" lon="6.9369">
        <ele>2130.8</ele>
        <time>2012-03-28T10:50:18.44</time>
      </trkpt>
      <trkpt lat="45.67593" lon="6.9369">
        <ele>2130.8</ele>
        <time>2012-03-28T10:50:19.44</time>
      </trkpt>
      <trkpt lat="45.67593" lon="6.9369">
        <ele>2130.8</ele>
        <time>2012-03-28T10:50:20.44</time>
      </trkpt>
      <trkpt lat="45.67593" lon="6.9369">
        <ele>2130.8</ele>
        <time>2012-03-28T10:50:21.43</time>
      </trkpt>
      <trkpt lat="45.67593" lon="6.9369">
        <ele>2130.8</ele>
        <time>2012-03-28T10:50:22.42</time>
      </trkpt>
      <trkpt lat="45.67593" lon="6.9369">
        <ele>2130.8</ele>
        <time>2012-03-28T10:50:23.42</time>
      </trkpt>
      <trkpt lat="45.67593" lon="6.9369">
        <ele>2130.8</ele>
        <time>2012-03-28T10:50:24.42</time>
      </trkpt>
      <trkpt lat="45.67596" lon="6.93698">
        <ele>2133</ele>
        <time>2012-03-28T10:50:25.42</time>
      </trkpt>
      <trkpt lat="45.67596" lon="6.93698">
        <ele>2133</ele>
        <time>2012-03-28T10:50:26.42</time>
      </trkpt>
      <trkpt lat="45.67597" lon="6.93698">
        <ele>2139.3</ele>
        <time>2012-03-28T10:50:27.42</time>
      </trkpt>
      <trkpt lat="45.67599" lon="6.93699">
        <ele>2142.5</ele>
        <time>2012-03-28T10:50:28.42</time>
      </trkpt>
      <trkpt lat="45.67602" lon="6.937">
        <ele>2143</ele>
        <time>2012-03-28T10:50:29.42</time>
      </trkpt>
      <trkpt lat="45.67605" lon="6.93703">
        <ele>2143.7</ele>
        <time>2012-03-28T10:50:30.42</time>
      </trkpt>
      <trkpt lat="45.67608" lon="6.93706">
        <ele>2140.6</ele>
        <time>2012-03-28T10:50:31.42</time>
      </trkpt>
      <trkpt lat="45.67612" lon="6.93709">
        <ele>2143</ele>
        <time>2012-03-28T10:50:32.42</time>
      </trkpt>
      <trkpt lat="45.67616" lon="6.93713">
        <ele>2141.2</ele>
        <time>2012-03-28T10:50:33.42</time>
      </trkpt>
      <trkpt lat="45.6762" lon="6.93717">
        <ele>2139.6</ele>
        <time>2012-03-28T10:50:34.42</time>
      </trkpt>
      <trkpt lat="45.67623" lon="6.93722">
        <ele>2138.6</ele>
        <time>2012-03-28T10:50:35.43</time>
      </trkpt>
      <trkpt lat="45.67627" lon="6.93727">
        <ele>2137.4</ele>
        <time>2012-03-28T10:50:36.42</time>
      </trkpt>
      <trkpt lat="45.67631" lon="6.93732">
        <ele>2136.5</ele>
        <time>2012-03-28T10:50:37.42</time>
      </trkpt>
      <trkpt lat="45.67631" lon="6.93732">
        <ele>2136.5</ele>
        <time>2012-03-28T10:50:38.42</time>
      </trkpt>
      <trkpt lat="45.6764" lon="6.93743">
        <ele>2134.4</ele>
        <time>2012-03-28T10:50:39.42</time>
      </trkpt>
      <trkpt lat="45.67646" lon="6.93751">
        <ele>2135.1</ele>
        <time>2012-03-28T10:50:40.42</time>
      </trkpt>
      <trkpt lat="45.67652" lon="6.93759">
        <ele>2134.6</ele>
        <time>2012-03-28T10:50:41.42</time>
      </trkpt>
      <trkpt lat="45.67657" lon="6.93767">
        <ele>2136.3</ele>
        <time>2012-03-28T10:50:42.42</time>
      </trkpt>
      <trkpt lat="45.67663" lon="6.93776">
        <ele>2136</ele>
        <time>2012-03-28T10:50:43.42</time>
      </trkpt>
      <trkpt lat="45.67668" lon="6.93784">
        <ele>2132</ele>
        <time>2012-03-28T10:50:44.44</time>
      </trkpt>
      <trkpt lat="45.67673" lon="6.9379">
        <ele>2133.2</ele>
        <time>2012-03-28T10:50:45.42</time>
      </trkpt>
      <trkpt lat="45.67676" lon="6.93797">
        <ele>2134.1</ele>
        <time>2012-03-28T10:50:46.43</time>
      </trkpt>
      <trkpt lat="45.67678" lon="6.93802">
        <ele>2132.3</ele>
        <time>2012-03-28T10:50:47.41</time>
      </trkpt>
      <trkpt lat="45.67684" lon="6.93802">
        <ele>2131.6</ele>
        <time>2012-03-28T10:50:48.43</time>
      </trkpt>
      <trkpt lat="45.67687" lon="6.93805">
        <ele>2130.6</ele>
        <time>2012-03-28T10:50:49.42</time>
      </trkpt>
      <trkpt lat="45.67691" lon="6.93809">
        <ele>2127.8</ele>
        <time>2012-03-28T10:50:50.42</time>
      </trkpt>
      <trkpt lat="45.67693" lon="6.93813">
        <ele>2124.7</ele>
        <time>2012-03-28T10:50:51.42</time>
      </trkpt>
      <trkpt lat="45.67696" lon="6.93819">
        <ele>2122.9</ele>
        <time>2012-03-28T10:50:52.42</time>
      </trkpt>
      <trkpt lat="45.67699" lon="6.93826">
        <ele>2123.8</ele>
        <time>2012-03-28T10:50:53.42</time>
      </trkpt>
      <trkpt lat="45.67702" lon="6.93837">
        <ele>2122.5</ele>
        <time>2012-03-28T10:50:54.42</time>
      </trkpt>
      <trkpt lat="45.67705" lon="6.93846">
        <ele>2121</ele>
        <time>2012-03-28T10:50:55.42</time>
      </trkpt>
      <trkpt lat="45.67713" lon="6.93852">
        <ele>2120.2</ele>
        <time>2012-03-28T10:50:56.44</time>
      </trkpt>
      <trkpt lat="45.67719" lon="6.93857">
        <ele>2116.8</ele>
        <time>2012-03-28T10:50:57.42</time>
      </trkpt>
      <trkpt lat="45.67726" lon="6.93863">
        <ele>2117.9</ele>
        <time>2012-03-28T10:50:58.43</time>
      </trkpt>
      <trkpt lat="45.6773" lon="6.93871">
        <ele>2117</ele>
        <time>2012-03-28T10:50:59.42</time>
      </trkpt>
      <trkpt lat="45.67736" lon="6.93877">
        <ele>2116.1</ele>
        <time>2012-03-28T10:51:00.43</time>
      </trkpt>
      <trkpt lat="45.67741" lon="6.93881">
        <ele>2117.9</ele>
        <time>2012-03-28T10:51:01.44</time>
      </trkpt>
      <trkpt lat="45.67746" lon="6.93886">
        <ele>2118.7</ele>
        <time>2012-03-28T10:51:02.44</time>
      </trkpt>
      <trkpt lat="45.67752" lon="6.93892">
        <ele>2118.9</ele>
        <time>2012-03-28T10:51:03.42</time>
      </trkpt>
      <trkpt lat="45.67758" lon="6.93897">
        <ele>2120</ele>
        <time>2012-03-28T10:51:04.42</time>
      </trkpt>
      <trkpt lat="45.67762" lon="6.93902">
        <ele>2118.3</ele>
        <time>2012-03-28T10:51:05.42</time>
      </trkpt>
      <trkpt lat="45.67765" lon="6.93908">
        <ele>2114.9</ele>
        <time>2012-03-28T10:51:06.42</time>
      </trkpt>
      <trkpt lat="45.67766" lon="6.93913">
        <ele>2110.8</ele>
        <time>2012-03-28T10:51:07.42</time>
      </trkpt>
      <trkpt lat="45.67768" lon="6.93916">
        <ele>2108.9</ele>
        <time>2012-03-28T10:51:08.49</time>
      </trkpt>
      <trkpt lat="45.67769" lon="6.9392">
        <ele>2107.2</ele>
        <time>2012-03-28T10:51:09.42</time>
      </trkpt>
      <trkpt lat="45.67772" lon="6.93926">
        <ele>2105.9</ele>
        <time>2012-03-28T10:51:10.44</time>
      </trkpt>
      <trkpt lat="45.67774" lon="6.93933">
        <ele>2102.5</ele>
        <time>2012-03-28T10:51:11.44</time>
      </trkpt>
      <trkpt lat="45.67779" lon="6.93943">
        <ele>2101</ele>
        <time>2012-03-28T10:51:12.44</time>
      </trkpt>
      <trkpt lat="45.67783" lon="6.93952">
        <ele>2099.3</ele>
        <time>2012-03-28T10:51:13.44</time>
      </trkpt>
      <trkpt lat="45.67788" lon="6.9396">
        <ele>2100.4</ele>
        <time>2012-03-28T10:51:14.43</time>
      </trkpt>
      <trkpt lat="45.67794" lon="6.93965">
        <ele>2099.2</ele>
        <time>2012-03-28T10:51:15.44</time>
      </trkpt>
      <trkpt lat="45.67797" lon="6.9397">
        <ele>2099</ele>
        <time>2012-03-28T10:51:16.42</time>
      </trkpt>
      <trkpt lat="45.67799" lon="6.93974">
        <ele>2100.6</ele>
        <time>2012-03-28T10:51:17.42</time>
      </trkpt>
      <trkpt lat="45.67804" lon="6.93976">
        <ele>2101.5</ele>
        <time>2012-03-28T10:51:18.44</time>
      </trkpt>
      <trkpt lat="45.67809" lon="6.9398">
        <ele>2100.7</ele>
        <time>2012-03-28T10:51:19.44</time>
      </trkpt>
      <trkpt lat="45.67816" lon="6.93984">
        <ele>2100.6</ele>
        <time>2012-03-28T10:51:20.43</time>
      </trkpt>
      <trkpt lat="45.67824" lon="6.9399">
        <ele>2100.1</ele>
        <time>2012-03-28T10:51:21.43</time>
      </trkpt>
      <trkpt lat="45.67831" lon="6.93995">
        <ele>2098.5</ele>
        <time>2012-03-28T10:51:22.43</time>
      </trkpt>
      <trkpt lat="45.67835" lon="6.94001">
        <ele>2095.8</ele>
        <time>2012-03-28T10:51:23.42</time>
      </trkpt>
      <trkpt lat="45.6784" lon="6.94006">
        <ele>2093.2</ele>
        <time>2012-03-28T10:51:24.42</time>
      </trkpt>
      <trkpt lat="45.67846" lon="6.94013">
        <ele>2091.4</ele>
        <time>2012-03-28T10:51:25.43</time>
      </trkpt>
      <trkpt lat="45.67852" lon="6.9402">
        <ele>2091.4</ele>
        <time>2012-03-28T10:51:26.42</time>
      </trkpt>
      <trkpt lat="45.67856" lon="6.94033">
        <ele>2088.9</ele>
        <time>2012-03-28T10:51:27.44</time>
      </trkpt>
      <trkpt lat="45.67863" lon="6.9404">
        <ele>2087</ele>
        <time>2012-03-28T10:51:28.40</time>
      </trkpt>
      <trkpt lat="45.6787" lon="6.94046">
        <ele>2088.5</ele>
        <time>2012-03-28T10:51:29.42</time>
      </trkpt>
      <trkpt lat="45.67873" lon="6.94057">
        <ele>2086.3</ele>
        <time>2012-03-28T10:51:30.42</time>
      </trkpt>
      <trkpt lat="45.67877" lon="6.94064">
        <ele>2086.5</ele>
        <time>2012-03-28T10:51:31.43</time>
      </trkpt>
      <trkpt lat="45.67881" lon="6.94068">
        <ele>2083.1</ele>
        <time>2012-03-28T10:51:32.42</time>
      </trkpt>
      <trkpt lat="45.67883" lon="6.94073">
        <ele>2080</ele>
        <time>2012-03-28T10:51:33.42</time>
      </trkpt>
      <trkpt lat="45.67885" lon="6.94075">
        <ele>2079.6</ele>
        <time>2012-03-28T10:51:34.42</time>
      </trkpt>
      <trkpt lat="45.67889" lon="6.94078">
        <ele>2077.3</ele>
        <time>2012-03-28T10:51:35.44</time>
      </trkpt>
      <trkpt lat="45.6789" lon="6.94079">
        <ele>2075.7</ele>
        <time>2012-03-28T10:51:36.45</time>
      </trkpt>
      <trkpt lat="45.67892" lon="6.9408">
        <ele>2073</ele>
        <time>2012-03-28T10:51:37.45</time>
      </trkpt>
      <trkpt lat="45.67894" lon="6.94082">
        <ele>2072.5</ele>
        <time>2012-03-28T10:51:38.45</time>
      </trkpt>
      <trkpt lat="45.67897" lon="6.94085">
        <ele>2068.9</ele>
        <time>2012-03-28T10:51:39.45</time>
      </trkpt>
      <trkpt lat="45.67902" lon="6.94091">
        <ele>2067.4</ele>
        <time>2012-03-28T10:51:40.45</time>
      </trkpt>
      <trkpt lat="45.67906" lon="6.94096">
        <ele>2067.5</ele>
        <time>2012-03-28T10:51:41.43</time>
      </trkpt>
      <trkpt lat="45.6791" lon="6.94101">
        <ele>2068.2</ele>
        <time>2012-03-28T10:51:42.44</time>
      </trkpt>
      <trkpt lat="45.6791" lon="6.94101">
        <ele>2068.2</ele>
        <time>2012-03-28T10:51:43.44</time>
      </trkpt>
      <trkpt lat="45.6791" lon="6.94101">
        <ele>2068.2</ele>
        <time>2012-03-28T10:51:44.44</time>
      </trkpt>
      <trkpt lat="45.67909" lon="6.94108">
        <ele>2068.1</ele>
        <time>2012-03-28T10:51:45.43</time>
      </trkpt>
      <trkpt lat="45.67911" lon="6.94112">
        <ele>2068.2</ele>
        <time>2012-03-28T10:51:46.42</time>
      </trkpt>
      <trkpt lat="45.67913" lon="6.94115">
        <ele>2063.7</ele>
        <time>2012-03-28T10:51:47.42</time>
      </trkpt>
      <trkpt lat="45.67919" lon="6.94119">
        <ele>2057.6</ele>
        <time>2012-03-28T10:51:48.42</time>
      </trkpt>
      <trkpt lat="45.67926" lon="6.94123">
        <ele>2058.6</ele>
        <time>2012-03-28T10:51:49.42</time>
      </trkpt>
      <trkpt lat="45.67933" lon="6.94122">
        <ele>2058.1</ele>
        <time>2012-03-28T10:51:50.42</time>
      </trkpt>
      <trkpt lat="45.6794" lon="6.94121">
        <ele>2057.1</ele>
        <time>2012-03-28T10:51:51.44</time>
      </trkpt>
      <trkpt lat="45.67946" lon="6.9412">
        <ele>2056.2</ele>
        <time>2012-03-28T10:51:52.42</time>
      </trkpt>
      <trkpt lat="45.67951" lon="6.94119">
        <ele>2054</ele>
        <time>2012-03-28T10:51:53.43</time>
      </trkpt>
      <trkpt lat="45.67955" lon="6.94116">
        <ele>2054</ele>
        <time>2012-03-28T10:51:54.43</time>
      </trkpt>
      <trkpt lat="45.67956" lon="6.94112">
        <ele>2050.6</ele>
        <time>2012-03-28T10:51:55.43</time>
      </trkpt>
      <trkpt lat="45.67953" lon="6.94107">
        <ele>2051.6</ele>
        <time>2012-03-28T10:51:56.42</time>
      </trkpt>
      <trkpt lat="45.6795" lon="6.94103">
        <ele>2050.2</ele>
        <time>2012-03-28T10:51:57.42</time>
      </trkpt>
      <trkpt lat="45.67947" lon="6.94098">
        <ele>2050.5</ele>
        <time>2012-03-28T10:51:58.42</time>
      </trkpt>
      <trkpt lat="45.67946" lon="6.94094">
        <ele>2052.8</ele>
        <time>2012-03-28T10:51:59.43</time>
      </trkpt>
      <trkpt lat="45.67946" lon="6.9409">
        <ele>2055.4</ele>
        <time>2012-03-28T10:52:00.43</time>
      </trkpt>
      <trkpt lat="45.67948" lon="6.94084">
        <ele>2055.3</ele>
        <time>2012-03-28T10:52:01.42</time>
      </trkpt>
      <trkpt lat="45.67949" lon="6.94084">
        <ele>2057.8</ele>
        <time>2012-03-28T10:52:02.42</time>
      </trkpt>
      <trkpt lat="45.67951" lon="6.94085">
        <ele>2057.1</ele>
        <time>2012-03-28T10:52:03.42</time>
      </trkpt>
      <trkpt lat="45.67953" lon="6.94087">
        <ele>2055.3</ele>
        <time>2012-03-28T10:52:04.43</time>
      </trkpt>
      <trkpt lat="45.67954" lon="6.94087">
        <ele>2055.6</ele>
        <time>2012-03-28T10:52:05.42</time>
      </trkpt>
      <trkpt lat="45.67954" lon="6.94087">
        <ele>2055.6</ele>
        <time>2012-03-28T10:52:06.44</time>
      </trkpt>
      <trkpt lat="45.67954" lon="6.94087">
        <ele>2055.6</ele>
        <time>2012-03-28T10:52:07.44</time>
      </trkpt>
      <trkpt lat="45.67954" lon="6.94087">
        <ele>2055.6</ele>
        <time>2012-03-28T10:52:08.44</time>
      </trkpt>
      <trkpt lat="45.67954" lon="6.94087">
        <ele>2055.6</ele>
        <time>2012-03-28T10:52:09.42</time>
      </trkpt>
      <trkpt lat="45.67957" lon="6.94084">
        <ele>2054.8</ele>
        <time>2012-03-28T10:52:10.44</time>
      </trkpt>
      <trkpt lat="45.67958" lon="6.94083">
        <ele>2055.2</ele>
        <time>2012-03-28T10:52:11.42</time>
      </trkpt>
      <trkpt lat="45.6796" lon="6.94082">
        <ele>2056.1</ele>
        <time>2012-03-28T10:52:12.43</time>
      </trkpt>
      <trkpt lat="45.6796" lon="6.94082">
        <ele>2056.1</ele>
        <time>2012-03-28T10:52:13.41</time>
      </trkpt>
      <trkpt lat="45.6796" lon="6.94082">
        <ele>2056.1</ele>
        <time>2012-03-28T10:52:14.44</time>
      </trkpt>
      <trkpt lat="45.6796" lon="6.94082">
        <ele>2056.1</ele>
        <time>2012-03-28T10:52:15.44</time>
      </trkpt>
      <trkpt lat="45.6796" lon="6.94082">
        <ele>2056.1</ele>
        <time>2012-03-28T10:52:16.43</time>
      </trkpt>
      <trkpt lat="45.6796" lon="6.94082">
        <ele>2056.1</ele>
        <time>2012-03-28T10:52:17.42</time>
      </trkpt>
      <trkpt lat="45.6796" lon="6.94082">
        <ele>2056.1</ele>
        <time>2012-03-28T10:52:18.44</time>
      </trkpt>
      <trkpt lat="45.6796" lon="6.94082">
        <ele>2056.1</ele>
        <time>2012-03-28T10:52:19.40</time>
      </trkpt>
      <trkpt lat="45.6796" lon="6.94082">
        <ele>2056.1</ele>
        <time>2012-03-28T10:52:20.44</time>
      </trkpt>
      <trkpt lat="45.67971" lon="6.94084">
        <ele>2044.2</ele>
        <time>2012-03-28T10:52:21.44</time>
      </trkpt>
      <trkpt lat="45.67971" lon="6.94084">
        <ele>2044.2</ele>
        <time>2012-03-28T10:52:22.42</time>
      </trkpt>
      <trkpt lat="45.67971" lon="6.94084">
        <ele>2044.2</ele>
        <time>2012-03-28T10:52:23.43</time>
      </trkpt>
      <trkpt lat="45.67971" lon="6.94084">
        <ele>2044.2</ele>
        <time>2012-03-28T10:52:24.42</time>
      </trkpt>
      <trkpt lat="45.67971" lon="6.94084">
        <ele>2044.2</ele>
        <time>2012-03-28T10:52:25.44</time>
      </trkpt>
      <trkpt lat="45.67971" lon="6.94084">
        <ele>2044.2</ele>
        <time>2012-03-28T10:52:26.44</time>
      </trkpt>
      <trkpt lat="45.67971" lon="6.94084">
        <ele>2044.2</ele>
        <time>2012-03-28T10:52:27.43</time>
      </trkpt>
      <trkpt lat="45.67971" lon="6.94084">
        <ele>2044.2</ele>
        <time>2012-03-28T10:52:28.43</time>
      </trkpt>
      <trkpt lat="45.67971" lon="6.94084">
        <ele>2044.2</ele>
        <time>2012-03-28T10:52:29.43</time>
      </trkpt>
      <trkpt lat="45.67971" lon="6.94084">
        <ele>2044.2</ele>
        <time>2012-03-28T10:52:30.44</time>
      </trkpt>
      <trkpt lat="45.67961" lon="6.94089">
        <ele>2032.2</ele>
        <time>2012-03-28T10:52:31.44</time>
      </trkpt>
      <trkpt lat="45.67958" lon="6.94098">
        <ele>2034.3</ele>
        <time>2012-03-28T10:52:32.44</time>
      </trkpt>
      <trkpt lat="45.67956" lon="6.94103">
        <ele>2038.7</ele>
        <time>2012-03-28T10:52:33.44</time>
      </trkpt>
      <trkpt lat="45.67956" lon="6.94103">
        <ele>2038.7</ele>
        <time>2012-03-28T10:52:34.44</time>
      </trkpt>
      <trkpt lat="45.67956" lon="6.94103">
        <ele>2038.7</ele>
        <time>2012-03-28T10:52:35.44</time>
      </trkpt>
      <trkpt lat="45.67956" lon="6.94103">
        <ele>2038.7</ele>
        <time>2012-03-28T10:52:36.43</time>
      </trkpt>
      <trkpt lat="45.67956" lon="6.94103">
        <ele>2038.7</ele>
        <time>2012-03-28T10:52:37.43</time>
      </trkpt>
      <trkpt lat="45.67956" lon="6.94103">
        <ele>2038.7</ele>
        <time>2012-03-28T10:52:38.43</time>
      </trkpt>
      <trkpt lat="45.67956" lon="6.94103">
        <ele>2038.7</ele>
        <time>2012-03-28T10:52:39.44</time>
      </trkpt>
      <trkpt lat="45.67956" lon="6.94103">
        <ele>2038.7</ele>
        <time>2012-03-28T10:52:40.44</time>
      </trkpt>
      <trkpt lat="45.67956" lon="6.94103">
        <ele>2038.7</ele>
        <time>2012-03-28T10:52:41.43</time>
      </trkpt>
      <trkpt lat="45.67956" lon="6.94103">
        <ele>2038.7</ele>
        <time>2012-03-28T10:52:42.43</time>
      </trkpt>
      <trkpt lat="45.67956" lon="6.94103">
        <ele>2038.7</ele>
        <time>2012-03-28T10:52:43.42</time>
      </trkpt>
      <trkpt lat="45.67956" lon="6.94103">
        <ele>2038.7</ele>
        <time>2012-03-28T10:52:44.42</time>
      </trkpt>
      <trkpt lat="45.67956" lon="6.94103">
        <ele>2038.7</ele>
        <time>2012-03-28T10:52:45.42</time>
      </trkpt>
      <trkpt lat="45.67956" lon="6.94103">
        <ele>2038.7</ele>
        <time>2012-03-28T10:52:46.42</time>
      </trkpt>
      <trkpt lat="45.67956" lon="6.94103">
        <ele>2038.7</ele>
        <time>2012-03-28T10:52:47.43</time>
      </trkpt>
      <trkpt lat="45.67956" lon="6.94103">
        <ele>2038.7</ele>
        <time>2012-03-28T10:52:48.42</time>
      </trkpt>
      <trkpt lat="45.67952" lon="6.94094">
        <ele>2051.3</ele>
        <time>2012-03-28T10:52:49.41</time>
      </trkpt>
      <trkpt lat="45.67952" lon="6.94094">
        <ele>2051.3</ele>
        <time>2012-03-28T10:52:50.40</time>
      </trkpt>
      <trkpt lat="45.67952" lon="6.94093">
        <ele>2058.3</ele>
        <time>2012-03-28T10:52:51.42</time>
      </trkpt>
      <trkpt lat="45.67952" lon="6.94093">
        <ele>2058.3</ele>
        <time>2012-03-28T10:52:52.43</time>
      </trkpt>
      <trkpt lat="45.67952" lon="6.94093">
        <ele>2058.3</ele>
        <time>2012-03-28T10:52:53.43</time>
      </trkpt>
      <trkpt lat="45.67952" lon="6.94093">
        <ele>2058.3</ele>
        <time>2012-03-28T10:52:54.42</time>
      </trkpt>
      <trkpt lat="45.67952" lon="6.94093">
        <ele>2058.3</ele>
        <time>2012-03-28T10:52:55.43</time>
      </trkpt>
      <trkpt lat="45.67952" lon="6.94093">
        <ele>2058.3</ele>
        <time>2012-03-28T10:52:56.43</time>
      </trkpt>
      <trkpt lat="45.67948" lon="6.94104">
        <ele>2047</ele>
        <time>2012-03-28T10:52:57.43</time>
      </trkpt>
      <trkpt lat="45.67948" lon="6.94104">
        <ele>2047</ele>
        <time>2012-03-28T10:52:58.42</time>
      </trkpt>
      <trkpt lat="45.67948" lon="6.94104">
        <ele>2047</ele>
        <time>2012-03-28T10:52:59.42</time>
      </trkpt>
      <trkpt lat="45.67948" lon="6.94104">
        <ele>2047</ele>
        <time>2012-03-28T10:53:00.43</time>
      </trkpt>
      <trkpt lat="45.67948" lon="6.94104">
        <ele>2047</ele>
        <time>2012-03-28T10:53:01.45</time>
      </trkpt>
      <trkpt lat="45.67948" lon="6.94104">
        <ele>2047</ele>
        <time>2012-03-28T10:53:02.45</time>
      </trkpt>
      <trkpt lat="45.67948" lon="6.94104">
        <ele>2047</ele>
        <time>2012-03-28T10:53:03.45</time>
      </trkpt>
      <trkpt lat="45.67948" lon="6.94104">
        <ele>2047</ele>
        <time>2012-03-28T10:53:04.46</time>
      </trkpt>
      <trkpt lat="45.67948" lon="6.94104">
        <ele>2047</ele>
        <time>2012-03-28T10:53:05.46</time>
      </trkpt>
      <trkpt lat="45.67948" lon="6.94104">
        <ele>2047</ele>
        <time>2012-03-28T10:53:06.44</time>
      </trkpt>
      <trkpt lat="45.67948" lon="6.94104">
        <ele>2047</ele>
        <time>2012-03-28T10:53:07.43</time>
      </trkpt>
      <trkpt lat="45.67948" lon="6.94104">
        <ele>2047</ele>
        <time>2012-03-28T10:53:08.43</time>
      </trkpt>
      <trkpt lat="45.67948" lon="6.94104">
        <ele>2047</ele>
        <time>2012-03-28T10:53:09.43</time>
      </trkpt>
      <trkpt lat="45.67956" lon="6.94097">
        <ele>2060.5</ele>
        <time>2012-03-28T10:53:10.43</time>
      </trkpt>
      <trkpt lat="45.67956" lon="6.94097">
        <ele>2060.5</ele>
        <time>2012-03-28T10:53:11.43</time>
      </trkpt>
      <trkpt lat="45.67956" lon="6.94097">
        <ele>2060.5</ele>
        <time>2012-03-28T10:53:12.42</time>
      </trkpt>
      <trkpt lat="45.67956" lon="6.94097">
        <ele>2060.5</ele>
        <time>2012-03-28T10:53:13.44</time>
      </trkpt>
      <trkpt lat="45.67956" lon="6.94097">
        <ele>2060.5</ele>
        <time>2012-03-28T10:53:14.42</time>
      </trkpt>
      <trkpt lat="45.6796" lon="6.94101">
        <ele>2061.1</ele>
        <time>2012-03-28T10:53:15.43</time>
      </trkpt>
      <trkpt lat="45.67961" lon="6.94104">
        <ele>2062.6</ele>
        <time>2012-03-28T10:53:16.43</time>
      </trkpt>
      <trkpt lat="45.6796" lon="6.94107">
        <ele>2065.1</ele>
        <time>2012-03-28T10:53:17.42</time>
      </trkpt>
      <trkpt lat="45.67958" lon="6.9411">
        <ele>2067.4</ele>
        <time>2012-03-28T10:53:18.42</time>
      </trkpt>
      <trkpt lat="45.67954" lon="6.94114">
        <ele>2066.3</ele>
        <time>2012-03-28T10:53:19.42</time>
      </trkpt>
      <trkpt lat="45.67952" lon="6.94115">
        <ele>2061</ele>
        <time>2012-03-28T10:53:20.43</time>
      </trkpt>
      <trkpt lat="45.6795" lon="6.94115">
        <ele>2060.2</ele>
        <time>2012-03-28T10:53:21.43</time>
      </trkpt>
      <trkpt lat="45.6795" lon="6.94115">
        <ele>2060.2</ele>
        <time>2012-03-28T10:53:22.39</time>
      </trkpt>
      <trkpt lat="45.6795" lon="6.94115">
        <ele>2060.2</ele>
        <time>2012-03-28T10:53:23.39</time>
      </trkpt>
      <trkpt lat="45.6795" lon="6.94115">
        <ele>2060.2</ele>
        <time>2012-03-28T10:53:24.39</time>
      </trkpt>
      <trkpt lat="45.6795" lon="6.94115">
        <ele>2060.2</ele>
        <time>2012-03-28T10:53:25.39</time>
      </trkpt>
      <trkpt lat="45.6795" lon="6.94106">
        <ele>2058.1</ele>
        <time>2012-03-28T10:53:26.39</time>
      </trkpt>
      <trkpt lat="45.6795" lon="6.94106">
        <ele>2058.1</ele>
        <time>2012-03-28T10:53:27.39</time>
      </trkpt>
      <trkpt lat="45.6795" lon="6.94106">
        <ele>2058.1</ele>
        <time>2012-03-28T10:53:28.39</time>
      </trkpt>
      <trkpt lat="45.6795" lon="6.94106">
        <ele>2058.1</ele>
        <time>2012-03-28T10:53:29.39</time>
      </trkpt>
      <trkpt lat="45.6795" lon="6.94106">
        <ele>2058.1</ele>
        <time>2012-03-28T10:53:30.39</time>
      </trkpt>
      <trkpt lat="45.6795" lon="6.94106">
        <ele>2058.1</ele>
        <time>2012-03-28T10:53:31.39</time>
      </trkpt>
      <trkpt lat="45.67949" lon="6.94095">
        <ele>2064.4</ele>
        <time>2012-03-28T10:53:32.39</time>
      </trkpt>
      <trkpt lat="45.67949" lon="6.94095">
        <ele>2064.4</ele>
        <time>2012-03-28T10:53:33.40</time>
      </trkpt>
      <trkpt lat="45.67949" lon="6.94095">
        <ele>2064.4</ele>
        <time>2012-03-28T10:53:34.39</time>
      </trkpt>
      <trkpt lat="45.67954" lon="6.94096">
        <ele>2063.1</ele>
        <time>2012-03-28T10:53:35.39</time>
      </trkpt>
      <trkpt lat="45.67954" lon="6.94096">
        <ele>2063.1</ele>
        <time>2012-03-28T10:53:36.45</time>
      </trkpt>
      <trkpt lat="45.67954" lon="6.94096">
        <ele>2063.1</ele>
        <time>2012-03-28T10:53:37.39</time>
      </trkpt>
      <trkpt lat="45.67954" lon="6.94096">
        <ele>2063.1</ele>
        <time>2012-03-28T10:53:38.39</time>
      </trkpt>
      <trkpt lat="45.67954" lon="6.94096">
        <ele>2063.1</ele>
        <time>2012-03-28T10:53:39.39</time>
      </trkpt>
      <trkpt lat="45.67954" lon="6.94096">
        <ele>2063.1</ele>
        <time>2012-03-28T10:53:40.62</time>
      </trkpt>
      <trkpt lat="45.67954" lon="6.94096">
        <ele>2063.1</ele>
        <time>2012-03-28T10:53:42.39</time>
      </trkpt>
      <trkpt lat="45.67954" lon="6.94096">
        <ele>2063.1</ele>
        <time>2012-03-28T10:53:43.39</time>
      </trkpt>
      <trkpt lat="45.67954" lon="6.94096">
        <ele>2063.1</ele>
        <time>2012-03-28T10:53:44.39</time>
      </trkpt>
      <trkpt lat="45.67954" lon="6.94096">
        <ele>2063.1</ele>
        <time>2012-03-28T10:53:45.39</time>
      </trkpt>
      <trkpt lat="45.67954" lon="6.94096">
        <ele>2063.1</ele>
        <time>2012-03-28T10:53:46.39</time>
      </trkpt>
      <trkpt lat="45.67954" lon="6.94096">
        <ele>2063.1</ele>
        <time>2012-03-28T10:53:47.39</time>
      </trkpt>
      <trkpt lat="45.67954" lon="6.94096">
        <ele>2063.1</ele>
        <time>2012-03-28T10:53:48.39</time>
      </trkpt>
      <trkpt lat="45.67954" lon="6.94096">
        <ele>2063.1</ele>
        <time>2012-03-28T10:53:49.39</time>
      </trkpt>
      <trkpt lat="45.67961" lon="6.94094">
        <ele>2063.7</ele>
        <time>2012-03-28T10:53:50.42</time>
      </trkpt>
      <trkpt lat="45.67961" lon="6.94094">
        <ele>2063.7</ele>
        <time>2012-03-28T10:53:51.42</time>
      </trkpt>
      <trkpt lat="45.67961" lon="6.94094">
        <ele>2063.7</ele>
        <time>2012-03-28T10:53:52.42</time>
      </trkpt>
      <trkpt lat="45.67961" lon="6.94094">
        <ele>2063.7</ele>
        <time>2012-03-28T10:53:53.42</time>
      </trkpt>
      <trkpt lat="45.67961" lon="6.94094">
        <ele>2063.7</ele>
        <time>2012-03-28T10:53:54.41</time>
      </trkpt>
      <trkpt lat="45.67961" lon="6.94094">
        <ele>2063.7</ele>
        <time>2012-03-28T10:53:55.42</time>
      </trkpt>
      <trkpt lat="45.67961" lon="6.94094">
        <ele>2063.7</ele>
        <time>2012-03-28T10:53:56.42</time>
      </trkpt>
      <trkpt lat="45.67961" lon="6.94094">
        <ele>2063.7</ele>
        <time>2012-03-28T10:53:57.42</time>
      </trkpt>
      <trkpt lat="45.67961" lon="6.94094">
        <ele>2063.7</ele>
        <time>2012-03-28T10:53:58.42</time>
      </trkpt>
      <trkpt lat="45.67961" lon="6.94094">
        <ele>2063.7</ele>
        <time>2012-03-28T10:53:59.42</time>
      </trkpt>
      <trkpt lat="45.67961" lon="6.94094">
        <ele>2063.7</ele>
        <time>2012-03-28T10:54:00.42</time>
      </trkpt>
      <trkpt lat="45.67961" lon="6.94094">
        <ele>2063.7</ele>
        <time>2012-03-28T10:54:01.42</time>
      </trkpt>
      <trkpt lat="45.67961" lon="6.94094">
        <ele>2063.7</ele>
        <time>2012-03-28T10:54:02.44</time>
      </trkpt>
      <trkpt lat="45.67961" lon="6.94094">
        <ele>2063.7</ele>
        <time>2012-03-28T10:54:03.44</time>
      </trkpt>
      <trkpt lat="45.67961" lon="6.94094">
        <ele>2063.7</ele>
        <time>2012-03-28T10:54:04.44</time>
      </trkpt>
      <trkpt lat="45.67961" lon="6.94094">
        <ele>2063.7</ele>
        <time>2012-03-28T10:54:05.44</time>
      </trkpt>
      <trkpt lat="45.67961" lon="6.94094">
        <ele>2063.7</ele>
        <time>2012-03-28T10:54:06.44</time>
      </trkpt>
      <trkpt lat="45.67961" lon="6.94094">
        <ele>2063.7</ele>
        <time>2012-03-28T10:54:07.44</time>
      </trkpt>
      <trkpt lat="45.67961" lon="6.94094">
        <ele>2063.7</ele>
        <time>2012-03-28T10:54:08.43</time>
      </trkpt>
      <trkpt lat="45.67961" lon="6.94094">
        <ele>2063.7</ele>
        <time>2012-03-28T10:54:09.43</time>
      </trkpt>
      <trkpt lat="45.67961" lon="6.94094">
        <ele>2063.7</ele>
        <time>2012-03-28T10:54:10.43</time>
      </trkpt>
      <trkpt lat="45.67961" lon="6.94094">
        <ele>2063.7</ele>
        <time>2012-03-28T10:54:11.43</time>
      </trkpt>
      <trkpt lat="45.67961" lon="6.94094">
        <ele>2063.7</ele>
        <time>2012-03-28T10:54:12.43</time>
      </trkpt>
      <trkpt lat="45.67961" lon="6.94094">
        <ele>2063.7</ele>
        <time>2012-03-28T10:54:13.42</time>
      </trkpt>
      <trkpt lat="45.67961" lon="6.94094">
        <ele>2063.7</ele>
        <time>2012-03-28T10:54:14.42</time>
      </trkpt>
      <trkpt lat="45.67961" lon="6.94094">
        <ele>2063.7</ele>
        <time>2012-03-28T10:54:15.44</time>
      </trkpt>
      <trkpt lat="45.67961" lon="6.94094">
        <ele>2063.7</ele>
        <time>2012-03-28T10:54:16.43</time>
      </trkpt>
      <trkpt lat="45.67961" lon="6.94094">
        <ele>2063.7</ele>
        <time>2012-03-28T10:54:17.42</time>
      </trkpt>
      <trkpt lat="45.67961" lon="6.94094">
        <ele>2063.7</ele>
        <time>2012-03-28T10:54:18.42</time>
      </trkpt>
      <trkpt lat="45.67961" lon="6.94094">
        <ele>2063.7</ele>
        <time>2012-03-28T10:54:19.42</time>
      </trkpt>
      <trkpt lat="45.67961" lon="6.94094">
        <ele>2063.7</ele>
        <time>2012-03-28T10:54:20.43</time>
      </trkpt>
      <trkpt lat="45.67961" lon="6.94094">
        <ele>2063.7</ele>
        <time>2012-03-28T10:54:21.43</time>
      </trkpt>
      <trkpt lat="45.67961" lon="6.94094">
        <ele>2063.7</ele>
        <time>2012-03-28T10:54:22.43</time>
      </trkpt>
      <trkpt lat="45.67961" lon="6.94094">
        <ele>2063.7</ele>
        <time>2012-03-28T10:54:23.42</time>
      </trkpt>
      <trkpt lat="45.67961" lon="6.94094">
        <ele>2063.7</ele>
        <time>2012-03-28T10:54:24.44</time>
      </trkpt>
      <trkpt lat="45.67961" lon="6.94094">
        <ele>2063.7</ele>
        <time>2012-03-28T10:54:25.43</time>
      </trkpt>
      <trkpt lat="45.67961" lon="6.94094">
        <ele>2063.7</ele>
        <time>2012-03-28T10:54:26.42</time>
      </trkpt>
      <trkpt lat="45.67961" lon="6.94094">
        <ele>2063.7</ele>
        <time>2012-03-28T10:54:27.43</time>
      </trkpt>
      <trkpt lat="45.67961" lon="6.94094">
        <ele>2063.7</ele>
        <time>2012-03-28T10:54:28.43</time>
      </trkpt>
      <trkpt lat="45.67961" lon="6.94094">
        <ele>2063.7</ele>
        <time>2012-03-28T10:54:29.43</time>
      </trkpt>
      <trkpt lat="45.67961" lon="6.94094">
        <ele>2063.7</ele>
        <time>2012-03-28T10:54:30.43</time>
      </trkpt>
      <trkpt lat="45.67962" lon="6.94085">
        <ele>2068.8</ele>
        <time>2012-03-28T10:54:31.40</time>
      </trkpt>
      <trkpt lat="45.67962" lon="6.94085">
        <ele>2068.8</ele>
        <time>2012-03-28T10:54:32.42</time>
      </trkpt>
      <trkpt lat="45.67962" lon="6.94085">
        <ele>2068.8</ele>
        <time>2012-03-28T10:54:33.43</time>
      </trkpt>
      <trkpt lat="45.67962" lon="6.94085">
        <ele>2068.8</ele>
        <time>2012-03-28T10:54:34.43</time>
      </trkpt>
      <trkpt lat="45.67962" lon="6.94085">
        <ele>2068.8</ele>
        <time>2012-03-28T10:54:35.42</time>
      </trkpt>
      <trkpt lat="45.67962" lon="6.94085">
        <ele>2068.8</ele>
        <time>2012-03-28T10:54:36.43</time>
      </trkpt>
      <trkpt lat="45.67962" lon="6.94085">
        <ele>2068.8</ele>
        <time>2012-03-28T10:54:37.45</time>
      </trkpt>
      <trkpt lat="45.67962" lon="6.94085">
        <ele>2068.8</ele>
        <time>2012-03-28T10:54:38.44</time>
      </trkpt>
      <trkpt lat="45.67962" lon="6.94085">
        <ele>2068.8</ele>
        <time>2012-03-28T10:54:39.46</time>
      </trkpt>
      <trkpt lat="45.67962" lon="6.94085">
        <ele>2068.8</ele>
        <time>2012-03-28T10:54:40.42</time>
      </trkpt>
      <trkpt lat="45.67962" lon="6.94085">
        <ele>2068.8</ele>
        <time>2012-03-28T10:54:41.42</time>
      </trkpt>
      <trkpt lat="45.67962" lon="6.94085">
        <ele>2068.8</ele>
        <time>2012-03-28T10:54:42.43</time>
      </trkpt>
      <trkpt lat="45.67962" lon="6.94085">
        <ele>2068.8</ele>
        <time>2012-03-28T10:54:43.43</time>
      </trkpt>
      <trkpt lat="45.67962" lon="6.94085">
        <ele>2068.8</ele>
        <time>2012-03-28T10:54:44.42</time>
      </trkpt>
      <trkpt lat="45.67962" lon="6.94085">
        <ele>2068.8</ele>
        <time>2012-03-28T10:54:45.42</time>
      </trkpt>
      <trkpt lat="45.67962" lon="6.94085">
        <ele>2068.8</ele>
        <time>2012-03-28T10:54:46.42</time>
      </trkpt>
      <trkpt lat="45.67962" lon="6.94085">
        <ele>2068.8</ele>
        <time>2012-03-28T10:54:47.42</time>
      </trkpt>
      <trkpt lat="45.67962" lon="6.94085">
        <ele>2068.8</ele>
        <time>2012-03-28T10:54:48.43</time>
      </trkpt>
      <trkpt lat="45.67962" lon="6.94085">
        <ele>2068.8</ele>
        <time>2012-03-28T10:54:49.42</time>
      </trkpt>
      <trkpt lat="45.67962" lon="6.94085">
        <ele>2068.8</ele>
        <time>2012-03-28T10:54:50.42</time>
      </trkpt>
      <trkpt lat="45.67962" lon="6.94085">
        <ele>2068.8</ele>
        <time>2012-03-28T10:54:51.42</time>
      </trkpt>
      <trkpt lat="45.67962" lon="6.94085">
        <ele>2068.8</ele>
        <time>2012-03-28T10:54:52.43</time>
      </trkpt>
      <trkpt lat="45.67962" lon="6.94085">
        <ele>2068.8</ele>
        <time>2012-03-28T10:54:53.42</time>
      </trkpt>
      <trkpt lat="45.67962" lon="6.94085">
        <ele>2068.8</ele>
        <time>2012-03-28T10:54:54.43</time>
      </trkpt>
      <trkpt lat="45.67962" lon="6.94085">
        <ele>2068.8</ele>
        <time>2012-03-28T10:54:55.42</time>
      </trkpt>
      <trkpt lat="45.67962" lon="6.94085">
        <ele>2068.8</ele>
        <time>2012-03-28T10:54:56.43</time>
      </trkpt>
      <trkpt lat="45.67962" lon="6.94085">
        <ele>2068.8</ele>
        <time>2012-03-28T10:54:57.42</time>
      </trkpt>
      <trkpt lat="45.67962" lon="6.94085">
        <ele>2068.8</ele>
        <time>2012-03-28T10:54:58.43</time>
      </trkpt>
      <trkpt lat="45.67962" lon="6.94085">
        <ele>2068.8</ele>
        <time>2012-03-28T10:54:59.42</time>
      </trkpt>
      <trkpt lat="45.67962" lon="6.94085">
        <ele>2068.8</ele>
        <time>2012-03-28T10:55:00.43</time>
      </trkpt>
      <trkpt lat="45.67962" lon="6.94085">
        <ele>2068.8</ele>
        <time>2012-03-28T10:55:01.43</time>
      </trkpt>
      <trkpt lat="45.67962" lon="6.94085">
        <ele>2068.8</ele>
        <time>2012-03-28T10:55:02.45</time>
      </trkpt>
      <trkpt lat="45.67962" lon="6.94085">
        <ele>2068.8</ele>
        <time>2012-03-28T10:55:03.44</time>
      </trkpt>
      <trkpt lat="45.67962" lon="6.94085">
        <ele>2068.8</ele>
        <time>2012-03-28T10:55:04.44</time>
      </trkpt>
      <trkpt lat="45.67962" lon="6.94085">
        <ele>2068.8</ele>
        <time>2012-03-28T10:55:05.44</time>
      </trkpt>
      <trkpt lat="45.67962" lon="6.94085">
        <ele>2068.8</ele>
        <time>2012-03-28T10:55:06.44</time>
      </trkpt>
      <trkpt lat="45.67962" lon="6.94085">
        <ele>2068.8</ele>
        <time>2012-03-28T10:55:07.44</time>
      </trkpt>
      <trkpt lat="45.67962" lon="6.94085">
        <ele>2068.8</ele>
        <time>2012-03-28T10:55:08.44</time>
      </trkpt>
      <trkpt lat="45.67962" lon="6.94085">
        <ele>2068.8</ele>
        <time>2012-03-28T10:55:09.44</time>
      </trkpt>
      <trkpt lat="45.67962" lon="6.94085">
        <ele>2068.8</ele>
        <time>2012-03-28T10:55:10.44</time>
      </trkpt>
      <trkpt lat="45.67962" lon="6.94085">
        <ele>2068.8</ele>
        <time>2012-03-28T10:55:11.44</time>
      </trkpt>
      <trkpt lat="45.67962" lon="6.94085">
        <ele>2068.8</ele>
        <time>2012-03-28T10:55:12.47</time>
      </trkpt>
      <trkpt lat="45.67962" lon="6.94085">
        <ele>2068.8</ele>
        <time>2012-03-28T10:55:13.47</time>
      </trkpt>
      <trkpt lat="45.67962" lon="6.94085">
        <ele>2068.8</ele>
        <time>2012-03-28T10:55:14.47</time>
      </trkpt>
      <trkpt lat="45.67965" lon="6.94093">
        <ele>2047.3</ele>
        <time>2012-03-28T10:55:15.44</time>
      </trkpt>
      <trkpt lat="45.67966" lon="6.94094">
        <ele>2047.7</ele>
        <time>2012-03-28T10:55:16.39</time>
      </trkpt>
      <trkpt lat="45.67966" lon="6.94094">
        <ele>2047.7</ele>
        <time>2012-03-28T10:55:17.42</time>
      </trkpt>
      <trkpt lat="45.67966" lon="6.94094">
        <ele>2047.7</ele>
        <time>2012-03-28T10:55:18.43</time>
      </trkpt>
      <trkpt lat="45.67966" lon="6.94094">
        <ele>2047.7</ele>
        <time>2012-03-28T10:55:19.42</time>
      </trkpt>
      <trkpt lat="45.67966" lon="6.94101">
        <ele>2041.6</ele>
        <time>2012-03-28T10:55:20.42</time>
      </trkpt>
      <trkpt lat="45.67966" lon="6.94102">
        <ele>2041</ele>
        <time>2012-03-28T10:55:21.42</time>
      </trkpt>
      <trkpt lat="45.67966" lon="6.94102">
        <ele>2041</ele>
        <time>2012-03-28T10:55:22.43</time>
      </trkpt>
      <trkpt lat="45.67966" lon="6.94102">
        <ele>2041</ele>
        <time>2012-03-28T10:55:23.42</time>
      </trkpt>
      <trkpt lat="45.67966" lon="6.94102">
        <ele>2041</ele>
        <time>2012-03-28T10:55:24.43</time>
      </trkpt>
      <trkpt lat="45.67966" lon="6.94102">
        <ele>2041</ele>
        <time>2012-03-28T10:55:25.43</time>
      </trkpt>
      <trkpt lat="45.67966" lon="6.94102">
        <ele>2041</ele>
        <time>2012-03-28T10:55:26.42</time>
      </trkpt>
      <trkpt lat="45.6797" lon="6.94105">
        <ele>2044</ele>
        <time>2012-03-28T10:55:27.43</time>
      </trkpt>
      <trkpt lat="45.67971" lon="6.94105">
        <ele>2043.4</ele>
        <time>2012-03-28T10:55:28.42</time>
      </trkpt>
      <trkpt lat="45.67971" lon="6.94105">
        <ele>2043.4</ele>
        <time>2012-03-28T10:55:29.42</time>
      </trkpt>
      <trkpt lat="45.67971" lon="6.94105">
        <ele>2043.4</ele>
        <time>2012-03-28T10:55:30.42</time>
      </trkpt>
      <trkpt lat="45.67971" lon="6.94105">
        <ele>2043.4</ele>
        <time>2012-03-28T10:55:31.43</time>
      </trkpt>
      <trkpt lat="45.67971" lon="6.94105">
        <ele>2043.4</ele>
        <time>2012-03-28T10:55:32.42</time>
      </trkpt>
      <trkpt lat="45.67971" lon="6.94105">
        <ele>2043.4</ele>
        <time>2012-03-28T10:55:33.43</time>
      </trkpt>
      <trkpt lat="45.67971" lon="6.94105">
        <ele>2043.4</ele>
        <time>2012-03-28T10:55:34.43</time>
      </trkpt>
      <trkpt lat="45.67971" lon="6.94105">
        <ele>2043.4</ele>
        <time>2012-03-28T10:55:35.42</time>
      </trkpt>
      <trkpt lat="45.67971" lon="6.94105">
        <ele>2043.4</ele>
        <time>2012-03-28T10:55:36.43</time>
      </trkpt>
      <trkpt lat="45.67979" lon="6.94108">
        <ele>2049</ele>
        <time>2012-03-28T10:55:37.43</time>
      </trkpt>
      <trkpt lat="45.67979" lon="6.94108">
        <ele>2049</ele>
        <time>2012-03-28T10:55:38.43</time>
      </trkpt>
      <trkpt lat="45.67982" lon="6.94109">
        <ele>2051.6</ele>
        <time>2012-03-28T10:55:39.43</time>
      </trkpt>
      <trkpt lat="45.67984" lon="6.9411">
        <ele>2051.4</ele>
        <time>2012-03-28T10:55:40.43</time>
      </trkpt>
      <trkpt lat="45.67984" lon="6.9411">
        <ele>2051.4</ele>
        <time>2012-03-28T10:55:41.43</time>
      </trkpt>
      <trkpt lat="45.67984" lon="6.9411">
        <ele>2051.4</ele>
        <time>2012-03-28T10:55:42.43</time>
      </trkpt>
      <trkpt lat="45.67986" lon="6.94112">
        <ele>2053.1</ele>
        <time>2012-03-28T10:55:43.43</time>
      </trkpt>
      <trkpt lat="45.67988" lon="6.94113">
        <ele>2050.9</ele>
        <time>2012-03-28T10:55:44.43</time>
      </trkpt>
      <trkpt lat="45.67989" lon="6.94114">
        <ele>2047.9</ele>
        <time>2012-03-28T10:55:45.43</time>
      </trkpt>
      <trkpt lat="45.67989" lon="6.94115">
        <ele>2047</ele>
        <time>2012-03-28T10:55:46.42</time>
      </trkpt>
      <trkpt lat="45.6799" lon="6.94116">
        <ele>2047.8</ele>
        <time>2012-03-28T10:55:47.42</time>
      </trkpt>
      <trkpt lat="45.67991" lon="6.94117">
        <ele>2052.9</ele>
        <time>2012-03-28T10:55:48.43</time>
      </trkpt>
      <trkpt lat="45.67992" lon="6.94118">
        <ele>2051.8</ele>
        <time>2012-03-28T10:55:49.43</time>
      </trkpt>
      <trkpt lat="45.67993" lon="6.94119">
        <ele>2049.7</ele>
        <time>2012-03-28T10:55:50.43</time>
      </trkpt>
      <trkpt lat="45.67994" lon="6.9412">
        <ele>2051.4</ele>
        <time>2012-03-28T10:55:51.43</time>
      </trkpt>
      <trkpt lat="45.67994" lon="6.94121">
        <ele>2054.5</ele>
        <time>2012-03-28T10:55:52.43</time>
      </trkpt>
      <trkpt lat="45.67995" lon="6.94123">
        <ele>2052</ele>
        <time>2012-03-28T10:55:53.44</time>
      </trkpt>
      <trkpt lat="45.67996" lon="6.94124">
        <ele>2049.6</ele>
        <time>2012-03-28T10:55:54.44</time>
      </trkpt>
      <trkpt lat="45.67997" lon="6.94125">
        <ele>2051.6</ele>
        <time>2012-03-28T10:55:55.44</time>
      </trkpt>
      <trkpt lat="45.67997" lon="6.94125">
        <ele>2051.6</ele>
        <time>2012-03-28T10:55:56.44</time>
      </trkpt>
      <trkpt lat="45.67998" lon="6.94129">
        <ele>2044.9</ele>
        <time>2012-03-28T10:55:57.42</time>
      </trkpt>
      <trkpt lat="45.67999" lon="6.9413">
        <ele>2045.6</ele>
        <time>2012-03-28T10:55:58.44</time>
      </trkpt>
      <trkpt lat="45.68" lon="6.94131">
        <ele>2045.6</ele>
        <time>2012-03-28T10:55:59.44</time>
      </trkpt>
      <trkpt lat="45.68" lon="6.94131">
        <ele>2045.6</ele>
        <time>2012-03-28T10:56:00.44</time>
      </trkpt>
      <trkpt lat="45.68" lon="6.94131">
        <ele>2045.6</ele>
        <time>2012-03-28T10:56:01.44</time>
      </trkpt>
      <trkpt lat="45.68" lon="6.94131">
        <ele>2045.6</ele>
        <time>2012-03-28T10:56:02.44</time>
      </trkpt>
      <trkpt lat="45.68" lon="6.94131">
        <ele>2045.6</ele>
        <time>2012-03-28T10:56:03.44</time>
      </trkpt>
      <trkpt lat="45.68" lon="6.94131">
        <ele>2045.6</ele>
        <time>2012-03-28T10:56:04.44</time>
      </trkpt>
      <trkpt lat="45.68" lon="6.94131">
        <ele>2045.6</ele>
        <time>2012-03-28T10:56:05.44</time>
      </trkpt>
      <trkpt lat="45.68" lon="6.94131">
        <ele>2045.6</ele>
        <time>2012-03-28T10:56:06.44</time>
      </trkpt>
      <trkpt lat="45.68003" lon="6.94137">
        <ele>2039.3</ele>
        <time>2012-03-28T10:56:07.44</time>
      </trkpt>
      <trkpt lat="45.68003" lon="6.94137">
        <ele>2039.3</ele>
        <time>2012-03-28T10:56:08.44</time>
      </trkpt>
      <trkpt lat="45.68003" lon="6.94137">
        <ele>2039.3</ele>
        <time>2012-03-28T10:56:09.44</time>
      </trkpt>
      <trkpt lat="45.68003" lon="6.94137">
        <ele>2039.3</ele>
        <time>2012-03-28T10:56:10.44</time>
      </trkpt>
      <trkpt lat="45.68003" lon="6.94137">
        <ele>2039.3</ele>
        <time>2012-03-28T10:56:11.44</time>
      </trkpt>
      <trkpt lat="45.68005" lon="6.9414">
        <ele>2042</ele>
        <time>2012-03-28T10:56:12.44</time>
      </trkpt>
      <trkpt lat="45.68005" lon="6.9414">
        <ele>2042</ele>
        <time>2012-03-28T10:56:13.44</time>
      </trkpt>
      <trkpt lat="45.68005" lon="6.9414">
        <ele>2042</ele>
        <time>2012-03-28T10:56:14.44</time>
      </trkpt>
      <trkpt lat="45.68005" lon="6.9414">
        <ele>2042</ele>
        <time>2012-03-28T10:56:15.44</time>
      </trkpt>
      <trkpt lat="45.68005" lon="6.9414">
        <ele>2042</ele>
        <time>2012-03-28T10:56:16.44</time>
      </trkpt>
      <trkpt lat="45.68005" lon="6.9414">
        <ele>2042</ele>
        <time>2012-03-28T10:56:17.44</time>
      </trkpt>
      <trkpt lat="45.68005" lon="6.9414">
        <ele>2042</ele>
        <time>2012-03-28T10:56:18.44</time>
      </trkpt>
      <trkpt lat="45.68005" lon="6.9414">
        <ele>2042</ele>
        <time>2012-03-28T10:56:19.44</time>
      </trkpt>
      <trkpt lat="45.68005" lon="6.9414">
        <ele>2042</ele>
        <time>2012-03-28T10:56:20.44</time>
      </trkpt>
      <trkpt lat="45.68005" lon="6.9414">
        <ele>2042</ele>
        <time>2012-03-28T10:56:21.44</time>
      </trkpt>
      <trkpt lat="45.68005" lon="6.9414">
        <ele>2042</ele>
        <time>2012-03-28T10:56:22.44</time>
      </trkpt>
      <trkpt lat="45.68012" lon="6.94147">
        <ele>2033.1</ele>
        <time>2012-03-28T10:56:23.43</time>
      </trkpt>
      <trkpt lat="45.68012" lon="6.94147">
        <ele>2033.1</ele>
        <time>2012-03-28T10:56:24.44</time>
      </trkpt>
      <trkpt lat="45.68014" lon="6.94148">
        <ele>2039.5</ele>
        <time>2012-03-28T10:56:25.44</time>
      </trkpt>
      <trkpt lat="45.68014" lon="6.94148">
        <ele>2039.5</ele>
        <time>2012-03-28T10:56:26.44</time>
      </trkpt>
      <trkpt lat="45.68017" lon="6.9415">
        <ele>2029.8</ele>
        <time>2012-03-28T10:56:27.44</time>
      </trkpt>
      <trkpt lat="45.68018" lon="6.94151">
        <ele>2024.7</ele>
        <time>2012-03-28T10:56:28.42</time>
      </trkpt>
      <trkpt lat="45.68018" lon="6.94151">
        <ele>2024.7</ele>
        <time>2012-03-28T10:56:29.42</time>
      </trkpt>
      <trkpt lat="45.68021" lon="6.94153">
        <ele>2024.5</ele>
        <time>2012-03-28T10:56:30.42</time>
      </trkpt>
      <trkpt lat="45.68022" lon="6.94153">
        <ele>2030.7</ele>
        <time>2012-03-28T10:56:31.42</time>
      </trkpt>
      <trkpt lat="45.68023" lon="6.94154">
        <ele>2027</ele>
        <time>2012-03-28T10:56:32.42</time>
      </trkpt>
      <trkpt lat="45.68023" lon="6.94155">
        <ele>2025.8</ele>
        <time>2012-03-28T10:56:33.42</time>
      </trkpt>
      <trkpt lat="45.68024" lon="6.94156">
        <ele>2031.4</ele>
        <time>2012-03-28T10:56:34.42</time>
      </trkpt>
      <trkpt lat="45.68024" lon="6.94156">
        <ele>2031.4</ele>
        <time>2012-03-28T10:56:35.43</time>
      </trkpt>
      <trkpt lat="45.68024" lon="6.94156">
        <ele>2031.4</ele>
        <time>2012-03-28T10:56:36.42</time>
      </trkpt>
      <trkpt lat="45.68024" lon="6.94156">
        <ele>2031.4</ele>
        <time>2012-03-28T10:56:37.43</time>
      </trkpt>
      <trkpt lat="45.68024" lon="6.94156">
        <ele>2031.4</ele>
        <time>2012-03-28T10:56:38.41</time>
      </trkpt>
      <trkpt lat="45.68028" lon="6.9416">
        <ele>2030.2</ele>
        <time>2012-03-28T10:56:39.42</time>
      </trkpt>
      <trkpt lat="45.6803" lon="6.94161">
        <ele>2030.1</ele>
        <time>2012-03-28T10:56:40.43</time>
      </trkpt>
      <trkpt lat="45.6803" lon="6.94161">
        <ele>2030.1</ele>
        <time>2012-03-28T10:56:41.42</time>
      </trkpt>
      <trkpt lat="45.6803" lon="6.94161">
        <ele>2030.1</ele>
        <time>2012-03-28T10:56:42.42</time>
      </trkpt>
      <trkpt lat="45.6803" lon="6.94161">
        <ele>2030.1</ele>
        <time>2012-03-28T10:56:43.43</time>
      </trkpt>
      <trkpt lat="45.6803" lon="6.94161">
        <ele>2030.1</ele>
        <time>2012-03-28T10:56:44.43</time>
      </trkpt>
      <trkpt lat="45.6803" lon="6.94161">
        <ele>2030.1</ele>
        <time>2012-03-28T10:56:45.42</time>
      </trkpt>
      <trkpt lat="45.68034" lon="6.94164">
        <ele>2038.8</ele>
        <time>2012-03-28T10:56:46.42</time>
      </trkpt>
      <trkpt lat="45.68035" lon="6.94165">
        <ele>2037.9</ele>
        <time>2012-03-28T10:56:47.42</time>
      </trkpt>
      <trkpt lat="45.68036" lon="6.94168">
        <ele>2041.8</ele>
        <time>2012-03-28T10:56:48.43</time>
      </trkpt>
      <trkpt lat="45.68038" lon="6.94169">
        <ele>2043.2</ele>
        <time>2012-03-28T10:56:49.43</time>
      </trkpt>
      <trkpt lat="45.68039" lon="6.9417">
        <ele>2042.9</ele>
        <time>2012-03-28T10:56:50.42</time>
      </trkpt>
      <trkpt lat="45.6804" lon="6.94171">
        <ele>2039.8</ele>
        <time>2012-03-28T10:56:51.42</time>
      </trkpt>
      <trkpt lat="45.6804" lon="6.94171">
        <ele>2039.2</ele>
        <time>2012-03-28T10:56:52.43</time>
      </trkpt>
      <trkpt lat="45.68041" lon="6.94172">
        <ele>2041.6</ele>
        <time>2012-03-28T10:56:53.42</time>
      </trkpt>
      <trkpt lat="45.68043" lon="6.94174">
        <ele>2041.8</ele>
        <time>2012-03-28T10:56:54.42</time>
      </trkpt>
      <trkpt lat="45.68044" lon="6.94176">
        <ele>2042.2</ele>
        <time>2012-03-28T10:56:55.42</time>
      </trkpt>
      <trkpt lat="45.68045" lon="6.94177">
        <ele>2042.3</ele>
        <time>2012-03-28T10:56:56.40</time>
      </trkpt>
      <trkpt lat="45.68045" lon="6.94177">
        <ele>2042.3</ele>
        <time>2012-03-28T10:56:57.42</time>
      </trkpt>
      <trkpt lat="45.68045" lon="6.94177">
        <ele>2042.3</ele>
        <time>2012-03-28T10:56:58.42</time>
      </trkpt>
      <trkpt lat="45.68045" lon="6.94177">
        <ele>2042.3</ele>
        <time>2012-03-28T10:56:59.43</time>
      </trkpt>
      <trkpt lat="45.68048" lon="6.94181">
        <ele>2036.9</ele>
        <time>2012-03-28T10:57:00.42</time>
      </trkpt>
      <trkpt lat="45.68049" lon="6.94181">
        <ele>2035.7</ele>
        <time>2012-03-28T10:57:01.42</time>
      </trkpt>
      <trkpt lat="45.6805" lon="6.94182">
        <ele>2036.3</ele>
        <time>2012-03-28T10:57:02.42</time>
      </trkpt>
      <trkpt lat="45.68051" lon="6.94182">
        <ele>2038.4</ele>
        <time>2012-03-28T10:57:03.42</time>
      </trkpt>
      <trkpt lat="45.68051" lon="6.94182">
        <ele>2038.4</ele>
        <time>2012-03-28T10:57:04.42</time>
      </trkpt>
      <trkpt lat="45.68051" lon="6.94182">
        <ele>2038.4</ele>
        <time>2012-03-28T10:57:05.43</time>
      </trkpt>
      <trkpt lat="45.68055" lon="6.94181">
        <ele>2040.3</ele>
        <time>2012-03-28T10:57:06.42</time>
      </trkpt>
      <trkpt lat="45.68056" lon="6.9418">
        <ele>2040.2</ele>
        <time>2012-03-28T10:57:07.42</time>
      </trkpt>
      <trkpt lat="45.68056" lon="6.9418">
        <ele>2040.2</ele>
        <time>2012-03-28T10:57:08.43</time>
      </trkpt>
      <trkpt lat="45.68059" lon="6.94179">
        <ele>2034.7</ele>
        <time>2012-03-28T10:57:09.43</time>
      </trkpt>
      <trkpt lat="45.68059" lon="6.94179">
        <ele>2034.7</ele>
        <time>2012-03-28T10:57:10.42</time>
      </trkpt>
      <trkpt lat="45.68059" lon="6.94179">
        <ele>2034.7</ele>
        <time>2012-03-28T10:57:11.42</time>
      </trkpt>
      <trkpt lat="45.68059" lon="6.94179">
        <ele>2034.7</ele>
        <time>2012-03-28T10:57:12.43</time>
      </trkpt>
      <trkpt lat="45.68059" lon="6.94179">
        <ele>2034.7</ele>
        <time>2012-03-28T10:57:13.43</time>
      </trkpt>
      <trkpt lat="45.68064" lon="6.94179">
        <ele>2038.2</ele>
        <time>2012-03-28T10:57:14.42</time>
      </trkpt>
      <trkpt lat="45.68065" lon="6.94179">
        <ele>2037.4</ele>
        <time>2012-03-28T10:57:15.43</time>
      </trkpt>
      <trkpt lat="45.68066" lon="6.94179">
        <ele>2038.3</ele>
        <time>2012-03-28T10:57:16.42</time>
      </trkpt>
      <trkpt lat="45.68066" lon="6.94179">
        <ele>2038.3</ele>
        <time>2012-03-28T10:57:17.42</time>
      </trkpt>
      <trkpt lat="45.68066" lon="6.94179">
        <ele>2038.3</ele>
        <time>2012-03-28T10:57:18.42</time>
      </trkpt>
      <trkpt lat="45.68068" lon="6.9418">
        <ele>2039.5</ele>
        <time>2012-03-28T10:57:19.41</time>
      </trkpt>
      <trkpt lat="45.68069" lon="6.9418">
        <ele>2033.8</ele>
        <time>2012-03-28T10:57:20.43</time>
      </trkpt>
      <trkpt lat="45.68069" lon="6.9418">
        <ele>2033.8</ele>
        <time>2012-03-28T10:57:21.42</time>
      </trkpt>
      <trkpt lat="45.68071" lon="6.94182">
        <ele>2035.3</ele>
        <time>2012-03-28T10:57:22.42</time>
      </trkpt>
      <trkpt lat="45.68071" lon="6.94182">
        <ele>2035.3</ele>
        <time>2012-03-28T10:57:23.42</time>
      </trkpt>
      <trkpt lat="45.68071" lon="6.94182">
        <ele>2035.3</ele>
        <time>2012-03-28T10:57:24.42</time>
      </trkpt>
      <trkpt lat="45.68074" lon="6.94184">
        <ele>2036</ele>
        <time>2012-03-28T10:57:25.43</time>
      </trkpt>
      <trkpt lat="45.68075" lon="6.94184">
        <ele>2037.6</ele>
        <time>2012-03-28T10:57:26.42</time>
      </trkpt>
      <trkpt lat="45.68076" lon="6.94184">
        <ele>2037.6</ele>
        <time>2012-03-28T10:57:27.42</time>
      </trkpt>
      <trkpt lat="45.68076" lon="6.94184">
        <ele>2037.6</ele>
        <time>2012-03-28T10:57:28.43</time>
      </trkpt>
      <trkpt lat="45.68078" lon="6.94185">
        <ele>2038.4</ele>
        <time>2012-03-28T10:57:29.42</time>
      </trkpt>
      <trkpt lat="45.68078" lon="6.94185">
        <ele>2038.4</ele>
        <time>2012-03-28T10:57:30.42</time>
      </trkpt>
      <trkpt lat="45.68078" lon="6.94185">
        <ele>2038.4</ele>
        <time>2012-03-28T10:57:31.43</time>
      </trkpt>
      <trkpt lat="45.68078" lon="6.94185">
        <ele>2038.4</ele>
        <time>2012-03-28T10:57:32.42</time>
      </trkpt>
      <trkpt lat="45.68078" lon="6.94185">
        <ele>2038.4</ele>
        <time>2012-03-28T10:57:33.42</time>
      </trkpt>
      <trkpt lat="45.68078" lon="6.94185">
        <ele>2038.4</ele>
        <time>2012-03-28T10:57:34.42</time>
      </trkpt>
      <trkpt lat="45.68078" lon="6.94185">
        <ele>2038.4</ele>
        <time>2012-03-28T10:57:35.42</time>
      </trkpt>
      <trkpt lat="45.68078" lon="6.94185">
        <ele>2038.4</ele>
        <time>2012-03-28T10:57:36.42</time>
      </trkpt>
      <trkpt lat="45.68078" lon="6.94185">
        <ele>2038.4</ele>
        <time>2012-03-28T10:57:37.42</time>
      </trkpt>
      <trkpt lat="45.68078" lon="6.94185">
        <ele>2038.4</ele>
        <time>2012-03-28T10:57:38.42</time>
      </trkpt>
      <trkpt lat="45.68078" lon="6.94185">
        <ele>2038.4</ele>
        <time>2012-03-28T10:57:39.42</time>
      </trkpt>
      <trkpt lat="45.68088" lon="6.94187">
        <ele>2041.5</ele>
        <time>2012-03-28T10:57:40.43</time>
      </trkpt>
      <trkpt lat="45.68088" lon="6.94187">
        <ele>2041.5</ele>
        <time>2012-03-28T10:57:41.42</time>
      </trkpt>
      <trkpt lat="45.68088" lon="6.94187">
        <ele>2041.5</ele>
        <time>2012-03-28T10:57:42.42</time>
      </trkpt>
      <trkpt lat="45.68088" lon="6.94187">
        <ele>2041.5</ele>
        <time>2012-03-28T10:57:43.42</time>
      </trkpt>
      <trkpt lat="45.68088" lon="6.94187">
        <ele>2041.5</ele>
        <time>2012-03-28T10:57:44.42</time>
      </trkpt>
      <trkpt lat="45.68088" lon="6.94187">
        <ele>2041.5</ele>
        <time>2012-03-28T10:57:45.43</time>
      </trkpt>
      <trkpt lat="45.68088" lon="6.94187">
        <ele>2041.5</ele>
        <time>2012-03-28T10:57:46.42</time>
      </trkpt>
      <trkpt lat="45.68096" lon="6.94188">
        <ele>2046.6</ele>
        <time>2012-03-28T10:57:47.43</time>
      </trkpt>
      <trkpt lat="45.68096" lon="6.94188">
        <ele>2046.6</ele>
        <time>2012-03-28T10:57:48.42</time>
      </trkpt>
      <trkpt lat="45.68096" lon="6.94188">
        <ele>2046.6</ele>
        <time>2012-03-28T10:57:49.42</time>
      </trkpt>
      <trkpt lat="45.68096" lon="6.94188">
        <ele>2046.6</ele>
        <time>2012-03-28T10:57:50.43</time>
      </trkpt>
      <trkpt lat="45.68096" lon="6.94188">
        <ele>2046.6</ele>
        <time>2012-03-28T10:57:51.42</time>
      </trkpt>
      <trkpt lat="45.68096" lon="6.94188">
        <ele>2046.6</ele>
        <time>2012-03-28T10:57:52.42</time>
      </trkpt>
      <trkpt lat="45.68096" lon="6.94188">
        <ele>2046.6</ele>
        <time>2012-03-28T10:57:53.42</time>
      </trkpt>
      <trkpt lat="45.68096" lon="6.94188">
        <ele>2046.6</ele>
        <time>2012-03-28T10:57:54.42</time>
      </trkpt>
      <trkpt lat="45.68096" lon="6.94188">
        <ele>2046.6</ele>
        <time>2012-03-28T10:57:55.42</time>
      </trkpt>
      <trkpt lat="45.68105" lon="6.94193">
        <ele>2045.7</ele>
        <time>2012-03-28T10:57:56.42</time>
      </trkpt>
      <trkpt lat="45.68105" lon="6.94193">
        <ele>2045.7</ele>
        <time>2012-03-28T10:57:57.42</time>
      </trkpt>
      <trkpt lat="45.68105" lon="6.94193">
        <ele>2045.7</ele>
        <time>2012-03-28T10:57:58.43</time>
      </trkpt>
      <trkpt lat="45.68105" lon="6.94193">
        <ele>2045.7</ele>
        <time>2012-03-28T10:57:59.42</time>
      </trkpt>
      <trkpt lat="45.68105" lon="6.94193">
        <ele>2045.7</ele>
        <time>2012-03-28T10:58:00.41</time>
      </trkpt>
      <trkpt lat="45.68105" lon="6.94193">
        <ele>2045.7</ele>
        <time>2012-03-28T10:58:01.42</time>
      </trkpt>
      <trkpt lat="45.68105" lon="6.94193">
        <ele>2045.7</ele>
        <time>2012-03-28T10:58:02.43</time>
      </trkpt>
      <trkpt lat="45.68105" lon="6.94193">
        <ele>2045.7</ele>
        <time>2012-03-28T10:58:03.44</time>
      </trkpt>
      <trkpt lat="45.68105" lon="6.94193">
        <ele>2045.7</ele>
        <time>2012-03-28T10:58:04.43</time>
      </trkpt>
      <trkpt lat="45.68105" lon="6.94193">
        <ele>2045.7</ele>
        <time>2012-03-28T10:58:05.44</time>
      </trkpt>
      <trkpt lat="45.68105" lon="6.94193">
        <ele>2045.7</ele>
        <time>2012-03-28T10:58:06.43</time>
      </trkpt>
      <trkpt lat="45.68105" lon="6.94193">
        <ele>2045.7</ele>
        <time>2012-03-28T10:58:07.43</time>
      </trkpt>
      <trkpt lat="45.68113" lon="6.94198">
        <ele>2050.3</ele>
        <time>2012-03-28T10:58:08.42</time>
      </trkpt>
      <trkpt lat="45.68113" lon="6.94198">
        <ele>2050.3</ele>
        <time>2012-03-28T10:58:09.43</time>
      </trkpt>
      <trkpt lat="45.68113" lon="6.94198">
        <ele>2050.3</ele>
        <time>2012-03-28T10:58:10.43</time>
      </trkpt>
      <trkpt lat="45.68115" lon="6.94198">
        <ele>2044.6</ele>
        <time>2012-03-28T10:58:11.43</time>
      </trkpt>
      <trkpt lat="45.68115" lon="6.94198">
        <ele>2044.6</ele>
        <time>2012-03-28T10:58:12.43</time>
      </trkpt>
      <trkpt lat="45.68117" lon="6.94199">
        <ele>2049.1</ele>
        <time>2012-03-28T10:58:13.43</time>
      </trkpt>
      <trkpt lat="45.68117" lon="6.94199">
        <ele>2049.1</ele>
        <time>2012-03-28T10:58:14.42</time>
      </trkpt>
      <trkpt lat="45.68117" lon="6.94199">
        <ele>2049.1</ele>
        <time>2012-03-28T10:58:15.43</time>
      </trkpt>
      <trkpt lat="45.68117" lon="6.94199">
        <ele>2049.1</ele>
        <time>2012-03-28T10:58:16.43</time>
      </trkpt>
      <trkpt lat="45.68117" lon="6.94199">
        <ele>2049.1</ele>
        <time>2012-03-28T10:58:17.44</time>
      </trkpt>
      <trkpt lat="45.68117" lon="6.94199">
        <ele>2049.1</ele>
        <time>2012-03-28T10:58:18.42</time>
      </trkpt>
      <trkpt lat="45.68122" lon="6.94201">
        <ele>2046.6</ele>
        <time>2012-03-28T10:58:19.42</time>
      </trkpt>
      <trkpt lat="45.68123" lon="6.94202">
        <ele>2046.7</ele>
        <time>2012-03-28T10:58:20.40</time>
      </trkpt>
      <trkpt lat="45.68124" lon="6.94202">
        <ele>2045.6</ele>
        <time>2012-03-28T10:58:21.42</time>
      </trkpt>
      <trkpt lat="45.68125" lon="6.94203">
        <ele>2048.7</ele>
        <time>2012-03-28T10:58:22.43</time>
      </trkpt>
      <trkpt lat="45.68126" lon="6.94204">
        <ele>2053.2</ele>
        <time>2012-03-28T10:58:23.42</time>
      </trkpt>
      <trkpt lat="45.68127" lon="6.94204">
        <ele>2053.6</ele>
        <time>2012-03-28T10:58:24.42</time>
      </trkpt>
      <trkpt lat="45.68129" lon="6.94205">
        <ele>2057</ele>
        <time>2012-03-28T10:58:25.42</time>
      </trkpt>
      <trkpt lat="45.6813" lon="6.94205">
        <ele>2058.1</ele>
        <time>2012-03-28T10:58:26.43</time>
      </trkpt>
      <trkpt lat="45.68131" lon="6.94206">
        <ele>2059</ele>
        <time>2012-03-28T10:58:27.43</time>
      </trkpt>
      <trkpt lat="45.68132" lon="6.94206">
        <ele>2058.9</ele>
        <time>2012-03-28T10:58:28.43</time>
      </trkpt>
      <trkpt lat="45.68133" lon="6.94207">
        <ele>2058</ele>
        <time>2012-03-28T10:58:29.43</time>
      </trkpt>
      <trkpt lat="45.68134" lon="6.94208">
        <ele>2057.8</ele>
        <time>2012-03-28T10:58:30.43</time>
      </trkpt>
      <trkpt lat="45.68136" lon="6.94209">
        <ele>2057.5</ele>
        <time>2012-03-28T10:58:31.43</time>
      </trkpt>
      <trkpt lat="45.68137" lon="6.9421">
        <ele>2060.8</ele>
        <time>2012-03-28T10:58:32.43</time>
      </trkpt>
      <trkpt lat="45.68138" lon="6.94211">
        <ele>2061.6</ele>
        <time>2012-03-28T10:58:33.43</time>
      </trkpt>
      <trkpt lat="45.68139" lon="6.94212">
        <ele>2062.4</ele>
        <time>2012-03-28T10:58:34.43</time>
      </trkpt>
      <trkpt lat="45.6814" lon="6.94213">
        <ele>2061.2</ele>
        <time>2012-03-28T10:58:35.43</time>
      </trkpt>
      <trkpt lat="45.68142" lon="6.94214">
        <ele>2061.1</ele>
        <time>2012-03-28T10:58:36.43</time>
      </trkpt>
      <trkpt lat="45.68143" lon="6.94215">
        <ele>2061.8</ele>
        <time>2012-03-28T10:58:37.42</time>
      </trkpt>
      <trkpt lat="45.68144" lon="6.94216">
        <ele>2064.1</ele>
        <time>2012-03-28T10:58:38.42</time>
      </trkpt>
      <trkpt lat="45.68146" lon="6.94217">
        <ele>2065.4</ele>
        <time>2012-03-28T10:58:39.43</time>
      </trkpt>
      <trkpt lat="45.68148" lon="6.94218">
        <ele>2063.4</ele>
        <time>2012-03-28T10:58:40.43</time>
      </trkpt>
      <trkpt lat="45.68148" lon="6.94219">
        <ele>2066.1</ele>
        <time>2012-03-28T10:58:41.41</time>
      </trkpt>
      <trkpt lat="45.68149" lon="6.94219">
        <ele>2066.3</ele>
        <time>2012-03-28T10:58:42.42</time>
      </trkpt>
      <trkpt lat="45.68149" lon="6.94219">
        <ele>2066.5</ele>
        <time>2012-03-28T10:58:43.42</time>
      </trkpt>
      <trkpt lat="45.6815" lon="6.94219">
        <ele>2066.2</ele>
        <time>2012-03-28T10:58:44.42</time>
      </trkpt>
      <trkpt lat="45.68151" lon="6.9422">
        <ele>2065.9</ele>
        <time>2012-03-28T10:58:45.42</time>
      </trkpt>
      <trkpt lat="45.68152" lon="6.94221">
        <ele>2062.5</ele>
        <time>2012-03-28T10:58:46.42</time>
      </trkpt>
      <trkpt lat="45.68154" lon="6.94221">
        <ele>2059.9</ele>
        <time>2012-03-28T10:58:47.42</time>
      </trkpt>
      <trkpt lat="45.68155" lon="6.94222">
        <ele>2059.8</ele>
        <time>2012-03-28T10:58:48.42</time>
      </trkpt>
      <trkpt lat="45.68156" lon="6.94222">
        <ele>2060.4</ele>
        <time>2012-03-28T10:58:49.42</time>
      </trkpt>
      <trkpt lat="45.68158" lon="6.94223">
        <ele>2057.2</ele>
        <time>2012-03-28T10:58:50.40</time>
      </trkpt>
      <trkpt lat="45.68159" lon="6.94223">
        <ele>2059.3</ele>
        <time>2012-03-28T10:58:51.42</time>
      </trkpt>
      <trkpt lat="45.6816" lon="6.94223">
        <ele>2062.1</ele>
        <time>2012-03-28T10:58:52.42</time>
      </trkpt>
      <trkpt lat="45.68161" lon="6.94223">
        <ele>2060.1</ele>
        <time>2012-03-28T10:58:53.42</time>
      </trkpt>
      <trkpt lat="45.68163" lon="6.94223">
        <ele>2058.3</ele>
        <time>2012-03-28T10:58:54.42</time>
      </trkpt>
      <trkpt lat="45.68165" lon="6.94224">
        <ele>2059.5</ele>
        <time>2012-03-28T10:58:55.42</time>
      </trkpt>
      <trkpt lat="45.68166" lon="6.94224">
        <ele>2058.6</ele>
        <time>2012-03-28T10:58:56.42</time>
      </trkpt>
      <trkpt lat="45.68167" lon="6.94225">
        <ele>2059.5</ele>
        <time>2012-03-28T10:58:57.42</time>
      </trkpt>
      <trkpt lat="45.68168" lon="6.94226">
        <ele>2059.2</ele>
        <time>2012-03-28T10:58:58.39</time>
      </trkpt>
      <trkpt lat="45.6817" lon="6.94228">
        <ele>2058.3</ele>
        <time>2012-03-28T10:58:59.42</time>
      </trkpt>
      <trkpt lat="45.68172" lon="6.94228">
        <ele>2059.9</ele>
        <time>2012-03-28T10:59:00.41</time>
      </trkpt>
      <trkpt lat="45.68173" lon="6.94228">
        <ele>2062.7</ele>
        <time>2012-03-28T10:59:01.42</time>
      </trkpt>
      <trkpt lat="45.68174" lon="6.94228">
        <ele>2061.2</ele>
        <time>2012-03-28T10:59:02.42</time>
      </trkpt>
      <trkpt lat="45.68175" lon="6.94229">
        <ele>2063.6</ele>
        <time>2012-03-28T10:59:03.42</time>
      </trkpt>
      <trkpt lat="45.68177" lon="6.94229">
        <ele>2060.1</ele>
        <time>2012-03-28T10:59:04.42</time>
      </trkpt>
      <trkpt lat="45.68178" lon="6.9423">
        <ele>2061.3</ele>
        <time>2012-03-28T10:59:05.42</time>
      </trkpt>
      <trkpt lat="45.68179" lon="6.9423">
        <ele>2060.1</ele>
        <time>2012-03-28T10:59:06.43</time>
      </trkpt>
      <trkpt lat="45.6818" lon="6.94231">
        <ele>2059.4</ele>
        <time>2012-03-28T10:59:07.43</time>
      </trkpt>
      <trkpt lat="45.68181" lon="6.94232">
        <ele>2060.8</ele>
        <time>2012-03-28T10:59:08.43</time>
      </trkpt>
      <trkpt lat="45.68182" lon="6.94232">
        <ele>2060.4</ele>
        <time>2012-03-28T10:59:09.43</time>
      </trkpt>
      <trkpt lat="45.68183" lon="6.94233">
        <ele>2060.1</ele>
        <time>2012-03-28T10:59:10.42</time>
      </trkpt>
      <trkpt lat="45.68184" lon="6.94235">
        <ele>2055.8</ele>
        <time>2012-03-28T10:59:11.42</time>
      </trkpt>
      <trkpt lat="45.68185" lon="6.94236">
        <ele>2056</ele>
        <time>2012-03-28T10:59:12.42</time>
      </trkpt>
      <trkpt lat="45.68186" lon="6.94237">
        <ele>2055</ele>
        <time>2012-03-28T10:59:13.42</time>
      </trkpt>
      <trkpt lat="45.68186" lon="6.94238">
        <ele>2057.9</ele>
        <time>2012-03-28T10:59:14.42</time>
      </trkpt>
      <trkpt lat="45.68187" lon="6.94239">
        <ele>2060</ele>
        <time>2012-03-28T10:59:15.40</time>
      </trkpt>
      <trkpt lat="45.68187" lon="6.94239">
        <ele>2055.4</ele>
        <time>2012-03-28T10:59:16.42</time>
      </trkpt>
      <trkpt lat="45.68188" lon="6.9424">
        <ele>2052.3</ele>
        <time>2012-03-28T10:59:17.42</time>
      </trkpt>
      <trkpt lat="45.68188" lon="6.94241">
        <ele>2052.1</ele>
        <time>2012-03-28T10:59:18.42</time>
      </trkpt>
      <trkpt lat="45.68189" lon="6.94242">
        <ele>2050.2</ele>
        <time>2012-03-28T10:59:19.42</time>
      </trkpt>
      <trkpt lat="45.68189" lon="6.94243">
        <ele>2052.3</ele>
        <time>2012-03-28T10:59:20.41</time>
      </trkpt>
      <trkpt lat="45.6819" lon="6.94245">
        <ele>2051.5</ele>
        <time>2012-03-28T10:59:21.42</time>
      </trkpt>
      <trkpt lat="45.68191" lon="6.94246">
        <ele>2055.9</ele>
        <time>2012-03-28T10:59:22.42</time>
      </trkpt>
      <trkpt lat="45.68193" lon="6.94248">
        <ele>2055.8</ele>
        <time>2012-03-28T10:59:23.42</time>
      </trkpt>
      <trkpt lat="45.68193" lon="6.94249">
        <ele>2053.7</ele>
        <time>2012-03-28T10:59:24.42</time>
      </trkpt>
      <trkpt lat="45.68194" lon="6.9425">
        <ele>2053.2</ele>
        <time>2012-03-28T10:59:25.42</time>
      </trkpt>
      <trkpt lat="45.68195" lon="6.9425">
        <ele>2049.6</ele>
        <time>2012-03-28T10:59:26.42</time>
      </trkpt>
      <trkpt lat="45.68195" lon="6.94251">
        <ele>2050</ele>
        <time>2012-03-28T10:59:27.42</time>
      </trkpt>
      <trkpt lat="45.68196" lon="6.94251">
        <ele>2048.6</ele>
        <time>2012-03-28T10:59:28.42</time>
      </trkpt>
      <trkpt lat="45.68197" lon="6.94252">
        <ele>2048.1</ele>
        <time>2012-03-28T10:59:29.42</time>
      </trkpt>
      <trkpt lat="45.68197" lon="6.94252">
        <ele>2048.2</ele>
        <time>2012-03-28T10:59:30.42</time>
      </trkpt>
      <trkpt lat="45.68198" lon="6.94252">
        <ele>2048.1</ele>
        <time>2012-03-28T10:59:31.42</time>
      </trkpt>
      <trkpt lat="45.68199" lon="6.94253">
        <ele>2049.3</ele>
        <time>2012-03-28T10:59:32.42</time>
      </trkpt>
      <trkpt lat="45.682" lon="6.94253">
        <ele>2048.4</ele>
        <time>2012-03-28T10:59:33.42</time>
      </trkpt>
      <trkpt lat="45.68201" lon="6.94254">
        <ele>2050.6</ele>
        <time>2012-03-28T10:59:34.42</time>
      </trkpt>
      <trkpt lat="45.68201" lon="6.94255">
        <ele>2051.2</ele>
        <time>2012-03-28T10:59:35.44</time>
      </trkpt>
      <trkpt lat="45.68202" lon="6.94256">
        <ele>2051.2</ele>
        <time>2012-03-28T10:59:36.44</time>
      </trkpt>
      <trkpt lat="45.68203" lon="6.94256">
        <ele>2052.4</ele>
        <time>2012-03-28T10:59:37.44</time>
      </trkpt>
      <trkpt lat="45.68204" lon="6.94257">
        <ele>2052.2</ele>
        <time>2012-03-28T10:59:38.44</time>
      </trkpt>
      <trkpt lat="45.68205" lon="6.94257">
        <ele>2051.6</ele>
        <time>2012-03-28T10:59:39.44</time>
      </trkpt>
      <trkpt lat="45.68206" lon="6.94258">
        <ele>2047.7</ele>
        <time>2012-03-28T10:59:40.44</time>
      </trkpt>
      <trkpt lat="45.68207" lon="6.94258">
        <ele>2045.9</ele>
        <time>2012-03-28T10:59:41.44</time>
      </trkpt>
      <trkpt lat="45.68208" lon="6.94258">
        <ele>2045.7</ele>
        <time>2012-03-28T10:59:42.44</time>
      </trkpt>
      <trkpt lat="45.68208" lon="6.94257">
        <ele>2045.7</ele>
        <time>2012-03-28T10:59:43.44</time>
      </trkpt>
      <trkpt lat="45.6821" lon="6.94257">
        <ele>2045.4</ele>
        <time>2012-03-28T10:59:44.44</time>
      </trkpt>
      <trkpt lat="45.68211" lon="6.94258">
        <ele>2048.4</ele>
        <time>2012-03-28T10:59:45.44</time>
      </trkpt>
      <trkpt lat="45.68212" lon="6.94258">
        <ele>2048.3</ele>
        <time>2012-03-28T10:59:46.44</time>
      </trkpt>
      <trkpt lat="45.68213" lon="6.94259">
        <ele>2048.2</ele>
        <time>2012-03-28T10:59:47.44</time>
      </trkpt>
      <trkpt lat="45.68214" lon="6.94259">
        <ele>2048.9</ele>
        <time>2012-03-28T10:59:48.44</time>
      </trkpt>
      <trkpt lat="45.68215" lon="6.94259">
        <ele>2046.2</ele>
        <time>2012-03-28T10:59:49.44</time>
      </trkpt>
      <trkpt lat="45.68215" lon="6.94258">
        <ele>2041.7</ele>
        <time>2012-03-28T10:59:50.44</time>
      </trkpt>
      <trkpt lat="45.68216" lon="6.94258">
        <ele>2048.1</ele>
        <time>2012-03-28T10:59:51.44</time>
      </trkpt>
      <trkpt lat="45.68217" lon="6.94257">
        <ele>2050.2</ele>
        <time>2012-03-28T10:59:52.44</time>
      </trkpt>
      <trkpt lat="45.68217" lon="6.94257">
        <ele>2054.4</ele>
        <time>2012-03-28T10:59:53.44</time>
      </trkpt>
      <trkpt lat="45.68218" lon="6.94257">
        <ele>2054</ele>
        <time>2012-03-28T10:59:54.43</time>
      </trkpt>
      <trkpt lat="45.68219" lon="6.94257">
        <ele>2056.1</ele>
        <time>2012-03-28T10:59:55.44</time>
      </trkpt>
      <trkpt lat="45.6822" lon="6.94258">
        <ele>2057.8</ele>
        <time>2012-03-28T10:59:56.44</time>
      </trkpt>
      <trkpt lat="45.68221" lon="6.94258">
        <ele>2058.5</ele>
        <time>2012-03-28T10:59:57.43</time>
      </trkpt>
      <trkpt lat="45.68221" lon="6.94257">
        <ele>2059.5</ele>
        <time>2012-03-28T10:59:58.44</time>
      </trkpt>
      <trkpt lat="45.68221" lon="6.94257">
        <ele>2058.3</ele>
        <time>2012-03-28T10:59:59.44</time>
      </trkpt>
      <trkpt lat="45.68221" lon="6.94257">
        <ele>2061.3</ele>
        <time>2012-03-28T11:00:00.43</time>
      </trkpt>
      <trkpt lat="45.68222" lon="6.94257">
        <ele>2063.1</ele>
        <time>2012-03-28T11:00:01.44</time>
      </trkpt>
      <trkpt lat="45.68222" lon="6.94257">
        <ele>2064.6</ele>
        <time>2012-03-28T11:00:02.44</time>
      </trkpt>
      <trkpt lat="45.68223" lon="6.94258">
        <ele>2059.7</ele>
        <time>2012-03-28T11:00:03.43</time>
      </trkpt>
      <trkpt lat="45.68224" lon="6.94258">
        <ele>2056.7</ele>
        <time>2012-03-28T11:00:04.44</time>
      </trkpt>
      <trkpt lat="45.68225" lon="6.94257">
        <ele>2053.2</ele>
        <time>2012-03-28T11:00:05.44</time>
      </trkpt>
      <trkpt lat="45.68226" lon="6.94257">
        <ele>2056.6</ele>
        <time>2012-03-28T11:00:06.42</time>
      </trkpt>
      <trkpt lat="45.68226" lon="6.94256">
        <ele>2055.9</ele>
        <time>2012-03-28T11:00:07.43</time>
      </trkpt>
      <trkpt lat="45.68227" lon="6.94256">
        <ele>2057.5</ele>
        <time>2012-03-28T11:00:08.43</time>
      </trkpt>
      <trkpt lat="45.68228" lon="6.94255">
        <ele>2057.6</ele>
        <time>2012-03-28T11:00:09.43</time>
      </trkpt>
      <trkpt lat="45.68229" lon="6.94255">
        <ele>2054.9</ele>
        <time>2012-03-28T11:00:10.42</time>
      </trkpt>
      <trkpt lat="45.68229" lon="6.94255">
        <ele>2053</ele>
        <time>2012-03-28T11:00:11.42</time>
      </trkpt>
      <trkpt lat="45.6823" lon="6.94255">
        <ele>2054.4</ele>
        <time>2012-03-28T11:00:12.42</time>
      </trkpt>
      <trkpt lat="45.68231" lon="6.94255">
        <ele>2052.2</ele>
        <time>2012-03-28T11:00:13.42</time>
      </trkpt>
      <trkpt lat="45.68231" lon="6.94255">
        <ele>2051.8</ele>
        <time>2012-03-28T11:00:14.42</time>
      </trkpt>
      <trkpt lat="45.68232" lon="6.94254">
        <ele>2052.9</ele>
        <time>2012-03-28T11:00:15.42</time>
      </trkpt>
      <trkpt lat="45.68233" lon="6.94254">
        <ele>2051.1</ele>
        <time>2012-03-28T11:00:16.43</time>
      </trkpt>
      <trkpt lat="45.68234" lon="6.94254">
        <ele>2053.7</ele>
        <time>2012-03-28T11:00:17.42</time>
      </trkpt>
      <trkpt lat="45.68234" lon="6.94254">
        <ele>2050.9</ele>
        <time>2012-03-28T11:00:18.41</time>
      </trkpt>
      <trkpt lat="45.68236" lon="6.94254">
        <ele>2051.4</ele>
        <time>2012-03-28T11:00:19.42</time>
      </trkpt>
      <trkpt lat="45.68237" lon="6.94255">
        <ele>2051.7</ele>
        <time>2012-03-28T11:00:20.42</time>
      </trkpt>
      <trkpt lat="45.68238" lon="6.94255">
        <ele>2053.9</ele>
        <time>2012-03-28T11:00:21.42</time>
      </trkpt>
      <trkpt lat="45.68239" lon="6.94255">
        <ele>2051.5</ele>
        <time>2012-03-28T11:00:22.40</time>
      </trkpt>
      <trkpt lat="45.6824" lon="6.94255">
        <ele>2047.2</ele>
        <time>2012-03-28T11:00:23.42</time>
      </trkpt>
      <trkpt lat="45.6824" lon="6.94255">
        <ele>2049.4</ele>
        <time>2012-03-28T11:00:24.42</time>
      </trkpt>
      <trkpt lat="45.68241" lon="6.94255">
        <ele>2051.2</ele>
        <time>2012-03-28T11:00:25.42</time>
      </trkpt>
      <trkpt lat="45.68242" lon="6.94255">
        <ele>2050.1</ele>
        <time>2012-03-28T11:00:26.42</time>
      </trkpt>
      <trkpt lat="45.68243" lon="6.94255">
        <ele>2055.1</ele>
        <time>2012-03-28T11:00:27.42</time>
      </trkpt>
      <trkpt lat="45.68244" lon="6.94255">
        <ele>2055.8</ele>
        <time>2012-03-28T11:00:28.42</time>
      </trkpt>
      <trkpt lat="45.68246" lon="6.94255">
        <ele>2063.2</ele>
        <time>2012-03-28T11:00:29.42</time>
      </trkpt>
      <trkpt lat="45.68247" lon="6.94256">
        <ele>2060.4</ele>
        <time>2012-03-28T11:00:30.42</time>
      </trkpt>
      <trkpt lat="45.68248" lon="6.94256">
        <ele>2059.7</ele>
        <time>2012-03-28T11:00:31.42</time>
      </trkpt>
      <trkpt lat="45.68249" lon="6.94256">
        <ele>2060</ele>
        <time>2012-03-28T11:00:32.42</time>
      </trkpt>
      <trkpt lat="45.6825" lon="6.94256">
        <ele>2063.4</ele>
        <time>2012-03-28T11:00:33.43</time>
      </trkpt>
      <trkpt lat="45.68251" lon="6.94255">
        <ele>2064.6</ele>
        <time>2012-03-28T11:00:34.43</time>
      </trkpt>
      <trkpt lat="45.68252" lon="6.94255">
        <ele>2064.3</ele>
        <time>2012-03-28T11:00:35.43</time>
      </trkpt>
      <trkpt lat="45.68253" lon="6.94255">
        <ele>2064.1</ele>
        <time>2012-03-28T11:00:36.43</time>
      </trkpt>
      <trkpt lat="45.68253" lon="6.94255">
        <ele>2064.5</ele>
        <time>2012-03-28T11:00:37.43</time>
      </trkpt>
      <trkpt lat="45.68254" lon="6.94255">
        <ele>2058</ele>
        <time>2012-03-28T11:00:38.43</time>
      </trkpt>
      <trkpt lat="45.68255" lon="6.94255">
        <ele>2059</ele>
        <time>2012-03-28T11:00:39.43</time>
      </trkpt>
      <trkpt lat="45.68256" lon="6.94255">
        <ele>2061.5</ele>
        <time>2012-03-28T11:00:40.43</time>
      </trkpt>
      <trkpt lat="45.68257" lon="6.94255">
        <ele>2061.7</ele>
        <time>2012-03-28T11:00:41.43</time>
      </trkpt>
      <trkpt lat="45.68258" lon="6.94255">
        <ele>2062.9</ele>
        <time>2012-03-28T11:00:42.43</time>
      </trkpt>
      <trkpt lat="45.68258" lon="6.94255">
        <ele>2059.4</ele>
        <time>2012-03-28T11:00:43.43</time>
      </trkpt>
      <trkpt lat="45.68259" lon="6.94256">
        <ele>2060.3</ele>
        <time>2012-03-28T11:00:44.43</time>
      </trkpt>
      <trkpt lat="45.6826" lon="6.94256">
        <ele>2059.7</ele>
        <time>2012-03-28T11:00:45.43</time>
      </trkpt>
      <trkpt lat="45.68261" lon="6.94256">
        <ele>2056.5</ele>
        <time>2012-03-28T11:00:46.42</time>
      </trkpt>
      <trkpt lat="45.68261" lon="6.94258">
        <ele>2053.1</ele>
        <time>2012-03-28T11:00:47.42</time>
      </trkpt>
      <trkpt lat="45.68262" lon="6.94258">
        <ele>2055.5</ele>
        <time>2012-03-28T11:00:48.42</time>
      </trkpt>
      <trkpt lat="45.68262" lon="6.94259">
        <ele>2057.1</ele>
        <time>2012-03-28T11:00:49.42</time>
      </trkpt>
      <trkpt lat="45.68263" lon="6.9426">
        <ele>2057.8</ele>
        <time>2012-03-28T11:00:50.42</time>
      </trkpt>
      <trkpt lat="45.68264" lon="6.9426">
        <ele>2061.1</ele>
        <time>2012-03-28T11:00:51.43</time>
      </trkpt>
      <trkpt lat="45.68264" lon="6.9426">
        <ele>2060.9</ele>
        <time>2012-03-28T11:00:52.42</time>
      </trkpt>
      <trkpt lat="45.68265" lon="6.94263">
        <ele>2062.9</ele>
        <time>2012-03-28T11:00:53.42</time>
      </trkpt>
      <trkpt lat="45.68266" lon="6.94263">
        <ele>2065.8</ele>
        <time>2012-03-28T11:00:54.42</time>
      </trkpt>
      <trkpt lat="45.68266" lon="6.94263">
        <ele>2066.5</ele>
        <time>2012-03-28T11:00:55.43</time>
      </trkpt>
      <trkpt lat="45.68268" lon="6.94263">
        <ele>2071.4</ele>
        <time>2012-03-28T11:00:56.42</time>
      </trkpt>
      <trkpt lat="45.68268" lon="6.94263">
        <ele>2071.1</ele>
        <time>2012-03-28T11:00:57.43</time>
      </trkpt>
      <trkpt lat="45.68269" lon="6.94264">
        <ele>2069.6</ele>
        <time>2012-03-28T11:00:58.42</time>
      </trkpt>
      <trkpt lat="45.6827" lon="6.94264">
        <ele>2067.2</ele>
        <time>2012-03-28T11:00:59.43</time>
      </trkpt>
      <trkpt lat="45.68271" lon="6.94264">
        <ele>2064</ele>
        <time>2012-03-28T11:01:00.42</time>
      </trkpt>
      <trkpt lat="45.68271" lon="6.94265">
        <ele>2063</ele>
        <time>2012-03-28T11:01:01.43</time>
      </trkpt>
      <trkpt lat="45.68272" lon="6.94265">
        <ele>2064.4</ele>
        <time>2012-03-28T11:01:02.42</time>
      </trkpt>
      <trkpt lat="45.68273" lon="6.94265">
        <ele>2064.1</ele>
        <time>2012-03-28T11:01:03.42</time>
      </trkpt>
      <trkpt lat="45.68274" lon="6.94266">
        <ele>2063.6</ele>
        <time>2012-03-28T11:01:04.43</time>
      </trkpt>
      <trkpt lat="45.68275" lon="6.94266">
        <ele>2058.4</ele>
        <time>2012-03-28T11:01:05.42</time>
      </trkpt>
      <trkpt lat="45.68276" lon="6.94267">
        <ele>2059.4</ele>
        <time>2012-03-28T11:01:06.42</time>
      </trkpt>
      <trkpt lat="45.68277" lon="6.94268">
        <ele>2060.2</ele>
        <time>2012-03-28T11:01:07.43</time>
      </trkpt>
      <trkpt lat="45.68277" lon="6.94268">
        <ele>2067.7</ele>
        <time>2012-03-28T11:01:08.42</time>
      </trkpt>
      <trkpt lat="45.68277" lon="6.94269">
        <ele>2067.1</ele>
        <time>2012-03-28T11:01:09.43</time>
      </trkpt>
      <trkpt lat="45.68277" lon="6.9427">
        <ele>2067.2</ele>
        <time>2012-03-28T11:01:10.42</time>
      </trkpt>
      <trkpt lat="45.68278" lon="6.94271">
        <ele>2064.9</ele>
        <time>2012-03-28T11:01:11.43</time>
      </trkpt>
      <trkpt lat="45.68278" lon="6.94272">
        <ele>2064.1</ele>
        <time>2012-03-28T11:01:12.42</time>
      </trkpt>
      <trkpt lat="45.68279" lon="6.94272">
        <ele>2064.7</ele>
        <time>2012-03-28T11:01:13.43</time>
      </trkpt>
      <trkpt lat="45.68279" lon="6.94272">
        <ele>2064.9</ele>
        <time>2012-03-28T11:01:14.42</time>
      </trkpt>
      <trkpt lat="45.6828" lon="6.94272">
        <ele>2063.4</ele>
        <time>2012-03-28T11:01:15.43</time>
      </trkpt>
      <trkpt lat="45.68281" lon="6.94273">
        <ele>2064.2</ele>
        <time>2012-03-28T11:01:16.42</time>
      </trkpt>
      <trkpt lat="45.68281" lon="6.94274">
        <ele>2066.5</ele>
        <time>2012-03-28T11:01:17.42</time>
      </trkpt>
      <trkpt lat="45.68282" lon="6.94274">
        <ele>2066.7</ele>
        <time>2012-03-28T11:01:18.42</time>
      </trkpt>
      <trkpt lat="45.68282" lon="6.94275">
        <ele>2066.9</ele>
        <time>2012-03-28T11:01:19.42</time>
      </trkpt>
      <trkpt lat="45.68283" lon="6.94276">
        <ele>2068.5</ele>
        <time>2012-03-28T11:01:20.42</time>
      </trkpt>
      <trkpt lat="45.68284" lon="6.94276">
        <ele>2068.9</ele>
        <time>2012-03-28T11:01:21.42</time>
      </trkpt>
      <trkpt lat="45.68285" lon="6.94277">
        <ele>2067.1</ele>
        <time>2012-03-28T11:01:22.42</time>
      </trkpt>
      <trkpt lat="45.68286" lon="6.94278">
        <ele>2068.4</ele>
        <time>2012-03-28T11:01:23.42</time>
      </trkpt>
      <trkpt lat="45.68287" lon="6.94278">
        <ele>2070.5</ele>
        <time>2012-03-28T11:01:24.42</time>
      </trkpt>
      <trkpt lat="45.68288" lon="6.94279">
        <ele>2069.1</ele>
        <time>2012-03-28T11:01:25.42</time>
      </trkpt>
      <trkpt lat="45.68289" lon="6.94279">
        <ele>2064.8</ele>
        <time>2012-03-28T11:01:26.42</time>
      </trkpt>
      <trkpt lat="45.6829" lon="6.9428">
        <ele>2069.1</ele>
        <time>2012-03-28T11:01:27.42</time>
      </trkpt>
      <trkpt lat="45.68291" lon="6.9428">
        <ele>2070</ele>
        <time>2012-03-28T11:01:28.42</time>
      </trkpt>
      <trkpt lat="45.68292" lon="6.94281">
        <ele>2068.4</ele>
        <time>2012-03-28T11:01:29.42</time>
      </trkpt>
      <trkpt lat="45.68292" lon="6.94281">
        <ele>2065.5</ele>
        <time>2012-03-28T11:01:30.42</time>
      </trkpt>
      <trkpt lat="45.68293" lon="6.94282">
        <ele>2068.3</ele>
        <time>2012-03-28T11:01:31.42</time>
      </trkpt>
      <trkpt lat="45.68294" lon="6.94282">
        <ele>2067.8</ele>
        <time>2012-03-28T11:01:32.42</time>
      </trkpt>
      <trkpt lat="45.68295" lon="6.94282">
        <ele>2068.7</ele>
        <time>2012-03-28T11:01:33.42</time>
      </trkpt>
      <trkpt lat="45.68296" lon="6.94283">
        <ele>2068.1</ele>
        <time>2012-03-28T11:01:34.43</time>
      </trkpt>
      <trkpt lat="45.68297" lon="6.94283">
        <ele>2070.5</ele>
        <time>2012-03-28T11:01:35.43</time>
      </trkpt>
      <trkpt lat="45.68298" lon="6.94284">
        <ele>2072.1</ele>
        <time>2012-03-28T11:01:36.42</time>
      </trkpt>
      <trkpt lat="45.68299" lon="6.94284">
        <ele>2073.7</ele>
        <time>2012-03-28T11:01:37.42</time>
      </trkpt>
      <trkpt lat="45.683" lon="6.94285">
        <ele>2071</ele>
        <time>2012-03-28T11:01:38.42</time>
      </trkpt>
      <trkpt lat="45.683" lon="6.94285">
        <ele>2071.4</ele>
        <time>2012-03-28T11:01:39.40</time>
      </trkpt>
      <trkpt lat="45.68301" lon="6.94286">
        <ele>2067.3</ele>
        <time>2012-03-28T11:01:40.43</time>
      </trkpt>
      <trkpt lat="45.68301" lon="6.94287">
        <ele>2071</ele>
        <time>2012-03-28T11:01:41.42</time>
      </trkpt>
      <trkpt lat="45.68302" lon="6.94288">
        <ele>2068.3</ele>
        <time>2012-03-28T11:01:42.43</time>
      </trkpt>
      <trkpt lat="45.68302" lon="6.94289">
        <ele>2068.9</ele>
        <time>2012-03-28T11:01:43.43</time>
      </trkpt>
      <trkpt lat="45.68303" lon="6.94289">
        <ele>2070.6</ele>
        <time>2012-03-28T11:01:44.43</time>
      </trkpt>
      <trkpt lat="45.68303" lon="6.9429">
        <ele>2069.1</ele>
        <time>2012-03-28T11:01:45.43</time>
      </trkpt>
      <trkpt lat="45.68303" lon="6.9429">
        <ele>2069</ele>
        <time>2012-03-28T11:01:46.42</time>
      </trkpt>
      <trkpt lat="45.68304" lon="6.94291">
        <ele>2070.3</ele>
        <time>2012-03-28T11:01:47.42</time>
      </trkpt>
      <trkpt lat="45.68304" lon="6.94293">
        <ele>2072.9</ele>
        <time>2012-03-28T11:01:48.42</time>
      </trkpt>
      <trkpt lat="45.68305" lon="6.94293">
        <ele>2074.8</ele>
        <time>2012-03-28T11:01:49.42</time>
      </trkpt>
      <trkpt lat="45.68306" lon="6.94294">
        <ele>2072.6</ele>
        <time>2012-03-28T11:01:50.42</time>
      </trkpt>
      <trkpt lat="45.68307" lon="6.94295">
        <ele>2072.9</ele>
        <time>2012-03-28T11:01:51.42</time>
      </trkpt>
      <trkpt lat="45.68307" lon="6.94296">
        <ele>2077.6</ele>
        <time>2012-03-28T11:01:52.42</time>
      </trkpt>
      <trkpt lat="45.68308" lon="6.94296">
        <ele>2076.7</ele>
        <time>2012-03-28T11:01:53.42</time>
      </trkpt>
      <trkpt lat="45.68309" lon="6.94297">
        <ele>2072.9</ele>
        <time>2012-03-28T11:01:54.44</time>
      </trkpt>
      <trkpt lat="45.6831" lon="6.94298">
        <ele>2075.1</ele>
        <time>2012-03-28T11:01:55.40</time>
      </trkpt>
      <trkpt lat="45.68311" lon="6.94299">
        <ele>2077.2</ele>
        <time>2012-03-28T11:01:56.40</time>
      </trkpt>
      <trkpt lat="45.68312" lon="6.94299">
        <ele>2074.9</ele>
        <time>2012-03-28T11:01:57.40</time>
      </trkpt>
      <trkpt lat="45.68312" lon="6.943">
        <ele>2077.7</ele>
        <time>2012-03-28T11:01:58.42</time>
      </trkpt>
      <trkpt lat="45.68313" lon="6.943">
        <ele>2078.2</ele>
        <time>2012-03-28T11:01:59.53</time>
      </trkpt>
      <trkpt lat="45.68314" lon="6.94301">
        <ele>2077.1</ele>
        <time>2012-03-28T11:02:00.40</time>
      </trkpt>
      <trkpt lat="45.68315" lon="6.94301">
        <ele>2079.2</ele>
        <time>2012-03-28T11:02:01.40</time>
      </trkpt>
      <trkpt lat="45.68315" lon="6.94302">
        <ele>2081.8</ele>
        <time>2012-03-28T11:02:02.40</time>
      </trkpt>
      <trkpt lat="45.68317" lon="6.94303">
        <ele>2078.8</ele>
        <time>2012-03-28T11:02:03.40</time>
      </trkpt>
      <trkpt lat="45.68319" lon="6.94303">
        <ele>2077</ele>
        <time>2012-03-28T11:02:04.40</time>
      </trkpt>
      <trkpt lat="45.6832" lon="6.94304">
        <ele>2078</ele>
        <time>2012-03-28T11:02:05.40</time>
      </trkpt>
      <trkpt lat="45.6832" lon="6.94305">
        <ele>2079.7</ele>
        <time>2012-03-28T11:02:06.41</time>
      </trkpt>
      <trkpt lat="45.68321" lon="6.94306">
        <ele>2078.9</ele>
        <time>2012-03-28T11:02:07.41</time>
      </trkpt>
      <trkpt lat="45.68321" lon="6.94307">
        <ele>2080.2</ele>
        <time>2012-03-28T11:02:08.43</time>
      </trkpt>
      <trkpt lat="45.68321" lon="6.94307">
        <ele>2080.8</ele>
        <time>2012-03-28T11:02:09.44</time>
      </trkpt>
      <trkpt lat="45.68323" lon="6.94307">
        <ele>2081.9</ele>
        <time>2012-03-28T11:02:10.43</time>
      </trkpt>
      <trkpt lat="45.68323" lon="6.94307">
        <ele>2085</ele>
        <time>2012-03-28T11:02:11.44</time>
      </trkpt>
      <trkpt lat="45.68323" lon="6.94308">
        <ele>2085</ele>
        <time>2012-03-28T11:02:12.44</time>
      </trkpt>
      <trkpt lat="45.68324" lon="6.94309">
        <ele>2082.2</ele>
        <time>2012-03-28T11:02:13.43</time>
      </trkpt>
      <trkpt lat="45.68324" lon="6.9431">
        <ele>2078.2</ele>
        <time>2012-03-28T11:02:14.43</time>
      </trkpt>
      <trkpt lat="45.68325" lon="6.94312">
        <ele>2079.9</ele>
        <time>2012-03-28T11:02:15.44</time>
      </trkpt>
      <trkpt lat="45.68325" lon="6.94314">
        <ele>2080.4</ele>
        <time>2012-03-28T11:02:16.43</time>
      </trkpt>
      <trkpt lat="45.68327" lon="6.94316">
        <ele>2080.1</ele>
        <time>2012-03-28T11:02:17.44</time>
      </trkpt>
      <trkpt lat="45.68328" lon="6.94317">
        <ele>2081.2</ele>
        <time>2012-03-28T11:02:18.44</time>
      </trkpt>
      <trkpt lat="45.68329" lon="6.94319">
        <ele>2080.8</ele>
        <time>2012-03-28T11:02:19.44</time>
      </trkpt>
      <trkpt lat="45.68329" lon="6.9432">
        <ele>2076.9</ele>
        <time>2012-03-28T11:02:20.44</time>
      </trkpt>
      <trkpt lat="45.68329" lon="6.94321">
        <ele>2078.3</ele>
        <time>2012-03-28T11:02:21.44</time>
      </trkpt>
      <trkpt lat="45.6833" lon="6.94322">
        <ele>2079.1</ele>
        <time>2012-03-28T11:02:22.44</time>
      </trkpt>
      <trkpt lat="45.6833" lon="6.94322">
        <ele>2080.2</ele>
        <time>2012-03-28T11:02:23.43</time>
      </trkpt>
      <trkpt lat="45.68331" lon="6.94323">
        <ele>2081.5</ele>
        <time>2012-03-28T11:02:24.44</time>
      </trkpt>
      <trkpt lat="45.68332" lon="6.94324">
        <ele>2080.6</ele>
        <time>2012-03-28T11:02:25.44</time>
      </trkpt>
      <trkpt lat="45.68333" lon="6.94326">
        <ele>2078.7</ele>
        <time>2012-03-28T11:02:26.43</time>
      </trkpt>
      <trkpt lat="45.68334" lon="6.94328">
        <ele>2078.2</ele>
        <time>2012-03-28T11:02:27.44</time>
      </trkpt>
      <trkpt lat="45.68335" lon="6.94329">
        <ele>2076.1</ele>
        <time>2012-03-28T11:02:28.44</time>
      </trkpt>
      <trkpt lat="45.68336" lon="6.9433">
        <ele>2078.8</ele>
        <time>2012-03-28T11:02:29.44</time>
      </trkpt>
      <trkpt lat="45.68337" lon="6.94332">
        <ele>2079.7</ele>
        <time>2012-03-28T11:02:30.42</time>
      </trkpt>
      <trkpt lat="45.68338" lon="6.94333">
        <ele>2079.2</ele>
        <time>2012-03-28T11:02:31.42</time>
      </trkpt>
      <trkpt lat="45.68339" lon="6.94334">
        <ele>2081.8</ele>
        <time>2012-03-28T11:02:32.42</time>
      </trkpt>
      <trkpt lat="45.6834" lon="6.94335">
        <ele>2079.4</ele>
        <time>2012-03-28T11:02:33.42</time>
      </trkpt>
      <trkpt lat="45.6834" lon="6.94336">
        <ele>2079</ele>
        <time>2012-03-28T11:02:34.42</time>
      </trkpt>
      <trkpt lat="45.68341" lon="6.94337">
        <ele>2076.7</ele>
        <time>2012-03-28T11:02:35.42</time>
      </trkpt>
      <trkpt lat="45.68341" lon="6.94338">
        <ele>2079.7</ele>
        <time>2012-03-28T11:02:36.42</time>
      </trkpt>
      <trkpt lat="45.68342" lon="6.94339">
        <ele>2078.6</ele>
        <time>2012-03-28T11:02:37.43</time>
      </trkpt>
      <trkpt lat="45.68342" lon="6.9434">
        <ele>2079.2</ele>
        <time>2012-03-28T11:02:38.42</time>
      </trkpt>
      <trkpt lat="45.68343" lon="6.94341">
        <ele>2076.3</ele>
        <time>2012-03-28T11:02:39.42</time>
      </trkpt>
      <trkpt lat="45.68343" lon="6.94342">
        <ele>2076.4</ele>
        <time>2012-03-28T11:02:40.44</time>
      </trkpt>
      <trkpt lat="45.68344" lon="6.94343">
        <ele>2079.7</ele>
        <time>2012-03-28T11:02:41.44</time>
      </trkpt>
      <trkpt lat="45.68345" lon="6.94344">
        <ele>2081</ele>
        <time>2012-03-28T11:02:42.44</time>
      </trkpt>
      <trkpt lat="45.68345" lon="6.94345">
        <ele>2082.9</ele>
        <time>2012-03-28T11:02:43.44</time>
      </trkpt>
      <trkpt lat="45.68346" lon="6.94346">
        <ele>2081.1</ele>
        <time>2012-03-28T11:02:44.44</time>
      </trkpt>
      <trkpt lat="45.68347" lon="6.94347">
        <ele>2080.8</ele>
        <time>2012-03-28T11:02:45.44</time>
      </trkpt>
      <trkpt lat="45.68348" lon="6.94347">
        <ele>2078.9</ele>
        <time>2012-03-28T11:02:46.44</time>
      </trkpt>
      <trkpt lat="45.68348" lon="6.94348">
        <ele>2080</ele>
        <time>2012-03-28T11:02:47.44</time>
      </trkpt>
      <trkpt lat="45.6835" lon="6.94349">
        <ele>2080.8</ele>
        <time>2012-03-28T11:02:48.44</time>
      </trkpt>
      <trkpt lat="45.68351" lon="6.94349">
        <ele>2082</ele>
        <time>2012-03-28T11:02:49.44</time>
      </trkpt>
      <trkpt lat="45.68352" lon="6.94349">
        <ele>2086.1</ele>
        <time>2012-03-28T11:02:50.44</time>
      </trkpt>
      <trkpt lat="45.68353" lon="6.94349">
        <ele>2086.8</ele>
        <time>2012-03-28T11:02:51.44</time>
      </trkpt>
      <trkpt lat="45.68354" lon="6.94349">
        <ele>2088.2</ele>
        <time>2012-03-28T11:02:52.44</time>
      </trkpt>
      <trkpt lat="45.68355" lon="6.94349">
        <ele>2089.4</ele>
        <time>2012-03-28T11:02:53.44</time>
      </trkpt>
      <trkpt lat="45.68355" lon="6.94349">
        <ele>2089.3</ele>
        <time>2012-03-28T11:02:54.44</time>
      </trkpt>
      <trkpt lat="45.68356" lon="6.94349">
        <ele>2088.9</ele>
        <time>2012-03-28T11:02:55.44</time>
      </trkpt>
      <trkpt lat="45.68357" lon="6.9435">
        <ele>2087.3</ele>
        <time>2012-03-28T11:02:56.44</time>
      </trkpt>
      <trkpt lat="45.68358" lon="6.94351">
        <ele>2088.3</ele>
        <time>2012-03-28T11:02:57.43</time>
      </trkpt>
      <trkpt lat="45.68358" lon="6.94352">
        <ele>2086.6</ele>
        <time>2012-03-28T11:02:58.44</time>
      </trkpt>
      <trkpt lat="45.6836" lon="6.94353">
        <ele>2084.4</ele>
        <time>2012-03-28T11:02:59.44</time>
      </trkpt>
      <trkpt lat="45.68361" lon="6.94354">
        <ele>2082.1</ele>
        <time>2012-03-28T11:03:00.41</time>
      </trkpt>
      <trkpt lat="45.68361" lon="6.94355">
        <ele>2080.9</ele>
        <time>2012-03-28T11:03:01.44</time>
      </trkpt>
      <trkpt lat="45.68363" lon="6.94356">
        <ele>2082.5</ele>
        <time>2012-03-28T11:03:02.44</time>
      </trkpt>
      <trkpt lat="45.68363" lon="6.94357">
        <ele>2082.8</ele>
        <time>2012-03-28T11:03:03.44</time>
      </trkpt>
      <trkpt lat="45.68364" lon="6.94357">
        <ele>2084.3</ele>
        <time>2012-03-28T11:03:04.44</time>
      </trkpt>
      <trkpt lat="45.68365" lon="6.94359">
        <ele>2084.8</ele>
        <time>2012-03-28T11:03:05.44</time>
      </trkpt>
      <trkpt lat="45.68366" lon="6.94359">
        <ele>2085.4</ele>
        <time>2012-03-28T11:03:06.44</time>
      </trkpt>
      <trkpt lat="45.68367" lon="6.94359">
        <ele>2084.9</ele>
        <time>2012-03-28T11:03:07.44</time>
      </trkpt>
      <trkpt lat="45.68368" lon="6.9436">
        <ele>2085.1</ele>
        <time>2012-03-28T11:03:08.44</time>
      </trkpt>
      <trkpt lat="45.68369" lon="6.9436">
        <ele>2083.3</ele>
        <time>2012-03-28T11:03:09.44</time>
      </trkpt>
      <trkpt lat="45.6837" lon="6.94361">
        <ele>2083.4</ele>
        <time>2012-03-28T11:03:10.44</time>
      </trkpt>
      <trkpt lat="45.68371" lon="6.94363">
        <ele>2082.2</ele>
        <time>2012-03-28T11:03:11.44</time>
      </trkpt>
      <trkpt lat="45.68373" lon="6.94364">
        <ele>2081.1</ele>
        <time>2012-03-28T11:03:12.44</time>
      </trkpt>
      <trkpt lat="45.68374" lon="6.94364">
        <ele>2081.2</ele>
        <time>2012-03-28T11:03:13.44</time>
      </trkpt>
      <trkpt lat="45.68375" lon="6.94364">
        <ele>2082</ele>
        <time>2012-03-28T11:03:14.44</time>
      </trkpt>
      <trkpt lat="45.68376" lon="6.94365">
        <ele>2084</ele>
        <time>2012-03-28T11:03:15.44</time>
      </trkpt>
      <trkpt lat="45.68377" lon="6.94365">
        <ele>2081.4</ele>
        <time>2012-03-28T11:03:16.44</time>
      </trkpt>
      <trkpt lat="45.68378" lon="6.94365">
        <ele>2083.9</ele>
        <time>2012-03-28T11:03:17.43</time>
      </trkpt>
      <trkpt lat="45.68379" lon="6.94365">
        <ele>2084.2</ele>
        <time>2012-03-28T11:03:18.44</time>
      </trkpt>
      <trkpt lat="45.6838" lon="6.94366">
        <ele>2080.4</ele>
        <time>2012-03-28T11:03:19.44</time>
      </trkpt>
      <trkpt lat="45.68381" lon="6.94366">
        <ele>2080.1</ele>
        <time>2012-03-28T11:03:20.43</time>
      </trkpt>
      <trkpt lat="45.68382" lon="6.94366">
        <ele>2081.7</ele>
        <time>2012-03-28T11:03:21.44</time>
      </trkpt>
      <trkpt lat="45.68383" lon="6.94366">
        <ele>2081.7</ele>
        <time>2012-03-28T11:03:22.44</time>
      </trkpt>
      <trkpt lat="45.68384" lon="6.94366">
        <ele>2081.6</ele>
        <time>2012-03-28T11:03:23.43</time>
      </trkpt>
      <trkpt lat="45.68385" lon="6.94367">
        <ele>2083.8</ele>
        <time>2012-03-28T11:03:24.44</time>
      </trkpt>
      <trkpt lat="45.68385" lon="6.94367">
        <ele>2081.2</ele>
        <time>2012-03-28T11:03:25.44</time>
      </trkpt>
      <trkpt lat="45.68386" lon="6.94368">
        <ele>2086.2</ele>
        <time>2012-03-28T11:03:26.44</time>
      </trkpt>
      <trkpt lat="45.68387" lon="6.94369">
        <ele>2083.7</ele>
        <time>2012-03-28T11:03:27.44</time>
      </trkpt>
      <trkpt lat="45.68387" lon="6.9437">
        <ele>2084.8</ele>
        <time>2012-03-28T11:03:28.44</time>
      </trkpt>
      <trkpt lat="45.68387" lon="6.94371">
        <ele>2082.5</ele>
        <time>2012-03-28T11:03:29.44</time>
      </trkpt>
      <trkpt lat="45.68387" lon="6.94371">
        <ele>2081.4</ele>
        <time>2012-03-28T11:03:30.44</time>
      </trkpt>
      <trkpt lat="45.68387" lon="6.94371">
        <ele>2081.6</ele>
        <time>2012-03-28T11:03:31.40</time>
      </trkpt>
      <trkpt lat="45.68387" lon="6.94371">
        <ele>2082.7</ele>
        <time>2012-03-28T11:03:32.46</time>
      </trkpt>
      <trkpt lat="45.68387" lon="6.94371">
        <ele>2081.6</ele>
        <time>2012-03-28T11:03:33.40</time>
      </trkpt>
      <trkpt lat="45.68387" lon="6.94371">
        <ele>2079.5</ele>
        <time>2012-03-28T11:03:34.40</time>
      </trkpt>
      <trkpt lat="45.68387" lon="6.94371">
        <ele>2077.4</ele>
        <time>2012-03-28T11:03:35.39</time>
      </trkpt>
      <trkpt lat="45.68387" lon="6.94371">
        <ele>2077.4</ele>
        <time>2012-03-28T11:03:36.40</time>
      </trkpt>
      <trkpt lat="45.68387" lon="6.94371">
        <ele>2078.4</ele>
        <time>2012-03-28T11:03:37.40</time>
      </trkpt>
      <trkpt lat="45.68387" lon="6.94371">
        <ele>2078.7</ele>
        <time>2012-03-28T11:03:38.40</time>
      </trkpt>
      <trkpt lat="45.68387" lon="6.94371">
        <ele>2081.6</ele>
        <time>2012-03-28T11:03:39.40</time>
      </trkpt>
      <trkpt lat="45.68387" lon="6.94371">
        <ele>2081.6</ele>
        <time>2012-03-28T11:03:40.40</time>
      </trkpt>
      <trkpt lat="45.68387" lon="6.94371">
        <ele>2082.2</ele>
        <time>2012-03-28T11:03:41.40</time>
      </trkpt>
      <trkpt lat="45.68387" lon="6.94371">
        <ele>2082.2</ele>
        <time>2012-03-28T11:03:41.88</time>
      </trkpt>
    </trkseg>
  </trk>
</gpx>